<?xml version="1.0" encoding="UTF-8" standalone="no" ?>
<gpx xmlns="http://www.topografix.com/GPX/1/1" xmlns:xsi="http://www.w3.org/2001/XMLSchema-instance" xsi:schemaLocation="http://www.topografix.com/GPX/1/1 http://www.topografix.com/GPX/1/1/gpx.xsd" version="1.1" creator="VisuGPX - https://www.visugpx.com">
  <metadata>
    <name>Boucle des Malvallon par la Cayolle</name>
    <desc><![CDATA[Démarrage par le sentier rouge 1 depuis le parking rue Louis Pierotti jusqu'au sentier vert. Au Col de la Selle, sentier bleu jusqu'au sommet Ouest de l'Homme Mort. Puis descente (assez raide et délicate) par le sentier jaune en passant par les Trois Arches. En bas, on prend le sentier vert 4 du Malvallon Sud. Passage par le belvédère Titou-Ninou. Puis descente toujours par le sentier vert 4. Enfin, on rejoint le sentier rouge 1 jusqu'au parking.]]></desc>
  </metadata>
  <trk>
    <name><![CDATA[Boucle des Malvallon par la Cayolle_1]]></name>
    <trkseg>
      <trkpt lat="43.23114" lon="5.39522">
        <ele>90</ele>
        <time>2021-05-09T07:56:35Z</time>
      </trkpt>
      <trkpt lat="43.23093" lon="5.39496">
        <ele>80</ele>
        <time>2021-05-09T08:03:37Z</time>
      </trkpt>
      <trkpt lat="43.23086" lon="5.3948">
        <ele>77</ele>
        <time>2021-05-09T08:03:46Z</time>
      </trkpt>
      <trkpt lat="43.23079" lon="5.39467">
        <ele>75</ele>
        <time>2021-05-09T08:03:56Z</time>
      </trkpt>
      <trkpt lat="43.23072" lon="5.39459">
        <ele>75</ele>
        <time>2021-05-09T08:04:06Z</time>
      </trkpt>
      <trkpt lat="43.23065" lon="5.3945">
        <ele>75</ele>
        <time>2021-05-09T08:04:16Z</time>
      </trkpt>
      <trkpt lat="43.23059" lon="5.39451">
        <ele>75</ele>
        <time>2021-05-09T08:04:26Z</time>
      </trkpt>
      <trkpt lat="43.23052" lon="5.39446">
        <ele>76</ele>
        <time>2021-05-09T08:04:36Z</time>
      </trkpt>
      <trkpt lat="43.23045" lon="5.39437">
        <ele>76</ele>
        <time>2021-05-09T08:04:46Z</time>
      </trkpt>
      <trkpt lat="43.23037" lon="5.3943">
        <ele>76</ele>
        <time>2021-05-09T08:04:56Z</time>
      </trkpt>
      <trkpt lat="43.2303" lon="5.39423">
        <ele>76</ele>
        <time>2021-05-09T08:05:06Z</time>
      </trkpt>
      <trkpt lat="43.23023" lon="5.3942">
        <ele>76</ele>
        <time>2021-05-09T08:05:15Z</time>
      </trkpt>
      <trkpt lat="43.23019" lon="5.39413">
        <ele>77</ele>
        <time>2021-05-09T08:05:24Z</time>
      </trkpt>
      <trkpt lat="43.23019" lon="5.39401">
        <ele>77</ele>
        <time>2021-05-09T08:05:33Z</time>
      </trkpt>
      <trkpt lat="43.23022" lon="5.39388">
        <ele>81</ele>
        <time>2021-05-09T08:05:42Z</time>
      </trkpt>
      <trkpt lat="43.23024" lon="5.39378">
        <ele>87</ele>
        <time>2021-05-09T08:05:51Z</time>
      </trkpt>
      <trkpt lat="43.23023" lon="5.39364">
        <ele>88</ele>
        <time>2021-05-09T08:06:01Z</time>
      </trkpt>
      <trkpt lat="43.2302" lon="5.39351">
        <ele>88</ele>
        <time>2021-05-09T08:06:11Z</time>
      </trkpt>
      <trkpt lat="43.23018" lon="5.39338">
        <ele>88</ele>
        <time>2021-05-09T08:06:20Z</time>
      </trkpt>
      <trkpt lat="43.23009" lon="5.39328">
        <ele>88</ele>
        <time>2021-05-09T08:06:30Z</time>
      </trkpt>
      <trkpt lat="43.23002" lon="5.39318">
        <ele>88</ele>
        <time>2021-05-09T08:06:40Z</time>
      </trkpt>
      <trkpt lat="43.22994" lon="5.3931">
        <ele>87</ele>
        <time>2021-05-09T08:06:49Z</time>
      </trkpt>
      <trkpt lat="43.22988" lon="5.39303">
        <ele>87</ele>
        <time>2021-05-09T08:06:58Z</time>
      </trkpt>
      <trkpt lat="43.2298" lon="5.39293">
        <ele>87</ele>
        <time>2021-05-09T08:07:07Z</time>
      </trkpt>
      <trkpt lat="43.22972" lon="5.39286">
        <ele>87</ele>
        <time>2021-05-09T08:07:16Z</time>
      </trkpt>
      <trkpt lat="43.22963" lon="5.39278">
        <ele>87</ele>
        <time>2021-05-09T08:07:25Z</time>
      </trkpt>
      <trkpt lat="43.22956" lon="5.39266">
        <ele>87</ele>
        <time>2021-05-09T08:07:36Z</time>
      </trkpt>
      <trkpt lat="43.22947" lon="5.39252">
        <ele>83</ele>
        <time>2021-05-09T08:07:45Z</time>
      </trkpt>
      <trkpt lat="43.2294" lon="5.39243">
        <ele>82</ele>
        <time>2021-05-09T08:07:54Z</time>
      </trkpt>
      <trkpt lat="43.22937" lon="5.39236">
        <ele>84</ele>
        <time>2021-05-09T08:08:03Z</time>
      </trkpt>
      <trkpt lat="43.22932" lon="5.39228">
        <ele>86</ele>
        <time>2021-05-09T08:08:12Z</time>
      </trkpt>
      <trkpt lat="43.22923" lon="5.39216">
        <ele>86</ele>
        <time>2021-05-09T08:08:22Z</time>
      </trkpt>
      <trkpt lat="43.22914" lon="5.39206">
        <ele>86</ele>
        <time>2021-05-09T08:08:32Z</time>
      </trkpt>
      <trkpt lat="43.22909" lon="5.39195">
        <ele>86</ele>
        <time>2021-05-09T08:08:44Z</time>
      </trkpt>
      <trkpt lat="43.22903" lon="5.39188">
        <ele>86</ele>
        <time>2021-05-09T08:08:53Z</time>
      </trkpt>
      <trkpt lat="43.22895" lon="5.39177">
        <ele>86</ele>
        <time>2021-05-09T08:09:02Z</time>
      </trkpt>
      <trkpt lat="43.22888" lon="5.3917">
        <ele>86</ele>
        <time>2021-05-09T08:09:12Z</time>
      </trkpt>
      <trkpt lat="43.22879" lon="5.39163">
        <ele>86</ele>
        <time>2021-05-09T08:09:23Z</time>
      </trkpt>
      <trkpt lat="43.22868" lon="5.39157">
        <ele>86</ele>
        <time>2021-05-09T08:09:32Z</time>
      </trkpt>
      <trkpt lat="43.22859" lon="5.39155">
        <ele>86</ele>
        <time>2021-05-09T08:09:42Z</time>
      </trkpt>
      <trkpt lat="43.22847" lon="5.39154">
        <ele>86</ele>
        <time>2021-05-09T08:09:51Z</time>
      </trkpt>
      <trkpt lat="43.22838" lon="5.39148">
        <ele>86</ele>
        <time>2021-05-09T08:10:00Z</time>
      </trkpt>
      <trkpt lat="43.22827" lon="5.39143">
        <ele>84</ele>
        <time>2021-05-09T08:10:09Z</time>
      </trkpt>
      <trkpt lat="43.22818" lon="5.39141">
        <ele>84</ele>
        <time>2021-05-09T08:10:18Z</time>
      </trkpt>
      <trkpt lat="43.22808" lon="5.39138">
        <ele>84</ele>
        <time>2021-05-09T08:10:28Z</time>
      </trkpt>
      <trkpt lat="43.22799" lon="5.39135">
        <ele>84</ele>
        <time>2021-05-09T08:10:37Z</time>
      </trkpt>
      <trkpt lat="43.22789" lon="5.3913">
        <ele>86</ele>
        <time>2021-05-09T08:10:46Z</time>
      </trkpt>
      <trkpt lat="43.22779" lon="5.39123">
        <ele>86</ele>
        <time>2021-05-09T08:10:55Z</time>
      </trkpt>
      <trkpt lat="43.2277" lon="5.3912">
        <ele>88</ele>
        <time>2021-05-09T08:11:04Z</time>
      </trkpt>
      <trkpt lat="43.22762" lon="5.39115">
        <ele>93</ele>
        <time>2021-05-09T08:11:14Z</time>
      </trkpt>
      <trkpt lat="43.22753" lon="5.39104">
        <ele>93</ele>
        <time>2021-05-09T08:11:24Z</time>
      </trkpt>
      <trkpt lat="43.22745" lon="5.39093">
        <ele>93</ele>
        <time>2021-05-09T08:11:34Z</time>
      </trkpt>
      <trkpt lat="43.22739" lon="5.39082">
        <ele>93</ele>
        <time>2021-05-09T08:11:44Z</time>
      </trkpt>
      <trkpt lat="43.22735" lon="5.39073">
        <ele>98</ele>
        <time>2021-05-09T08:11:56Z</time>
      </trkpt>
      <trkpt lat="43.22731" lon="5.39067">
        <ele>108</ele>
        <time>2021-05-09T08:12:07Z</time>
      </trkpt>
      <trkpt lat="43.22724" lon="5.3906">
        <ele>112</ele>
        <time>2021-05-09T08:12:18Z</time>
      </trkpt>
      <trkpt lat="43.22716" lon="5.39054">
        <ele>113</ele>
        <time>2021-05-09T08:12:28Z</time>
      </trkpt>
      <trkpt lat="43.22712" lon="5.39045">
        <ele>110</ele>
        <time>2021-05-09T08:12:39Z</time>
      </trkpt>
      <trkpt lat="43.22704" lon="5.39047">
        <ele>110</ele>
        <time>2021-05-09T08:12:49Z</time>
      </trkpt>
      <trkpt lat="43.22699" lon="5.39045">
        <ele>110</ele>
        <time>2021-05-09T08:12:58Z</time>
      </trkpt>
      <trkpt lat="43.22688" lon="5.39046">
        <ele>117</ele>
        <time>2021-05-09T08:13:07Z</time>
      </trkpt>
      <trkpt lat="43.22679" lon="5.39046">
        <ele>122</ele>
        <time>2021-05-09T08:13:16Z</time>
      </trkpt>
      <trkpt lat="43.2267" lon="5.39046">
        <ele>125</ele>
        <time>2021-05-09T08:13:25Z</time>
      </trkpt>
      <trkpt lat="43.22662" lon="5.39047">
        <ele>127</ele>
        <time>2021-05-09T08:13:36Z</time>
      </trkpt>
      <trkpt lat="43.22652" lon="5.39048">
        <ele>131</ele>
        <time>2021-05-09T08:13:45Z</time>
      </trkpt>
      <trkpt lat="43.22639" lon="5.39047">
        <ele>134</ele>
        <time>2021-05-09T08:13:54Z</time>
      </trkpt>
      <trkpt lat="43.22629" lon="5.39048">
        <ele>136</ele>
        <time>2021-05-09T08:14:03Z</time>
      </trkpt>
      <trkpt lat="43.22623" lon="5.3905">
        <ele>136</ele>
        <time>2021-05-09T08:14:12Z</time>
      </trkpt>
      <trkpt lat="43.22614" lon="5.39051">
        <ele>136</ele>
        <time>2021-05-09T08:14:22Z</time>
      </trkpt>
      <trkpt lat="43.22607" lon="5.39051">
        <ele>134</ele>
        <time>2021-05-09T08:14:32Z</time>
      </trkpt>
      <trkpt lat="43.226" lon="5.39051">
        <ele>132</ele>
        <time>2021-05-09T08:14:43Z</time>
      </trkpt>
      <trkpt lat="43.22596" lon="5.3905">
        <ele>131</ele>
        <time>2021-05-09T08:14:54Z</time>
      </trkpt>
      <trkpt lat="43.22593" lon="5.39051">
        <ele>131</ele>
        <time>2021-05-09T08:15:07Z</time>
      </trkpt>
      <trkpt lat="43.22585" lon="5.39048">
        <ele>130</ele>
        <time>2021-05-09T08:15:16Z</time>
      </trkpt>
      <trkpt lat="43.22574" lon="5.39049">
        <ele>127</ele>
        <time>2021-05-09T08:15:25Z</time>
      </trkpt>
      <trkpt lat="43.22563" lon="5.3905">
        <ele>127</ele>
        <time>2021-05-09T08:15:34Z</time>
      </trkpt>
      <trkpt lat="43.22551" lon="5.39049">
        <ele>126</ele>
        <time>2021-05-09T08:15:43Z</time>
      </trkpt>
      <trkpt lat="43.22542" lon="5.39048">
        <ele>126</ele>
        <time>2021-05-09T08:15:52Z</time>
      </trkpt>
      <trkpt lat="43.22534" lon="5.39046">
        <ele>126</ele>
        <time>2021-05-09T08:16:01Z</time>
      </trkpt>
      <trkpt lat="43.2253" lon="5.39044">
        <ele>126</ele>
        <time>2021-05-09T08:16:10Z</time>
      </trkpt>
      <trkpt lat="43.22519" lon="5.39045">
        <ele>126</ele>
        <time>2021-05-09T08:16:20Z</time>
      </trkpt>
      <trkpt lat="43.22511" lon="5.39043">
        <ele>127</ele>
        <time>2021-05-09T08:16:30Z</time>
      </trkpt>
      <trkpt lat="43.22503" lon="5.39044">
        <ele>131</ele>
        <time>2021-05-09T08:16:40Z</time>
      </trkpt>
      <trkpt lat="43.22497" lon="5.39044">
        <ele>136</ele>
        <time>2021-05-09T08:16:52Z</time>
      </trkpt>
      <trkpt lat="43.22485" lon="5.39046">
        <ele>142</ele>
        <time>2021-05-09T08:17:01Z</time>
      </trkpt>
      <trkpt lat="43.22487" lon="5.39047">
        <ele>148</ele>
        <time>2021-05-09T08:17:12Z</time>
      </trkpt>
      <trkpt lat="43.22486" lon="5.39049">
        <ele>155</ele>
        <time>2021-05-09T08:17:25Z</time>
      </trkpt>
      <trkpt lat="43.22501" lon="5.39046">
        <ele>169</ele>
        <time>2021-05-09T08:17:34Z</time>
      </trkpt>
      <trkpt lat="43.22491" lon="5.39041">
        <ele>181</ele>
        <time>2021-05-09T08:17:43Z</time>
      </trkpt>
      <trkpt lat="43.22501" lon="5.39042">
        <ele>186</ele>
        <time>2021-05-09T08:17:52Z</time>
      </trkpt>
      <trkpt lat="43.22488" lon="5.39033">
        <ele>192</ele>
        <time>2021-05-09T08:18:01Z</time>
      </trkpt>
      <trkpt lat="43.22477" lon="5.39027">
        <ele>177</ele>
        <time>2021-05-09T08:18:12Z</time>
      </trkpt>
      <trkpt lat="43.22489" lon="5.39033">
        <ele>175</ele>
        <time>2021-05-09T08:18:22Z</time>
      </trkpt>
      <trkpt lat="43.22477" lon="5.39035">
        <ele>172</ele>
        <time>2021-05-09T08:18:31Z</time>
      </trkpt>
      <trkpt lat="43.22485" lon="5.39043">
        <ele>168</ele>
        <time>2021-05-09T08:18:40Z</time>
      </trkpt>
      <trkpt lat="43.22497" lon="5.39042">
        <ele>182</ele>
        <time>2021-05-09T08:18:49Z</time>
      </trkpt>
      <trkpt lat="43.22505" lon="5.39037">
        <ele>192</ele>
        <time>2021-05-09T08:18:58Z</time>
      </trkpt>
      <trkpt lat="43.22506" lon="5.39036">
        <ele>200</ele>
        <time>2021-05-09T08:19:07Z</time>
      </trkpt>
      <trkpt lat="43.2249" lon="5.39037">
        <ele>200</ele>
        <time>2021-05-09T08:19:16Z</time>
      </trkpt>
      <trkpt lat="43.22476" lon="5.39044">
        <ele>196</ele>
        <time>2021-05-09T08:19:25Z</time>
      </trkpt>
      <trkpt lat="43.22463" lon="5.39047">
        <ele>183</ele>
        <time>2021-05-09T08:19:34Z</time>
      </trkpt>
      <trkpt lat="43.22458" lon="5.39047">
        <ele>171</ele>
        <time>2021-05-09T08:19:45Z</time>
      </trkpt>
      <trkpt lat="43.22451" lon="5.39051">
        <ele>162</ele>
        <time>2021-05-09T08:19:55Z</time>
      </trkpt>
      <trkpt lat="43.22452" lon="5.39052">
        <ele>153</ele>
        <time>2021-05-09T08:20:05Z</time>
      </trkpt>
      <trkpt lat="43.22445" lon="5.3905">
        <ele>151</ele>
        <time>2021-05-09T08:20:15Z</time>
      </trkpt>
      <trkpt lat="43.22433" lon="5.3905">
        <ele>151</ele>
        <time>2021-05-09T08:20:25Z</time>
      </trkpt>
      <trkpt lat="43.22431" lon="5.39049">
        <ele>151</ele>
        <time>2021-05-09T08:20:34Z</time>
      </trkpt>
      <trkpt lat="43.22423" lon="5.39045">
        <ele>158</ele>
        <time>2021-05-09T08:20:43Z</time>
      </trkpt>
      <trkpt lat="43.22418" lon="5.39039">
        <ele>168</ele>
        <time>2021-05-09T08:20:53Z</time>
      </trkpt>
      <trkpt lat="43.22414" lon="5.39038">
        <ele>168</ele>
        <time>2021-05-09T08:21:03Z</time>
      </trkpt>
      <trkpt lat="43.22414" lon="5.39034">
        <ele>159</ele>
        <time>2021-05-09T08:21:14Z</time>
      </trkpt>
      <trkpt lat="43.22407" lon="5.39033">
        <ele>158</ele>
        <time>2021-05-09T08:21:23Z</time>
      </trkpt>
      <trkpt lat="43.22402" lon="5.39029">
        <ele>158</ele>
        <time>2021-05-09T08:21:34Z</time>
      </trkpt>
      <trkpt lat="43.22396" lon="5.3903">
        <ele>159</ele>
        <time>2021-05-09T08:21:44Z</time>
      </trkpt>
      <trkpt lat="43.22396" lon="5.39026">
        <ele>148</ele>
        <time>2021-05-09T08:21:53Z</time>
      </trkpt>
      <trkpt lat="43.22409" lon="5.39028">
        <ele>147</ele>
        <time>2021-05-09T08:22:02Z</time>
      </trkpt>
      <trkpt lat="43.22417" lon="5.39027">
        <ele>157</ele>
        <time>2021-05-09T08:22:12Z</time>
      </trkpt>
      <trkpt lat="43.22416" lon="5.39025">
        <ele>161</ele>
        <time>2021-05-09T08:22:21Z</time>
      </trkpt>
      <trkpt lat="43.22424" lon="5.39024">
        <ele>161</ele>
        <time>2021-05-09T08:22:30Z</time>
      </trkpt>
      <trkpt lat="43.22432" lon="5.39022">
        <ele>161</ele>
        <time>2021-05-09T08:22:40Z</time>
      </trkpt>
      <trkpt lat="43.2244" lon="5.39018">
        <ele>161</ele>
        <time>2021-05-09T08:22:50Z</time>
      </trkpt>
      <trkpt lat="43.22447" lon="5.39014">
        <ele>161</ele>
        <time>2021-05-09T08:22:59Z</time>
      </trkpt>
      <trkpt lat="43.22454" lon="5.3901">
        <ele>161</ele>
        <time>2021-05-09T08:23:09Z</time>
      </trkpt>
      <trkpt lat="43.2246" lon="5.39006">
        <ele>161</ele>
        <time>2021-05-09T08:23:19Z</time>
      </trkpt>
      <trkpt lat="43.22465" lon="5.39001">
        <ele>161</ele>
        <time>2021-05-09T08:23:28Z</time>
      </trkpt>
      <trkpt lat="43.22468" lon="5.38997">
        <ele>161</ele>
        <time>2021-05-09T08:23:40Z</time>
      </trkpt>
      <trkpt lat="43.22474" lon="5.38994">
        <ele>163</ele>
        <time>2021-05-09T08:23:50Z</time>
      </trkpt>
      <trkpt lat="43.22479" lon="5.38991">
        <ele>163</ele>
        <time>2021-05-09T08:23:59Z</time>
      </trkpt>
      <trkpt lat="43.22483" lon="5.38985">
        <ele>163</ele>
        <time>2021-05-09T08:24:10Z</time>
      </trkpt>
      <trkpt lat="43.22487" lon="5.38981">
        <ele>167</ele>
        <time>2021-05-09T08:24:19Z</time>
      </trkpt>
      <trkpt lat="43.22491" lon="5.38979">
        <ele>171</ele>
        <time>2021-05-09T08:24:28Z</time>
      </trkpt>
      <trkpt lat="43.22491" lon="5.38974">
        <ele>176</ele>
        <time>2021-05-09T08:24:38Z</time>
      </trkpt>
      <trkpt lat="43.22493" lon="5.3897">
        <ele>182</ele>
        <time>2021-05-09T08:24:49Z</time>
      </trkpt>
      <trkpt lat="43.22498" lon="5.38965">
        <ele>184</ele>
        <time>2021-05-09T08:24:59Z</time>
      </trkpt>
      <trkpt lat="43.22504" lon="5.38961">
        <ele>184</ele>
        <time>2021-05-09T08:25:09Z</time>
      </trkpt>
      <trkpt lat="43.22509" lon="5.38956">
        <ele>184</ele>
        <time>2021-05-09T08:25:18Z</time>
      </trkpt>
      <trkpt lat="43.22511" lon="5.38953">
        <ele>187</ele>
        <time>2021-05-09T08:25:36Z</time>
      </trkpt>
      <trkpt lat="43.22513" lon="5.38951">
        <ele>190</ele>
        <time>2021-05-09T08:25:54Z</time>
      </trkpt>
      <trkpt lat="43.22515" lon="5.38946">
        <ele>190</ele>
        <time>2021-05-09T08:26:03Z</time>
      </trkpt>
      <trkpt lat="43.22522" lon="5.38941">
        <ele>193</ele>
        <time>2021-05-09T08:26:13Z</time>
      </trkpt>
      <trkpt lat="43.2253" lon="5.38932">
        <ele>198</ele>
        <time>2021-05-09T08:26:23Z</time>
      </trkpt>
      <trkpt lat="43.22533" lon="5.38922">
        <ele>198</ele>
        <time>2021-05-09T08:26:32Z</time>
      </trkpt>
      <trkpt lat="43.22535" lon="5.38914">
        <ele>195</ele>
        <time>2021-05-09T08:26:41Z</time>
      </trkpt>
      <trkpt lat="43.22539" lon="5.38904">
        <ele>194</ele>
        <time>2021-05-09T08:26:51Z</time>
      </trkpt>
      <trkpt lat="43.22544" lon="5.38893">
        <ele>194</ele>
        <time>2021-05-09T08:27:02Z</time>
      </trkpt>
      <trkpt lat="43.22548" lon="5.38887">
        <ele>194</ele>
        <time>2021-05-09T08:27:12Z</time>
      </trkpt>
      <trkpt lat="43.22551" lon="5.38876">
        <ele>188</ele>
        <time>2021-05-09T08:27:21Z</time>
      </trkpt>
      <trkpt lat="43.22558" lon="5.38867">
        <ele>186</ele>
        <time>2021-05-09T08:27:31Z</time>
      </trkpt>
      <trkpt lat="43.22563" lon="5.38861">
        <ele>183</ele>
        <time>2021-05-09T08:27:40Z</time>
      </trkpt>
      <trkpt lat="43.22569" lon="5.38851">
        <ele>177</ele>
        <time>2021-05-09T08:27:50Z</time>
      </trkpt>
      <trkpt lat="43.22574" lon="5.38842">
        <ele>178</ele>
        <time>2021-05-09T08:27:59Z</time>
      </trkpt>
      <trkpt lat="43.22585" lon="5.38838">
        <ele>180</ele>
        <time>2021-05-09T08:28:08Z</time>
      </trkpt>
      <trkpt lat="43.2259" lon="5.38833">
        <ele>185</ele>
        <time>2021-05-09T08:28:17Z</time>
      </trkpt>
      <trkpt lat="43.22594" lon="5.38823">
        <ele>186</ele>
        <time>2021-05-09T08:28:27Z</time>
      </trkpt>
      <trkpt lat="43.22597" lon="5.38812">
        <ele>188</ele>
        <time>2021-05-09T08:28:37Z</time>
      </trkpt>
      <trkpt lat="43.22599" lon="5.38804">
        <ele>188</ele>
        <time>2021-05-09T08:28:46Z</time>
      </trkpt>
      <trkpt lat="43.22604" lon="5.38798">
        <ele>188</ele>
        <time>2021-05-09T08:28:55Z</time>
      </trkpt>
      <trkpt lat="43.22608" lon="5.38791">
        <ele>188</ele>
        <time>2021-05-09T08:29:05Z</time>
      </trkpt>
      <trkpt lat="43.22616" lon="5.38786">
        <ele>190</ele>
        <time>2021-05-09T08:29:15Z</time>
      </trkpt>
      <trkpt lat="43.22618" lon="5.38785">
        <ele>196</ele>
        <time>2021-05-09T08:29:24Z</time>
      </trkpt>
      <trkpt lat="43.22623" lon="5.38778">
        <ele>197</ele>
        <time>2021-05-09T08:29:34Z</time>
      </trkpt>
      <trkpt lat="43.22625" lon="5.38775">
        <ele>199</ele>
        <time>2021-05-09T08:29:43Z</time>
      </trkpt>
      <trkpt lat="43.2263" lon="5.38769">
        <ele>200</ele>
        <time>2021-05-09T08:29:54Z</time>
      </trkpt>
      <trkpt lat="43.22634" lon="5.38766">
        <ele>208</ele>
        <time>2021-05-09T08:30:05Z</time>
      </trkpt>
      <trkpt lat="43.22637" lon="5.38759">
        <ele>211</ele>
        <time>2021-05-09T08:30:14Z</time>
      </trkpt>
      <trkpt lat="43.22636" lon="5.38753">
        <ele>217</ele>
        <time>2021-05-09T08:30:24Z</time>
      </trkpt>
      <trkpt lat="43.22638" lon="5.38751">
        <ele>217</ele>
        <time>2021-05-09T08:30:34Z</time>
      </trkpt>
      <trkpt lat="43.22641" lon="5.38743">
        <ele>217</ele>
        <time>2021-05-09T08:30:43Z</time>
      </trkpt>
      <trkpt lat="43.22647" lon="5.38739">
        <ele>217</ele>
        <time>2021-05-09T08:30:52Z</time>
      </trkpt>
      <trkpt lat="43.22649" lon="5.38735">
        <ele>217</ele>
        <time>2021-05-09T08:31:02Z</time>
      </trkpt>
      <trkpt lat="43.22654" lon="5.38735">
        <ele>218</ele>
        <time>2021-05-09T08:31:11Z</time>
      </trkpt>
      <trkpt lat="43.22658" lon="5.38732">
        <ele>218</ele>
        <time>2021-05-09T08:31:20Z</time>
      </trkpt>
      <trkpt lat="43.22661" lon="5.38729">
        <ele>219</ele>
        <time>2021-05-09T08:31:32Z</time>
      </trkpt>
      <trkpt lat="43.22663" lon="5.38724">
        <ele>224</ele>
        <time>2021-05-09T08:31:42Z</time>
      </trkpt>
      <trkpt lat="43.22667" lon="5.38717">
        <ele>225</ele>
        <time>2021-05-09T08:31:53Z</time>
      </trkpt>
      <trkpt lat="43.2267" lon="5.38708">
        <ele>227</ele>
        <time>2021-05-09T08:32:03Z</time>
      </trkpt>
      <trkpt lat="43.22671" lon="5.38704">
        <ele>227</ele>
        <time>2021-05-09T08:32:21Z</time>
      </trkpt>
      <trkpt lat="43.22672" lon="5.38704">
        <ele>227</ele>
        <time>2021-05-09T08:32:36Z</time>
      </trkpt>
      <trkpt lat="43.22673" lon="5.38701">
        <ele>229</ele>
        <time>2021-05-09T08:33:01Z</time>
      </trkpt>
      <trkpt lat="43.22673" lon="5.38703">
        <ele>229</ele>
        <time>2021-05-09T08:33:10Z</time>
      </trkpt>
      <trkpt lat="43.22673" lon="5.38701">
        <ele>231</ele>
        <time>2021-05-09T08:33:20Z</time>
      </trkpt>
      <trkpt lat="43.22673" lon="5.38696">
        <ele>232</ele>
        <time>2021-05-09T08:33:30Z</time>
      </trkpt>
      <trkpt lat="43.2267" lon="5.38689">
        <ele>232</ele>
        <time>2021-05-09T08:33:40Z</time>
      </trkpt>
      <trkpt lat="43.22665" lon="5.38681">
        <ele>232</ele>
        <time>2021-05-09T08:33:51Z</time>
      </trkpt>
      <trkpt lat="43.2266" lon="5.38673">
        <ele>227</ele>
        <time>2021-05-09T08:34:01Z</time>
      </trkpt>
      <trkpt lat="43.22659" lon="5.38664">
        <ele>222</ele>
        <time>2021-05-09T08:34:12Z</time>
      </trkpt>
      <trkpt lat="43.2266" lon="5.38658">
        <ele>216</ele>
        <time>2021-05-09T08:34:21Z</time>
      </trkpt>
      <trkpt lat="43.2266" lon="5.38652">
        <ele>211</ele>
        <time>2021-05-09T08:34:30Z</time>
      </trkpt>
      <trkpt lat="43.22659" lon="5.38648">
        <ele>212</ele>
        <time>2021-05-09T08:34:40Z</time>
      </trkpt>
      <trkpt lat="43.2266" lon="5.38637">
        <ele>213</ele>
        <time>2021-05-09T08:34:50Z</time>
      </trkpt>
      <trkpt lat="43.22659" lon="5.38624">
        <ele>213</ele>
        <time>2021-05-09T08:35:00Z</time>
      </trkpt>
      <trkpt lat="43.22662" lon="5.38611">
        <ele>210</ele>
        <time>2021-05-09T08:35:11Z</time>
      </trkpt>
      <trkpt lat="43.22663" lon="5.38595">
        <ele>207</ele>
        <time>2021-05-09T08:35:22Z</time>
      </trkpt>
      <trkpt lat="43.22666" lon="5.38584">
        <ele>212</ele>
        <time>2021-05-09T08:35:32Z</time>
      </trkpt>
      <trkpt lat="43.22667" lon="5.38573">
        <ele>212</ele>
        <time>2021-05-09T08:35:42Z</time>
      </trkpt>
      <trkpt lat="43.22669" lon="5.3856">
        <ele>207</ele>
        <time>2021-05-09T08:35:54Z</time>
      </trkpt>
      <trkpt lat="43.22675" lon="5.3855">
        <ele>207</ele>
        <time>2021-05-09T08:36:04Z</time>
      </trkpt>
      <trkpt lat="43.22684" lon="5.38539">
        <ele>210</ele>
        <time>2021-05-09T08:36:14Z</time>
      </trkpt>
      <trkpt lat="43.22693" lon="5.38527">
        <ele>210</ele>
        <time>2021-05-09T08:36:23Z</time>
      </trkpt>
      <trkpt lat="43.227" lon="5.38521">
        <ele>210</ele>
        <time>2021-05-09T08:36:32Z</time>
      </trkpt>
      <trkpt lat="43.22707" lon="5.38512">
        <ele>208</ele>
        <time>2021-05-09T08:36:42Z</time>
      </trkpt>
      <trkpt lat="43.22714" lon="5.38509">
        <ele>208</ele>
        <time>2021-05-09T08:36:51Z</time>
      </trkpt>
      <trkpt lat="43.22721" lon="5.38506">
        <ele>210</ele>
        <time>2021-05-09T08:37:00Z</time>
      </trkpt>
      <trkpt lat="43.22729" lon="5.38501">
        <ele>213</ele>
        <time>2021-05-09T08:37:09Z</time>
      </trkpt>
      <trkpt lat="43.22738" lon="5.38496">
        <ele>215</ele>
        <time>2021-05-09T08:37:19Z</time>
      </trkpt>
      <trkpt lat="43.22745" lon="5.38492">
        <ele>215</ele>
        <time>2021-05-09T08:37:29Z</time>
      </trkpt>
      <trkpt lat="43.22751" lon="5.38489">
        <ele>215</ele>
        <time>2021-05-09T08:37:38Z</time>
      </trkpt>
      <trkpt lat="43.22757" lon="5.38487">
        <ele>215</ele>
        <time>2021-05-09T08:37:49Z</time>
      </trkpt>
      <trkpt lat="43.22762" lon="5.38482">
        <ele>218</ele>
        <time>2021-05-09T08:37:59Z</time>
      </trkpt>
      <trkpt lat="43.22767" lon="5.38476">
        <ele>224</ele>
        <time>2021-05-09T08:38:09Z</time>
      </trkpt>
      <trkpt lat="43.22775" lon="5.38472">
        <ele>224</ele>
        <time>2021-05-09T08:38:19Z</time>
      </trkpt>
      <trkpt lat="43.2278" lon="5.38471">
        <ele>224</ele>
        <time>2021-05-09T08:38:28Z</time>
      </trkpt>
      <trkpt lat="43.22786" lon="5.3847">
        <ele>226</ele>
        <time>2021-05-09T08:38:37Z</time>
      </trkpt>
      <trkpt lat="43.22792" lon="5.3847">
        <ele>227</ele>
        <time>2021-05-09T08:38:46Z</time>
      </trkpt>
      <trkpt lat="43.228" lon="5.38468">
        <ele>229</ele>
        <time>2021-05-09T08:38:56Z</time>
      </trkpt>
      <trkpt lat="43.22808" lon="5.38465">
        <ele>230</ele>
        <time>2021-05-09T08:39:05Z</time>
      </trkpt>
      <trkpt lat="43.22816" lon="5.38459">
        <ele>232</ele>
        <time>2021-05-09T08:39:15Z</time>
      </trkpt>
      <trkpt lat="43.22821" lon="5.38453">
        <ele>232</ele>
        <time>2021-05-09T08:39:25Z</time>
      </trkpt>
      <trkpt lat="43.22825" lon="5.38446">
        <ele>234</ele>
        <time>2021-05-09T08:39:34Z</time>
      </trkpt>
      <trkpt lat="43.22827" lon="5.38438">
        <ele>237</ele>
        <time>2021-05-09T08:39:43Z</time>
      </trkpt>
      <trkpt lat="43.22829" lon="5.38431">
        <ele>238</ele>
        <time>2021-05-09T08:39:53Z</time>
      </trkpt>
      <trkpt lat="43.22836" lon="5.38422">
        <ele>239</ele>
        <time>2021-05-09T08:40:03Z</time>
      </trkpt>
      <trkpt lat="43.22841" lon="5.38414">
        <ele>242</ele>
        <time>2021-05-09T08:40:13Z</time>
      </trkpt>
      <trkpt lat="43.22845" lon="5.38405">
        <ele>242</ele>
        <time>2021-05-09T08:40:22Z</time>
      </trkpt>
      <trkpt lat="43.22847" lon="5.38397">
        <ele>242</ele>
        <time>2021-05-09T08:40:32Z</time>
      </trkpt>
      <trkpt lat="43.22848" lon="5.38387">
        <ele>242</ele>
        <time>2021-05-09T08:40:41Z</time>
      </trkpt>
      <trkpt lat="43.22853" lon="5.38377">
        <ele>242</ele>
        <time>2021-05-09T08:40:51Z</time>
      </trkpt>
      <trkpt lat="43.22862" lon="5.38374">
        <ele>242</ele>
        <time>2021-05-09T08:41:00Z</time>
      </trkpt>
      <trkpt lat="43.22871" lon="5.38371">
        <ele>242</ele>
        <time>2021-05-09T08:41:10Z</time>
      </trkpt>
      <trkpt lat="43.22875" lon="5.38371">
        <ele>242</ele>
        <time>2021-05-09T08:41:36Z</time>
      </trkpt>
      <trkpt lat="43.22875" lon="5.38369">
        <ele>242</ele>
        <time>2021-05-09T08:41:50Z</time>
      </trkpt>
      <trkpt lat="43.22876" lon="5.38367">
        <ele>237</ele>
        <time>2021-05-09T08:42:05Z</time>
      </trkpt>
      <trkpt lat="43.22877" lon="5.38369">
        <ele>237</ele>
        <time>2021-05-09T08:42:31Z</time>
      </trkpt>
      <trkpt lat="43.22877" lon="5.3837">
        <ele>240</ele>
        <time>2021-05-09T08:42:48Z</time>
      </trkpt>
      <trkpt lat="43.22875" lon="5.38372">
        <ele>242</ele>
        <time>2021-05-09T08:43:00Z</time>
      </trkpt>
      <trkpt lat="43.22876" lon="5.3837">
        <ele>242</ele>
        <time>2021-05-09T08:43:09Z</time>
      </trkpt>
      <trkpt lat="43.22878" lon="5.38369">
        <ele>240</ele>
        <time>2021-05-09T08:43:19Z</time>
      </trkpt>
      <trkpt lat="43.22878" lon="5.38369">
        <ele>240</ele>
        <time>2021-05-09T08:43:28Z</time>
      </trkpt>
      <trkpt lat="43.22877" lon="5.38367">
        <ele>240</ele>
        <time>2021-05-09T08:43:37Z</time>
      </trkpt>
      <trkpt lat="43.22873" lon="5.38357">
        <ele>240</ele>
        <time>2021-05-09T08:43:48Z</time>
      </trkpt>
      <trkpt lat="43.22871" lon="5.38348">
        <ele>243</ele>
        <time>2021-05-09T08:43:57Z</time>
      </trkpt>
      <trkpt lat="43.22867" lon="5.38336">
        <ele>248</ele>
        <time>2021-05-09T08:44:08Z</time>
      </trkpt>
      <trkpt lat="43.22865" lon="5.38319">
        <ele>248</ele>
        <time>2021-05-09T08:44:18Z</time>
      </trkpt>
      <trkpt lat="43.22862" lon="5.38309">
        <ele>249</ele>
        <time>2021-05-09T08:44:28Z</time>
      </trkpt>
      <trkpt lat="43.22861" lon="5.38295">
        <ele>249</ele>
        <time>2021-05-09T08:44:38Z</time>
      </trkpt>
      <trkpt lat="43.22861" lon="5.38284">
        <ele>249</ele>
        <time>2021-05-09T08:44:47Z</time>
      </trkpt>
      <trkpt lat="43.22858" lon="5.38277">
        <ele>250</ele>
        <time>2021-05-09T08:44:56Z</time>
      </trkpt>
      <trkpt lat="43.22856" lon="5.38268">
        <ele>250</ele>
        <time>2021-05-09T08:45:05Z</time>
      </trkpt>
      <trkpt lat="43.22852" lon="5.38256">
        <ele>249</ele>
        <time>2021-05-09T08:45:16Z</time>
      </trkpt>
      <trkpt lat="43.22854" lon="5.38241">
        <ele>249</ele>
        <time>2021-05-09T08:45:27Z</time>
      </trkpt>
      <trkpt lat="43.2285" lon="5.38231">
        <ele>249</ele>
        <time>2021-05-09T08:45:36Z</time>
      </trkpt>
      <trkpt lat="43.22849" lon="5.38222">
        <ele>249</ele>
        <time>2021-05-09T08:45:45Z</time>
      </trkpt>
      <trkpt lat="43.22845" lon="5.38213">
        <ele>253</ele>
        <time>2021-05-09T08:45:56Z</time>
      </trkpt>
      <trkpt lat="43.22849" lon="5.38201">
        <ele>255</ele>
        <time>2021-05-09T08:46:07Z</time>
      </trkpt>
      <trkpt lat="43.22854" lon="5.38192">
        <ele>258</ele>
        <time>2021-05-09T08:46:17Z</time>
      </trkpt>
      <trkpt lat="43.22855" lon="5.38185">
        <ele>258</ele>
        <time>2021-05-09T08:46:35Z</time>
      </trkpt>
      <trkpt lat="43.22857" lon="5.38182">
        <ele>256</ele>
        <time>2021-05-09T08:46:54Z</time>
      </trkpt>
      <trkpt lat="43.22858" lon="5.3818">
        <ele>249</ele>
        <time>2021-05-09T08:47:04Z</time>
      </trkpt>
      <trkpt lat="43.22863" lon="5.38179">
        <ele>247</ele>
        <time>2021-05-09T08:47:13Z</time>
      </trkpt>
      <trkpt lat="43.22864" lon="5.38182">
        <ele>250</ele>
        <time>2021-05-09T08:47:22Z</time>
      </trkpt>
      <trkpt lat="43.22863" lon="5.38183">
        <ele>256</ele>
        <time>2021-05-09T08:47:33Z</time>
      </trkpt>
      <trkpt lat="43.22863" lon="5.38183">
        <ele>262</ele>
        <time>2021-05-09T08:47:54Z</time>
      </trkpt>
      <trkpt lat="43.2286" lon="5.38182">
        <ele>266</ele>
        <time>2021-05-09T08:48:19Z</time>
      </trkpt>
      <trkpt lat="43.22855" lon="5.38189">
        <ele>266</ele>
        <time>2021-05-09T08:48:29Z</time>
      </trkpt>
      <trkpt lat="43.2285" lon="5.38199">
        <ele>266</ele>
        <time>2021-05-09T08:48:38Z</time>
      </trkpt>
      <trkpt lat="43.22847" lon="5.38207">
        <ele>266</ele>
        <time>2021-05-09T08:48:47Z</time>
      </trkpt>
      <trkpt lat="43.22842" lon="5.38204">
        <ele>266</ele>
        <time>2021-05-09T08:48:56Z</time>
      </trkpt>
      <trkpt lat="43.22835" lon="5.38197">
        <ele>264</ele>
        <time>2021-05-09T08:49:06Z</time>
      </trkpt>
      <trkpt lat="43.22829" lon="5.3819">
        <ele>263</ele>
        <time>2021-05-09T08:49:16Z</time>
      </trkpt>
      <trkpt lat="43.22822" lon="5.38184">
        <ele>260</ele>
        <time>2021-05-09T08:49:25Z</time>
      </trkpt>
      <trkpt lat="43.22813" lon="5.38181">
        <ele>260</ele>
        <time>2021-05-09T08:49:34Z</time>
      </trkpt>
      <trkpt lat="43.22804" lon="5.3818">
        <ele>259</ele>
        <time>2021-05-09T08:49:44Z</time>
      </trkpt>
      <trkpt lat="43.22795" lon="5.38178">
        <ele>259</ele>
        <time>2021-05-09T08:49:54Z</time>
      </trkpt>
      <trkpt lat="43.22787" lon="5.38184">
        <ele>259</ele>
        <time>2021-05-09T08:50:03Z</time>
      </trkpt>
      <trkpt lat="43.22777" lon="5.38192">
        <ele>254</ele>
        <time>2021-05-09T08:50:13Z</time>
      </trkpt>
      <trkpt lat="43.22772" lon="5.38189">
        <ele>251</ele>
        <time>2021-05-09T08:50:22Z</time>
      </trkpt>
      <trkpt lat="43.22765" lon="5.38185">
        <ele>251</ele>
        <time>2021-05-09T08:50:32Z</time>
      </trkpt>
      <trkpt lat="43.22755" lon="5.38184">
        <ele>253</ele>
        <time>2021-05-09T08:50:41Z</time>
      </trkpt>
      <trkpt lat="43.22749" lon="5.38189">
        <ele>255</ele>
        <time>2021-05-09T08:50:50Z</time>
      </trkpt>
      <trkpt lat="43.22743" lon="5.38191">
        <ele>255</ele>
        <time>2021-05-09T08:51:00Z</time>
      </trkpt>
      <trkpt lat="43.22731" lon="5.38184">
        <ele>256</ele>
        <time>2021-05-09T08:51:10Z</time>
      </trkpt>
      <trkpt lat="43.22723" lon="5.38185">
        <ele>258</ele>
        <time>2021-05-09T08:51:22Z</time>
      </trkpt>
      <trkpt lat="43.22718" lon="5.38179">
        <ele>258</ele>
        <time>2021-05-09T08:51:32Z</time>
      </trkpt>
      <trkpt lat="43.22711" lon="5.38175">
        <ele>254</ele>
        <time>2021-05-09T08:51:41Z</time>
      </trkpt>
      <trkpt lat="43.22709" lon="5.38169">
        <ele>252</ele>
        <time>2021-05-09T08:51:50Z</time>
      </trkpt>
      <trkpt lat="43.227" lon="5.3816">
        <ele>252</ele>
        <time>2021-05-09T08:51:59Z</time>
      </trkpt>
      <trkpt lat="43.22694" lon="5.38153">
        <ele>252</ele>
        <time>2021-05-09T08:52:08Z</time>
      </trkpt>
      <trkpt lat="43.22688" lon="5.38146">
        <ele>252</ele>
        <time>2021-05-09T08:52:22Z</time>
      </trkpt>
      <trkpt lat="43.22679" lon="5.3814">
        <ele>252</ele>
        <time>2021-05-09T08:52:33Z</time>
      </trkpt>
      <trkpt lat="43.22668" lon="5.38139">
        <ele>249</ele>
        <time>2021-05-09T08:52:42Z</time>
      </trkpt>
      <trkpt lat="43.22666" lon="5.3813">
        <ele>245</ele>
        <time>2021-05-09T08:52:52Z</time>
      </trkpt>
      <trkpt lat="43.22662" lon="5.3812">
        <ele>245</ele>
        <time>2021-05-09T08:53:02Z</time>
      </trkpt>
      <trkpt lat="43.22656" lon="5.3811">
        <ele>245</ele>
        <time>2021-05-09T08:53:12Z</time>
      </trkpt>
      <trkpt lat="43.22656" lon="5.38095">
        <ele>245</ele>
        <time>2021-05-09T08:53:21Z</time>
      </trkpt>
      <trkpt lat="43.22652" lon="5.38087">
        <ele>246</ele>
        <time>2021-05-09T08:53:30Z</time>
      </trkpt>
      <trkpt lat="43.22645" lon="5.38074">
        <ele>246</ele>
        <time>2021-05-09T08:53:39Z</time>
      </trkpt>
      <trkpt lat="43.22641" lon="5.38064">
        <ele>246</ele>
        <time>2021-05-09T08:53:48Z</time>
      </trkpt>
      <trkpt lat="43.2264" lon="5.38051">
        <ele>246</ele>
        <time>2021-05-09T08:53:57Z</time>
      </trkpt>
      <trkpt lat="43.22638" lon="5.38035">
        <ele>246</ele>
        <time>2021-05-09T08:54:06Z</time>
      </trkpt>
      <trkpt lat="43.22634" lon="5.38025">
        <ele>246</ele>
        <time>2021-05-09T08:54:15Z</time>
      </trkpt>
      <trkpt lat="43.22631" lon="5.38012">
        <ele>244</ele>
        <time>2021-05-09T08:54:24Z</time>
      </trkpt>
      <trkpt lat="43.22626" lon="5.38002">
        <ele>244</ele>
        <time>2021-05-09T08:54:34Z</time>
      </trkpt>
      <trkpt lat="43.22622" lon="5.37995">
        <ele>244</ele>
        <time>2021-05-09T08:54:43Z</time>
      </trkpt>
      <trkpt lat="43.22616" lon="5.37992">
        <ele>244</ele>
        <time>2021-05-09T08:54:53Z</time>
      </trkpt>
      <trkpt lat="43.22612" lon="5.37993">
        <ele>244</ele>
        <time>2021-05-09T08:55:05Z</time>
      </trkpt>
      <trkpt lat="43.22604" lon="5.37991">
        <ele>244</ele>
        <time>2021-05-09T08:55:14Z</time>
      </trkpt>
      <trkpt lat="43.22602" lon="5.3798">
        <ele>242</ele>
        <time>2021-05-09T08:55:23Z</time>
      </trkpt>
      <trkpt lat="43.22601" lon="5.37975">
        <ele>242</ele>
        <time>2021-05-09T08:55:32Z</time>
      </trkpt>
      <trkpt lat="43.22596" lon="5.37972">
        <ele>242</ele>
        <time>2021-05-09T08:55:42Z</time>
      </trkpt>
      <trkpt lat="43.22594" lon="5.37961">
        <ele>242</ele>
        <time>2021-05-09T08:55:52Z</time>
      </trkpt>
      <trkpt lat="43.22592" lon="5.37951">
        <ele>242</ele>
        <time>2021-05-09T08:56:02Z</time>
      </trkpt>
      <trkpt lat="43.2259" lon="5.37943">
        <ele>242</ele>
        <time>2021-05-09T08:56:11Z</time>
      </trkpt>
      <trkpt lat="43.22585" lon="5.37938">
        <ele>242</ele>
        <time>2021-05-09T08:56:20Z</time>
      </trkpt>
      <trkpt lat="43.22582" lon="5.37933">
        <ele>240</ele>
        <time>2021-05-09T08:56:29Z</time>
      </trkpt>
      <trkpt lat="43.22577" lon="5.37931">
        <ele>239</ele>
        <time>2021-05-09T08:56:39Z</time>
      </trkpt>
      <trkpt lat="43.22568" lon="5.37927">
        <ele>238</ele>
        <time>2021-05-09T08:56:48Z</time>
      </trkpt>
      <trkpt lat="43.22561" lon="5.37924">
        <ele>236</ele>
        <time>2021-05-09T08:56:57Z</time>
      </trkpt>
      <trkpt lat="43.22552" lon="5.37922">
        <ele>236</ele>
        <time>2021-05-09T08:57:07Z</time>
      </trkpt>
      <trkpt lat="43.22546" lon="5.37921">
        <ele>231</ele>
        <time>2021-05-09T08:57:18Z</time>
      </trkpt>
      <trkpt lat="43.22541" lon="5.37917">
        <ele>230</ele>
        <time>2021-05-09T08:57:27Z</time>
      </trkpt>
      <trkpt lat="43.22535" lon="5.37912">
        <ele>229</ele>
        <time>2021-05-09T08:57:36Z</time>
      </trkpt>
      <trkpt lat="43.22526" lon="5.37913">
        <ele>223</ele>
        <time>2021-05-09T08:57:45Z</time>
      </trkpt>
      <trkpt lat="43.22517" lon="5.37915">
        <ele>221</ele>
        <time>2021-05-09T08:57:55Z</time>
      </trkpt>
      <trkpt lat="43.22511" lon="5.37925">
        <ele>225</ele>
        <time>2021-05-09T08:58:05Z</time>
      </trkpt>
      <trkpt lat="43.22505" lon="5.37931">
        <ele>225</ele>
        <time>2021-05-09T08:58:14Z</time>
      </trkpt>
      <trkpt lat="43.22499" lon="5.37934">
        <ele>224</ele>
        <time>2021-05-09T08:58:23Z</time>
      </trkpt>
      <trkpt lat="43.22491" lon="5.37936">
        <ele>219</ele>
        <time>2021-05-09T08:58:33Z</time>
      </trkpt>
      <trkpt lat="43.22483" lon="5.37928">
        <ele>217</ele>
        <time>2021-05-09T08:58:42Z</time>
      </trkpt>
      <trkpt lat="43.22473" lon="5.37923">
        <ele>220</ele>
        <time>2021-05-09T08:58:51Z</time>
      </trkpt>
      <trkpt lat="43.22462" lon="5.37921">
        <ele>220</ele>
        <time>2021-05-09T08:59:01Z</time>
      </trkpt>
      <trkpt lat="43.22456" lon="5.37912">
        <ele>220</ele>
        <time>2021-05-09T08:59:10Z</time>
      </trkpt>
      <trkpt lat="43.22452" lon="5.37905">
        <ele>220</ele>
        <time>2021-05-09T08:59:19Z</time>
      </trkpt>
      <trkpt lat="43.22445" lon="5.37898">
        <ele>223</ele>
        <time>2021-05-09T08:59:28Z</time>
      </trkpt>
      <trkpt lat="43.22433" lon="5.37892">
        <ele>229</ele>
        <time>2021-05-09T08:59:37Z</time>
      </trkpt>
      <trkpt lat="43.22426" lon="5.37886">
        <ele>232</ele>
        <time>2021-05-09T08:59:47Z</time>
      </trkpt>
      <trkpt lat="43.22425" lon="5.37878">
        <ele>232</ele>
        <time>2021-05-09T08:59:56Z</time>
      </trkpt>
      <trkpt lat="43.22424" lon="5.3787">
        <ele>232</ele>
        <time>2021-05-09T09:00:06Z</time>
      </trkpt>
      <trkpt lat="43.22421" lon="5.37862">
        <ele>235</ele>
        <time>2021-05-09T09:00:15Z</time>
      </trkpt>
      <trkpt lat="43.22418" lon="5.37857">
        <ele>235</ele>
        <time>2021-05-09T09:00:24Z</time>
      </trkpt>
      <trkpt lat="43.22414" lon="5.37855">
        <ele>235</ele>
        <time>2021-05-09T09:00:33Z</time>
      </trkpt>
      <trkpt lat="43.22411" lon="5.37854">
        <ele>236</ele>
        <time>2021-05-09T09:00:50Z</time>
      </trkpt>
      <trkpt lat="43.22409" lon="5.3786">
        <ele>240</ele>
        <time>2021-05-09T09:01:01Z</time>
      </trkpt>
      <trkpt lat="43.22405" lon="5.37872">
        <ele>243</ele>
        <time>2021-05-09T09:01:11Z</time>
      </trkpt>
      <trkpt lat="43.22403" lon="5.37883">
        <ele>246</ele>
        <time>2021-05-09T09:01:20Z</time>
      </trkpt>
      <trkpt lat="43.22403" lon="5.37892">
        <ele>246</ele>
        <time>2021-05-09T09:01:29Z</time>
      </trkpt>
      <trkpt lat="43.22396" lon="5.379">
        <ele>246</ele>
        <time>2021-05-09T09:01:39Z</time>
      </trkpt>
      <trkpt lat="43.22392" lon="5.37905">
        <ele>246</ele>
        <time>2021-05-09T09:01:48Z</time>
      </trkpt>
      <trkpt lat="43.2239" lon="5.37903">
        <ele>246</ele>
        <time>2021-05-09T09:01:57Z</time>
      </trkpt>
      <trkpt lat="43.22387" lon="5.37902">
        <ele>245</ele>
        <time>2021-05-09T09:02:09Z</time>
      </trkpt>
      <trkpt lat="43.22386" lon="5.37906">
        <ele>251</ele>
        <time>2021-05-09T09:02:18Z</time>
      </trkpt>
      <trkpt lat="43.22381" lon="5.37906">
        <ele>252</ele>
        <time>2021-05-09T09:02:28Z</time>
      </trkpt>
      <trkpt lat="43.22378" lon="5.37904">
        <ele>252</ele>
        <time>2021-05-09T09:02:38Z</time>
      </trkpt>
      <trkpt lat="43.22374" lon="5.379">
        <ele>252</ele>
        <time>2021-05-09T09:02:48Z</time>
      </trkpt>
      <trkpt lat="43.22369" lon="5.37893">
        <ele>253</ele>
        <time>2021-05-09T09:02:58Z</time>
      </trkpt>
      <trkpt lat="43.22369" lon="5.37888">
        <ele>261</ele>
        <time>2021-05-09T09:03:08Z</time>
      </trkpt>
      <trkpt lat="43.22368" lon="5.37884">
        <ele>263</ele>
        <time>2021-05-09T09:03:18Z</time>
      </trkpt>
      <trkpt lat="43.22363" lon="5.37879">
        <ele>263</ele>
        <time>2021-05-09T09:03:28Z</time>
      </trkpt>
      <trkpt lat="43.22359" lon="5.37874">
        <ele>262</ele>
        <time>2021-05-09T09:03:39Z</time>
      </trkpt>
      <trkpt lat="43.22354" lon="5.37867">
        <ele>262</ele>
        <time>2021-05-09T09:03:51Z</time>
      </trkpt>
      <trkpt lat="43.22352" lon="5.37863">
        <ele>263</ele>
        <time>2021-05-09T09:04:02Z</time>
      </trkpt>
      <trkpt lat="43.22348" lon="5.37857">
        <ele>264</ele>
        <time>2021-05-09T09:04:12Z</time>
      </trkpt>
      <trkpt lat="43.22347" lon="5.3785">
        <ele>269</ele>
        <time>2021-05-09T09:04:21Z</time>
      </trkpt>
      <trkpt lat="43.22345" lon="5.37848">
        <ele>271</ele>
        <time>2021-05-09T09:04:36Z</time>
      </trkpt>
      <trkpt lat="43.22346" lon="5.37846">
        <ele>279</ele>
        <time>2021-05-09T09:04:46Z</time>
      </trkpt>
      <trkpt lat="43.22343" lon="5.37848">
        <ele>279</ele>
        <time>2021-05-09T09:05:01Z</time>
      </trkpt>
      <trkpt lat="43.22343" lon="5.37848">
        <ele>277</ele>
        <time>2021-05-09T09:05:12Z</time>
      </trkpt>
      <trkpt lat="43.22344" lon="5.37847">
        <ele>277</ele>
        <time>2021-05-09T09:05:21Z</time>
      </trkpt>
      <trkpt lat="43.22346" lon="5.37845">
        <ele>277</ele>
        <time>2021-05-09T09:05:30Z</time>
      </trkpt>
      <trkpt lat="43.22345" lon="5.37846">
        <ele>279</ele>
        <time>2021-05-09T09:05:43Z</time>
      </trkpt>
      <trkpt lat="43.22343" lon="5.37847">
        <ele>279</ele>
        <time>2021-05-09T09:05:54Z</time>
      </trkpt>
      <trkpt lat="43.22343" lon="5.3785">
        <ele>275</ele>
        <time>2021-05-09T09:06:30Z</time>
      </trkpt>
      <trkpt lat="43.22347" lon="5.37858">
        <ele>275</ele>
        <time>2021-05-09T09:06:40Z</time>
      </trkpt>
      <trkpt lat="43.22348" lon="5.37868">
        <ele>275</ele>
        <time>2021-05-09T09:06:50Z</time>
      </trkpt>
      <trkpt lat="43.22348" lon="5.37878">
        <ele>275</ele>
        <time>2021-05-09T09:07:00Z</time>
      </trkpt>
      <trkpt lat="43.22346" lon="5.37888">
        <ele>275</ele>
        <time>2021-05-09T09:07:12Z</time>
      </trkpt>
      <trkpt lat="43.22347" lon="5.37889">
        <ele>267</ele>
        <time>2021-05-09T09:07:23Z</time>
      </trkpt>
      <trkpt lat="43.2235" lon="5.37893">
        <ele>268</ele>
        <time>2021-05-09T09:07:34Z</time>
      </trkpt>
      <trkpt lat="43.22348" lon="5.37897">
        <ele>275</ele>
        <time>2021-05-09T09:07:43Z</time>
      </trkpt>
      <trkpt lat="43.22343" lon="5.37903">
        <ele>275</ele>
        <time>2021-05-09T09:07:52Z</time>
      </trkpt>
      <trkpt lat="43.22335" lon="5.37913">
        <ele>275</ele>
        <time>2021-05-09T09:08:01Z</time>
      </trkpt>
      <trkpt lat="43.22331" lon="5.37921">
        <ele>275</ele>
        <time>2021-05-09T09:08:10Z</time>
      </trkpt>
      <trkpt lat="43.22328" lon="5.37934">
        <ele>275</ele>
        <time>2021-05-09T09:08:19Z</time>
      </trkpt>
      <trkpt lat="43.22327" lon="5.37944">
        <ele>277</ele>
        <time>2021-05-09T09:08:28Z</time>
      </trkpt>
      <trkpt lat="43.22324" lon="5.37954">
        <ele>277</ele>
        <time>2021-05-09T09:08:37Z</time>
      </trkpt>
      <trkpt lat="43.22324" lon="5.37964">
        <ele>277</ele>
        <time>2021-05-09T09:08:47Z</time>
      </trkpt>
      <trkpt lat="43.22323" lon="5.37975">
        <ele>278</ele>
        <time>2021-05-09T09:08:56Z</time>
      </trkpt>
      <trkpt lat="43.22327" lon="5.37988">
        <ele>282</ele>
        <time>2021-05-09T09:09:05Z</time>
      </trkpt>
      <trkpt lat="43.22327" lon="5.38">
        <ele>282</ele>
        <time>2021-05-09T09:09:14Z</time>
      </trkpt>
      <trkpt lat="43.22319" lon="5.38012">
        <ele>282</ele>
        <time>2021-05-09T09:09:24Z</time>
      </trkpt>
      <trkpt lat="43.22314" lon="5.38024">
        <ele>282</ele>
        <time>2021-05-09T09:09:34Z</time>
      </trkpt>
      <trkpt lat="43.22313" lon="5.38035">
        <ele>282</ele>
        <time>2021-05-09T09:09:45Z</time>
      </trkpt>
      <trkpt lat="43.22308" lon="5.38045">
        <ele>282</ele>
        <time>2021-05-09T09:09:54Z</time>
      </trkpt>
      <trkpt lat="43.223" lon="5.38054">
        <ele>282</ele>
        <time>2021-05-09T09:10:04Z</time>
      </trkpt>
      <trkpt lat="43.22298" lon="5.38064">
        <ele>282</ele>
        <time>2021-05-09T09:10:13Z</time>
      </trkpt>
      <trkpt lat="43.22294" lon="5.38074">
        <ele>282</ele>
        <time>2021-05-09T09:10:23Z</time>
      </trkpt>
      <trkpt lat="43.22294" lon="5.38082">
        <ele>283</ele>
        <time>2021-05-09T09:10:32Z</time>
      </trkpt>
      <trkpt lat="43.22292" lon="5.38093">
        <ele>285</ele>
        <time>2021-05-09T09:10:42Z</time>
      </trkpt>
      <trkpt lat="43.22287" lon="5.38102">
        <ele>286</ele>
        <time>2021-05-09T09:10:53Z</time>
      </trkpt>
      <trkpt lat="43.22285" lon="5.38107">
        <ele>286</ele>
        <time>2021-05-09T09:11:02Z</time>
      </trkpt>
      <trkpt lat="43.22284" lon="5.38118">
        <ele>288</ele>
        <time>2021-05-09T09:11:11Z</time>
      </trkpt>
      <trkpt lat="43.2228" lon="5.38125">
        <ele>290</ele>
        <time>2021-05-09T09:11:21Z</time>
      </trkpt>
      <trkpt lat="43.22279" lon="5.38135">
        <ele>292</ele>
        <time>2021-05-09T09:11:31Z</time>
      </trkpt>
      <trkpt lat="43.22281" lon="5.38144">
        <ele>295</ele>
        <time>2021-05-09T09:11:41Z</time>
      </trkpt>
      <trkpt lat="43.22284" lon="5.38148">
        <ele>296</ele>
        <time>2021-05-09T09:11:50Z</time>
      </trkpt>
      <trkpt lat="43.22285" lon="5.38157">
        <ele>297</ele>
        <time>2021-05-09T09:11:59Z</time>
      </trkpt>
      <trkpt lat="43.22286" lon="5.38165">
        <ele>297</ele>
        <time>2021-05-09T09:12:09Z</time>
      </trkpt>
      <trkpt lat="43.22288" lon="5.38173">
        <ele>297</ele>
        <time>2021-05-09T09:12:18Z</time>
      </trkpt>
      <trkpt lat="43.2229" lon="5.38173">
        <ele>298</ele>
        <time>2021-05-09T09:12:28Z</time>
      </trkpt>
      <trkpt lat="43.2229" lon="5.38176">
        <ele>303</ele>
        <time>2021-05-09T09:12:37Z</time>
      </trkpt>
      <trkpt lat="43.22289" lon="5.38175">
        <ele>306</ele>
        <time>2021-05-09T09:12:46Z</time>
      </trkpt>
      <trkpt lat="43.22281" lon="5.38179">
        <ele>306</ele>
        <time>2021-05-09T09:12:56Z</time>
      </trkpt>
      <trkpt lat="43.22276" lon="5.38183">
        <ele>306</ele>
        <time>2021-05-09T09:13:07Z</time>
      </trkpt>
      <trkpt lat="43.22273" lon="5.38189">
        <ele>306</ele>
        <time>2021-05-09T09:13:17Z</time>
      </trkpt>
      <trkpt lat="43.22276" lon="5.38189">
        <ele>306</ele>
        <time>2021-05-09T09:13:47Z</time>
      </trkpt>
      <trkpt lat="43.22279" lon="5.3819">
        <ele>309</ele>
        <time>2021-05-09T09:13:56Z</time>
      </trkpt>
      <trkpt lat="43.22284" lon="5.38195">
        <ele>309</ele>
        <time>2021-05-09T09:14:06Z</time>
      </trkpt>
      <trkpt lat="43.22292" lon="5.38196">
        <ele>309</ele>
        <time>2021-05-09T09:14:16Z</time>
      </trkpt>
      <trkpt lat="43.22294" lon="5.38195">
        <ele>307</ele>
        <time>2021-05-09T09:14:38Z</time>
      </trkpt>
      <trkpt lat="43.22298" lon="5.38201">
        <ele>309</ele>
        <time>2021-05-09T09:14:48Z</time>
      </trkpt>
      <trkpt lat="43.22301" lon="5.382">
        <ele>314</ele>
        <time>2021-05-09T09:15:00Z</time>
      </trkpt>
      <trkpt lat="43.22302" lon="5.38199">
        <ele>315</ele>
        <time>2021-05-09T09:15:09Z</time>
      </trkpt>
      <trkpt lat="43.22301" lon="5.38196">
        <ele>315</ele>
        <time>2021-05-09T09:15:19Z</time>
      </trkpt>
      <trkpt lat="43.22297" lon="5.38196">
        <ele>315</ele>
        <time>2021-05-09T09:15:28Z</time>
      </trkpt>
      <trkpt lat="43.22294" lon="5.38197">
        <ele>312</ele>
        <time>2021-05-09T09:15:41Z</time>
      </trkpt>
      <trkpt lat="43.22293" lon="5.38198">
        <ele>312</ele>
        <time>2021-05-09T09:15:55Z</time>
      </trkpt>
      <trkpt lat="43.22294" lon="5.382">
        <ele>312</ele>
        <time>2021-05-09T09:16:09Z</time>
      </trkpt>
      <trkpt lat="43.22295" lon="5.38202">
        <ele>312</ele>
        <time>2021-05-09T09:16:36Z</time>
      </trkpt>
      <trkpt lat="43.22294" lon="5.382">
        <ele>312</ele>
        <time>2021-05-09T09:16:47Z</time>
      </trkpt>
      <trkpt lat="43.22292" lon="5.38197">
        <ele>308</ele>
        <time>2021-05-09T09:17:16Z</time>
      </trkpt>
      <trkpt lat="43.22296" lon="5.38198">
        <ele>308</ele>
        <time>2021-05-09T09:17:28Z</time>
      </trkpt>
      <trkpt lat="43.22299" lon="5.38197">
        <ele>307</ele>
        <time>2021-05-09T09:17:38Z</time>
      </trkpt>
      <trkpt lat="43.22303" lon="5.38196">
        <ele>307</ele>
        <time>2021-05-09T09:17:51Z</time>
      </trkpt>
      <trkpt lat="43.22304" lon="5.38199">
        <ele>307</ele>
        <time>2021-05-09T09:18:02Z</time>
      </trkpt>
      <trkpt lat="43.22306" lon="5.38201">
        <ele>307</ele>
        <time>2021-05-09T09:18:24Z</time>
      </trkpt>
      <trkpt lat="43.22307" lon="5.38204">
        <ele>307</ele>
        <time>2021-05-09T09:18:33Z</time>
      </trkpt>
      <trkpt lat="43.2231" lon="5.38205">
        <ele>307</ele>
        <time>2021-05-09T09:18:43Z</time>
      </trkpt>
      <trkpt lat="43.22314" lon="5.38205">
        <ele>307</ele>
        <time>2021-05-09T09:18:52Z</time>
      </trkpt>
      <trkpt lat="43.22316" lon="5.38209">
        <ele>309</ele>
        <time>2021-05-09T09:19:03Z</time>
      </trkpt>
      <trkpt lat="43.22319" lon="5.38209">
        <ele>312</ele>
        <time>2021-05-09T09:19:14Z</time>
      </trkpt>
      <trkpt lat="43.22323" lon="5.38211">
        <ele>313</ele>
        <time>2021-05-09T09:19:23Z</time>
      </trkpt>
      <trkpt lat="43.22326" lon="5.38212">
        <ele>313</ele>
        <time>2021-05-09T09:19:34Z</time>
      </trkpt>
      <trkpt lat="43.22326" lon="5.38218">
        <ele>318</ele>
        <time>2021-05-09T09:19:44Z</time>
      </trkpt>
      <trkpt lat="43.22323" lon="5.38222">
        <ele>321</ele>
        <time>2021-05-09T09:19:55Z</time>
      </trkpt>
      <trkpt lat="43.22324" lon="5.38228">
        <ele>322</ele>
        <time>2021-05-09T09:20:05Z</time>
      </trkpt>
      <trkpt lat="43.22322" lon="5.38233">
        <ele>324</ele>
        <time>2021-05-09T09:20:16Z</time>
      </trkpt>
      <trkpt lat="43.22326" lon="5.38237">
        <ele>327</ele>
        <time>2021-05-09T09:20:26Z</time>
      </trkpt>
      <trkpt lat="43.2233" lon="5.3824">
        <ele>328</ele>
        <time>2021-05-09T09:20:36Z</time>
      </trkpt>
      <trkpt lat="43.22326" lon="5.38245">
        <ele>329</ele>
        <time>2021-05-09T09:20:48Z</time>
      </trkpt>
      <trkpt lat="43.22328" lon="5.3825">
        <ele>329</ele>
        <time>2021-05-09T09:20:57Z</time>
      </trkpt>
      <trkpt lat="43.2233" lon="5.38254">
        <ele>332</ele>
        <time>2021-05-09T09:21:07Z</time>
      </trkpt>
      <trkpt lat="43.22329" lon="5.38259">
        <ele>336</ele>
        <time>2021-05-09T09:21:17Z</time>
      </trkpt>
      <trkpt lat="43.22329" lon="5.38266">
        <ele>340</ele>
        <time>2021-05-09T09:21:27Z</time>
      </trkpt>
      <trkpt lat="43.22329" lon="5.38273">
        <ele>341</ele>
        <time>2021-05-09T09:21:37Z</time>
      </trkpt>
      <trkpt lat="43.22332" lon="5.3828">
        <ele>343</ele>
        <time>2021-05-09T09:21:48Z</time>
      </trkpt>
      <trkpt lat="43.22334" lon="5.38285">
        <ele>345</ele>
        <time>2021-05-09T09:21:58Z</time>
      </trkpt>
      <trkpt lat="43.22335" lon="5.3829">
        <ele>345</ele>
        <time>2021-05-09T09:22:11Z</time>
      </trkpt>
      <trkpt lat="43.22334" lon="5.38292">
        <ele>345</ele>
        <time>2021-05-09T09:22:23Z</time>
      </trkpt>
      <trkpt lat="43.22336" lon="5.38296">
        <ele>347</ele>
        <time>2021-05-09T09:22:33Z</time>
      </trkpt>
      <trkpt lat="43.22335" lon="5.38303">
        <ele>351</ele>
        <time>2021-05-09T09:22:46Z</time>
      </trkpt>
      <trkpt lat="43.22336" lon="5.38308">
        <ele>352</ele>
        <time>2021-05-09T09:22:56Z</time>
      </trkpt>
      <trkpt lat="43.22335" lon="5.38314">
        <ele>353</ele>
        <time>2021-05-09T09:23:08Z</time>
      </trkpt>
      <trkpt lat="43.22334" lon="5.38319">
        <ele>356</ele>
        <time>2021-05-09T09:23:19Z</time>
      </trkpt>
      <trkpt lat="43.22334" lon="5.38326">
        <ele>358</ele>
        <time>2021-05-09T09:23:30Z</time>
      </trkpt>
      <trkpt lat="43.2234" lon="5.38328">
        <ele>358</ele>
        <time>2021-05-09T09:23:40Z</time>
      </trkpt>
      <trkpt lat="43.22345" lon="5.38331">
        <ele>358</ele>
        <time>2021-05-09T09:23:49Z</time>
      </trkpt>
      <trkpt lat="43.22348" lon="5.38336">
        <ele>360</ele>
        <time>2021-05-09T09:23:58Z</time>
      </trkpt>
      <trkpt lat="43.22347" lon="5.38342">
        <ele>361</ele>
        <time>2021-05-09T09:24:13Z</time>
      </trkpt>
      <trkpt lat="43.22346" lon="5.38345">
        <ele>363</ele>
        <time>2021-05-09T09:24:22Z</time>
      </trkpt>
      <trkpt lat="43.22345" lon="5.3835">
        <ele>365</ele>
        <time>2021-05-09T09:24:41Z</time>
      </trkpt>
      <trkpt lat="43.22343" lon="5.38354">
        <ele>366</ele>
        <time>2021-05-09T09:24:50Z</time>
      </trkpt>
      <trkpt lat="43.22338" lon="5.38363">
        <ele>366</ele>
        <time>2021-05-09T09:25:00Z</time>
      </trkpt>
      <trkpt lat="43.22334" lon="5.38372">
        <ele>366</ele>
        <time>2021-05-09T09:25:11Z</time>
      </trkpt>
      <trkpt lat="43.22335" lon="5.3838">
        <ele>366</ele>
        <time>2021-05-09T09:25:21Z</time>
      </trkpt>
      <trkpt lat="43.22334" lon="5.38386">
        <ele>366</ele>
        <time>2021-05-09T09:25:30Z</time>
      </trkpt>
      <trkpt lat="43.22332" lon="5.38385">
        <ele>366</ele>
        <time>2021-05-09T09:25:48Z</time>
      </trkpt>
      <trkpt lat="43.22331" lon="5.38386">
        <ele>366</ele>
        <time>2021-05-09T09:26:01Z</time>
      </trkpt>
      <trkpt lat="43.22327" lon="5.38386">
        <ele>366</ele>
        <time>2021-05-09T09:26:11Z</time>
      </trkpt>
      <trkpt lat="43.22327" lon="5.38387">
        <ele>364</ele>
        <time>2021-05-09T09:26:30Z</time>
      </trkpt>
      <trkpt lat="43.22326" lon="5.38389">
        <ele>363</ele>
        <time>2021-05-09T09:26:40Z</time>
      </trkpt>
      <trkpt lat="43.22323" lon="5.3839">
        <ele>363</ele>
        <time>2021-05-09T09:26:53Z</time>
      </trkpt>
      <trkpt lat="43.22321" lon="5.38392">
        <ele>365</ele>
        <time>2021-05-09T09:27:04Z</time>
      </trkpt>
      <trkpt lat="43.22323" lon="5.38392">
        <ele>368</ele>
        <time>2021-05-09T09:27:18Z</time>
      </trkpt>
      <trkpt lat="43.22326" lon="5.38391">
        <ele>363</ele>
        <time>2021-05-09T09:27:36Z</time>
      </trkpt>
      <trkpt lat="43.22323" lon="5.38391">
        <ele>363</ele>
        <time>2021-05-09T09:27:55Z</time>
      </trkpt>
      <trkpt lat="43.22323" lon="5.38392">
        <ele>364</ele>
        <time>2021-05-09T09:28:05Z</time>
      </trkpt>
      <trkpt lat="43.22325" lon="5.38392">
        <ele>364</ele>
        <time>2021-05-09T09:28:14Z</time>
      </trkpt>
      <trkpt lat="43.22328" lon="5.38391">
        <ele>358</ele>
        <time>2021-05-09T09:28:25Z</time>
      </trkpt>
      <trkpt lat="43.22326" lon="5.38393">
        <ele>358</ele>
        <time>2021-05-09T09:28:46Z</time>
      </trkpt>
      <trkpt lat="43.22323" lon="5.38396">
        <ele>358</ele>
        <time>2021-05-09T09:28:59Z</time>
      </trkpt>
      <trkpt lat="43.22324" lon="5.38396">
        <ele>358</ele>
        <time>2021-05-09T09:29:08Z</time>
      </trkpt>
      <trkpt lat="43.22323" lon="5.38394">
        <ele>358</ele>
        <time>2021-05-09T09:29:20Z</time>
      </trkpt>
      <trkpt lat="43.22318" lon="5.38389">
        <ele>358</ele>
        <time>2021-05-09T09:29:31Z</time>
      </trkpt>
      <trkpt lat="43.22317" lon="5.38387">
        <ele>356</ele>
        <time>2021-05-09T09:29:47Z</time>
      </trkpt>
      <trkpt lat="43.22315" lon="5.38387">
        <ele>353</ele>
        <time>2021-05-09T09:29:56Z</time>
      </trkpt>
      <trkpt lat="43.22314" lon="5.38388">
        <ele>352</ele>
        <time>2021-05-09T09:30:05Z</time>
      </trkpt>
      <trkpt lat="43.2231" lon="5.38397">
        <ele>352</ele>
        <time>2021-05-09T09:30:14Z</time>
      </trkpt>
      <trkpt lat="43.22308" lon="5.38402">
        <ele>352</ele>
        <time>2021-05-09T09:30:24Z</time>
      </trkpt>
      <trkpt lat="43.22307" lon="5.38406">
        <ele>352</ele>
        <time>2021-05-09T09:30:34Z</time>
      </trkpt>
      <trkpt lat="43.22306" lon="5.38411">
        <ele>352</ele>
        <time>2021-05-09T09:30:44Z</time>
      </trkpt>
      <trkpt lat="43.22304" lon="5.38415">
        <ele>346</ele>
        <time>2021-05-09T09:30:57Z</time>
      </trkpt>
      <trkpt lat="43.22302" lon="5.38415">
        <ele>344</ele>
        <time>2021-05-09T09:31:22Z</time>
      </trkpt>
      <trkpt lat="43.22302" lon="5.38413">
        <ele>340</ele>
        <time>2021-05-09T09:31:39Z</time>
      </trkpt>
      <trkpt lat="43.22302" lon="5.38414">
        <ele>335</ele>
        <time>2021-05-09T09:31:48Z</time>
      </trkpt>
      <trkpt lat="43.223" lon="5.38416">
        <ele>334</ele>
        <time>2021-05-09T09:31:57Z</time>
      </trkpt>
      <trkpt lat="43.22295" lon="5.38417">
        <ele>334</ele>
        <time>2021-05-09T09:32:09Z</time>
      </trkpt>
      <trkpt lat="43.22293" lon="5.38419">
        <ele>339</ele>
        <time>2021-05-09T09:32:21Z</time>
      </trkpt>
      <trkpt lat="43.22295" lon="5.3842">
        <ele>338</ele>
        <time>2021-05-09T09:32:32Z</time>
      </trkpt>
      <trkpt lat="43.22295" lon="5.3842">
        <ele>337</ele>
        <time>2021-05-09T09:32:43Z</time>
      </trkpt>
      <trkpt lat="43.22292" lon="5.38423">
        <ele>338</ele>
        <time>2021-05-09T09:33:04Z</time>
      </trkpt>
      <trkpt lat="43.22293" lon="5.38423">
        <ele>338</ele>
        <time>2021-05-09T09:33:26Z</time>
      </trkpt>
      <trkpt lat="43.22295" lon="5.38423">
        <ele>338</ele>
        <time>2021-05-09T09:33:42Z</time>
      </trkpt>
      <trkpt lat="43.22293" lon="5.38422">
        <ele>338</ele>
        <time>2021-05-09T09:33:51Z</time>
      </trkpt>
      <trkpt lat="43.22292" lon="5.38421">
        <ele>336</ele>
        <time>2021-05-09T09:34:07Z</time>
      </trkpt>
      <trkpt lat="43.22287" lon="5.38419">
        <ele>336</ele>
        <time>2021-05-09T09:34:18Z</time>
      </trkpt>
      <trkpt lat="43.22285" lon="5.38419">
        <ele>335</ele>
        <time>2021-05-09T09:34:28Z</time>
      </trkpt>
      <trkpt lat="43.22288" lon="5.38431">
        <ele>334</ele>
        <time>2021-05-09T09:34:39Z</time>
      </trkpt>
      <trkpt lat="43.22288" lon="5.38439">
        <ele>343</ele>
        <time>2021-05-09T09:34:51Z</time>
      </trkpt>
      <trkpt lat="43.22295" lon="5.38438">
        <ele>341</ele>
        <time>2021-05-09T09:35:05Z</time>
      </trkpt>
      <trkpt lat="43.223" lon="5.38436">
        <ele>338</ele>
        <time>2021-05-09T09:35:14Z</time>
      </trkpt>
      <trkpt lat="43.22302" lon="5.38435">
        <ele>330</ele>
        <time>2021-05-09T09:35:31Z</time>
      </trkpt>
      <trkpt lat="43.223" lon="5.38432">
        <ele>330</ele>
        <time>2021-05-09T09:35:42Z</time>
      </trkpt>
      <trkpt lat="43.22296" lon="5.38429">
        <ele>330</ele>
        <time>2021-05-09T09:35:52Z</time>
      </trkpt>
      <trkpt lat="43.22295" lon="5.38429">
        <ele>330</ele>
        <time>2021-05-09T09:36:02Z</time>
      </trkpt>
      <trkpt lat="43.22292" lon="5.38428">
        <ele>334</ele>
        <time>2021-05-09T09:36:21Z</time>
      </trkpt>
      <trkpt lat="43.22293" lon="5.38428">
        <ele>337</ele>
        <time>2021-05-09T09:36:33Z</time>
      </trkpt>
      <trkpt lat="43.22296" lon="5.38428">
        <ele>336</ele>
        <time>2021-05-09T09:36:48Z</time>
      </trkpt>
      <trkpt lat="43.22295" lon="5.38428">
        <ele>329</ele>
        <time>2021-05-09T09:36:58Z</time>
      </trkpt>
      <trkpt lat="43.22293" lon="5.38433">
        <ele>332</ele>
        <time>2021-05-09T09:37:14Z</time>
      </trkpt>
      <trkpt lat="43.22293" lon="5.38433">
        <ele>333</ele>
        <time>2021-05-09T09:37:26Z</time>
      </trkpt>
      <trkpt lat="43.22292" lon="5.38434">
        <ele>333</ele>
        <time>2021-05-09T09:37:39Z</time>
      </trkpt>
      <trkpt lat="43.2229" lon="5.38439">
        <ele>332</ele>
        <time>2021-05-09T09:37:52Z</time>
      </trkpt>
      <trkpt lat="43.22288" lon="5.38444">
        <ele>332</ele>
        <time>2021-05-09T09:38:03Z</time>
      </trkpt>
      <trkpt lat="43.22284" lon="5.38445">
        <ele>334</ele>
        <time>2021-05-09T09:38:12Z</time>
      </trkpt>
      <trkpt lat="43.22285" lon="5.38447">
        <ele>334</ele>
        <time>2021-05-09T09:38:24Z</time>
      </trkpt>
      <trkpt lat="43.22286" lon="5.38438">
        <ele>325</ele>
        <time>2021-05-09T09:38:38Z</time>
      </trkpt>
      <trkpt lat="43.22286" lon="5.38436">
        <ele>320</ele>
        <time>2021-05-09T09:38:51Z</time>
      </trkpt>
      <trkpt lat="43.22287" lon="5.38432">
        <ele>315</ele>
        <time>2021-05-09T09:39:01Z</time>
      </trkpt>
      <trkpt lat="43.22286" lon="5.3843">
        <ele>313</ele>
        <time>2021-05-09T09:39:11Z</time>
      </trkpt>
      <trkpt lat="43.22285" lon="5.38432">
        <ele>313</ele>
        <time>2021-05-09T09:39:24Z</time>
      </trkpt>
      <trkpt lat="43.22282" lon="5.38431">
        <ele>317</ele>
        <time>2021-05-09T09:39:35Z</time>
      </trkpt>
      <trkpt lat="43.22284" lon="5.38431">
        <ele>317</ele>
        <time>2021-05-09T09:39:46Z</time>
      </trkpt>
      <trkpt lat="43.22282" lon="5.38432">
        <ele>316</ele>
        <time>2021-05-09T09:39:57Z</time>
      </trkpt>
      <trkpt lat="43.22278" lon="5.38433">
        <ele>314</ele>
        <time>2021-05-09T09:40:09Z</time>
      </trkpt>
      <trkpt lat="43.22274" lon="5.38437">
        <ele>313</ele>
        <time>2021-05-09T09:40:19Z</time>
      </trkpt>
      <trkpt lat="43.22274" lon="5.38436">
        <ele>308</ele>
        <time>2021-05-09T09:40:33Z</time>
      </trkpt>
      <trkpt lat="43.22271" lon="5.38434">
        <ele>308</ele>
        <time>2021-05-09T09:40:44Z</time>
      </trkpt>
      <trkpt lat="43.22271" lon="5.38433">
        <ele>300</ele>
        <time>2021-05-09T09:40:55Z</time>
      </trkpt>
      <trkpt lat="43.22266" lon="5.38435">
        <ele>300</ele>
        <time>2021-05-09T09:41:09Z</time>
      </trkpt>
      <trkpt lat="43.22264" lon="5.38432">
        <ele>300</ele>
        <time>2021-05-09T09:41:19Z</time>
      </trkpt>
      <trkpt lat="43.22266" lon="5.38424">
        <ele>299</ele>
        <time>2021-05-09T09:41:28Z</time>
      </trkpt>
      <trkpt lat="43.22265" lon="5.38426">
        <ele>296</ele>
        <time>2021-05-09T09:41:39Z</time>
      </trkpt>
      <trkpt lat="43.22263" lon="5.38424">
        <ele>295</ele>
        <time>2021-05-09T09:41:48Z</time>
      </trkpt>
      <trkpt lat="43.22263" lon="5.38425">
        <ele>294</ele>
        <time>2021-05-09T09:42:02Z</time>
      </trkpt>
      <trkpt lat="43.22263" lon="5.38425">
        <ele>294</ele>
        <time>2021-05-09T09:42:21Z</time>
      </trkpt>
      <trkpt lat="43.22269" lon="5.38423">
        <ele>282</ele>
        <time>2021-05-09T09:42:34Z</time>
      </trkpt>
      <trkpt lat="43.22261" lon="5.38425">
        <ele>284</ele>
        <time>2021-05-09T09:42:44Z</time>
      </trkpt>
      <trkpt lat="43.22255" lon="5.38427">
        <ele>293</ele>
        <time>2021-05-09T09:42:53Z</time>
      </trkpt>
      <trkpt lat="43.22254" lon="5.38426">
        <ele>300</ele>
        <time>2021-05-09T09:43:05Z</time>
      </trkpt>
      <trkpt lat="43.2226" lon="5.38424">
        <ele>296</ele>
        <time>2021-05-09T09:43:15Z</time>
      </trkpt>
      <trkpt lat="43.22261" lon="5.38423">
        <ele>286</ele>
        <time>2021-05-09T09:43:36Z</time>
      </trkpt>
      <trkpt lat="43.2226" lon="5.38424">
        <ele>286</ele>
        <time>2021-05-09T09:43:47Z</time>
      </trkpt>
      <trkpt lat="43.22259" lon="5.38426">
        <ele>288</ele>
        <time>2021-05-09T09:43:57Z</time>
      </trkpt>
      <trkpt lat="43.22259" lon="5.38426">
        <ele>288</ele>
        <time>2021-05-09T09:44:07Z</time>
      </trkpt>
      <trkpt lat="43.22258" lon="5.38421">
        <ele>289</ele>
        <time>2021-05-09T09:44:18Z</time>
      </trkpt>
      <trkpt lat="43.22254" lon="5.38417">
        <ele>289</ele>
        <time>2021-05-09T09:44:30Z</time>
      </trkpt>
      <trkpt lat="43.22256" lon="5.38417">
        <ele>288</ele>
        <time>2021-05-09T09:44:39Z</time>
      </trkpt>
      <trkpt lat="43.22259" lon="5.38418">
        <ele>279</ele>
        <time>2021-05-09T09:44:50Z</time>
      </trkpt>
      <trkpt lat="43.22258" lon="5.38416">
        <ele>279</ele>
        <time>2021-05-09T09:45:01Z</time>
      </trkpt>
      <trkpt lat="43.22252" lon="5.38416">
        <ele>279</ele>
        <time>2021-05-09T09:45:15Z</time>
      </trkpt>
      <trkpt lat="43.2225" lon="5.38413">
        <ele>280</ele>
        <time>2021-05-09T09:45:29Z</time>
      </trkpt>
      <trkpt lat="43.2225" lon="5.38409">
        <ele>280</ele>
        <time>2021-05-09T09:45:39Z</time>
      </trkpt>
      <trkpt lat="43.2225" lon="5.38412">
        <ele>280</ele>
        <time>2021-05-09T09:45:50Z</time>
      </trkpt>
      <trkpt lat="43.22249" lon="5.38413">
        <ele>279</ele>
        <time>2021-05-09T09:46:05Z</time>
      </trkpt>
      <trkpt lat="43.2225" lon="5.38413">
        <ele>279</ele>
        <time>2021-05-09T09:46:17Z</time>
      </trkpt>
      <trkpt lat="43.22251" lon="5.38411">
        <ele>281</ele>
        <time>2021-05-09T09:46:26Z</time>
      </trkpt>
      <trkpt lat="43.22252" lon="5.38405">
        <ele>282</ele>
        <time>2021-05-09T09:46:35Z</time>
      </trkpt>
      <trkpt lat="43.22251" lon="5.38405">
        <ele>286</ele>
        <time>2021-05-09T09:46:45Z</time>
      </trkpt>
      <trkpt lat="43.22248" lon="5.38404">
        <ele>285</ele>
        <time>2021-05-09T09:46:57Z</time>
      </trkpt>
      <trkpt lat="43.22245" lon="5.38405">
        <ele>281</ele>
        <time>2021-05-09T09:47:08Z</time>
      </trkpt>
      <trkpt lat="43.22243" lon="5.38406">
        <ele>278</ele>
        <time>2021-05-09T09:47:18Z</time>
      </trkpt>
      <trkpt lat="43.22245" lon="5.38402">
        <ele>277</ele>
        <time>2021-05-09T09:47:27Z</time>
      </trkpt>
      <trkpt lat="43.2225" lon="5.38396">
        <ele>277</ele>
        <time>2021-05-09T09:47:40Z</time>
      </trkpt>
      <trkpt lat="43.22248" lon="5.38398">
        <ele>278</ele>
        <time>2021-05-09T09:48:01Z</time>
      </trkpt>
      <trkpt lat="43.22244" lon="5.38398">
        <ele>275</ele>
        <time>2021-05-09T09:48:16Z</time>
      </trkpt>
      <trkpt lat="43.22244" lon="5.38397">
        <ele>274</ele>
        <time>2021-05-09T09:48:27Z</time>
      </trkpt>
      <trkpt lat="43.22244" lon="5.38398">
        <ele>270</ele>
        <time>2021-05-09T09:48:36Z</time>
      </trkpt>
      <trkpt lat="43.2224" lon="5.38397">
        <ele>270</ele>
        <time>2021-05-09T09:48:48Z</time>
      </trkpt>
      <trkpt lat="43.22241" lon="5.38392">
        <ele>271</ele>
        <time>2021-05-09T09:48:57Z</time>
      </trkpt>
      <trkpt lat="43.22241" lon="5.38392">
        <ele>271</ele>
        <time>2021-05-09T09:49:07Z</time>
      </trkpt>
      <trkpt lat="43.22242" lon="5.38394">
        <ele>270</ele>
        <time>2021-05-09T09:49:16Z</time>
      </trkpt>
      <trkpt lat="43.2224" lon="5.38389">
        <ele>269</ele>
        <time>2021-05-09T09:49:25Z</time>
      </trkpt>
      <trkpt lat="43.22241" lon="5.38386">
        <ele>269</ele>
        <time>2021-05-09T09:49:36Z</time>
      </trkpt>
      <trkpt lat="43.2224" lon="5.38384">
        <ele>269</ele>
        <time>2021-05-09T09:49:46Z</time>
      </trkpt>
      <trkpt lat="43.22239" lon="5.38387">
        <ele>266</ele>
        <time>2021-05-09T09:49:56Z</time>
      </trkpt>
      <trkpt lat="43.22236" lon="5.38383">
        <ele>265</ele>
        <time>2021-05-09T09:50:08Z</time>
      </trkpt>
      <trkpt lat="43.22235" lon="5.38377">
        <ele>266</ele>
        <time>2021-05-09T09:50:18Z</time>
      </trkpt>
      <trkpt lat="43.22232" lon="5.3838">
        <ele>264</ele>
        <time>2021-05-09T09:50:29Z</time>
      </trkpt>
      <trkpt lat="43.22229" lon="5.38383">
        <ele>257</ele>
        <time>2021-05-09T09:50:40Z</time>
      </trkpt>
      <trkpt lat="43.22224" lon="5.38388">
        <ele>255</ele>
        <time>2021-05-09T09:50:50Z</time>
      </trkpt>
      <trkpt lat="43.22221" lon="5.3839">
        <ele>253</ele>
        <time>2021-05-09T09:51:00Z</time>
      </trkpt>
      <trkpt lat="43.22218" lon="5.38395">
        <ele>253</ele>
        <time>2021-05-09T09:51:11Z</time>
      </trkpt>
      <trkpt lat="43.22217" lon="5.38401">
        <ele>252</ele>
        <time>2021-05-09T09:51:20Z</time>
      </trkpt>
      <trkpt lat="43.22215" lon="5.38409">
        <ele>248</ele>
        <time>2021-05-09T09:51:30Z</time>
      </trkpt>
      <trkpt lat="43.22213" lon="5.38412">
        <ele>244</ele>
        <time>2021-05-09T09:51:40Z</time>
      </trkpt>
      <trkpt lat="43.22211" lon="5.38413">
        <ele>244</ele>
        <time>2021-05-09T09:51:51Z</time>
      </trkpt>
      <trkpt lat="43.22212" lon="5.38414">
        <ele>245</ele>
        <time>2021-05-09T09:52:00Z</time>
      </trkpt>
      <trkpt lat="43.22209" lon="5.38416">
        <ele>247</ele>
        <time>2021-05-09T09:52:09Z</time>
      </trkpt>
      <trkpt lat="43.22203" lon="5.38414">
        <ele>249</ele>
        <time>2021-05-09T09:52:20Z</time>
      </trkpt>
      <trkpt lat="43.22197" lon="5.38417">
        <ele>249</ele>
        <time>2021-05-09T09:52:29Z</time>
      </trkpt>
      <trkpt lat="43.22194" lon="5.38413">
        <ele>249</ele>
        <time>2021-05-09T09:52:39Z</time>
      </trkpt>
      <trkpt lat="43.22199" lon="5.3841">
        <ele>249</ele>
        <time>2021-05-09T09:52:49Z</time>
      </trkpt>
      <trkpt lat="43.22198" lon="5.38414">
        <ele>246</ele>
        <time>2021-05-09T09:52:59Z</time>
      </trkpt>
      <trkpt lat="43.22199" lon="5.38415">
        <ele>242</ele>
        <time>2021-05-09T09:53:15Z</time>
      </trkpt>
      <trkpt lat="43.22194" lon="5.38418">
        <ele>236</ele>
        <time>2021-05-09T09:53:28Z</time>
      </trkpt>
      <trkpt lat="43.22192" lon="5.38417">
        <ele>235</ele>
        <time>2021-05-09T09:53:37Z</time>
      </trkpt>
      <trkpt lat="43.22191" lon="5.38419">
        <ele>235</ele>
        <time>2021-05-09T09:53:47Z</time>
      </trkpt>
      <trkpt lat="43.22194" lon="5.38415">
        <ele>235</ele>
        <time>2021-05-09T09:53:57Z</time>
      </trkpt>
      <trkpt lat="43.22192" lon="5.38413">
        <ele>233</ele>
        <time>2021-05-09T09:54:07Z</time>
      </trkpt>
      <trkpt lat="43.22187" lon="5.38413">
        <ele>230</ele>
        <time>2021-05-09T09:54:18Z</time>
      </trkpt>
      <trkpt lat="43.22184" lon="5.38409">
        <ele>229</ele>
        <time>2021-05-09T09:54:27Z</time>
      </trkpt>
      <trkpt lat="43.22183" lon="5.38411">
        <ele>226</ele>
        <time>2021-05-09T09:54:38Z</time>
      </trkpt>
      <trkpt lat="43.22177" lon="5.38417">
        <ele>222</ele>
        <time>2021-05-09T09:54:47Z</time>
      </trkpt>
      <trkpt lat="43.22176" lon="5.3842">
        <ele>221</ele>
        <time>2021-05-09T09:54:58Z</time>
      </trkpt>
      <trkpt lat="43.22176" lon="5.3842">
        <ele>226</ele>
        <time>2021-05-09T09:55:12Z</time>
      </trkpt>
      <trkpt lat="43.22171" lon="5.38428">
        <ele>226</ele>
        <time>2021-05-09T09:55:22Z</time>
      </trkpt>
      <trkpt lat="43.22172" lon="5.38431">
        <ele>226</ele>
        <time>2021-05-09T09:55:33Z</time>
      </trkpt>
      <trkpt lat="43.22169" lon="5.3843">
        <ele>226</ele>
        <time>2021-05-09T09:55:42Z</time>
      </trkpt>
      <trkpt lat="43.22164" lon="5.38431">
        <ele>232</ele>
        <time>2021-05-09T09:55:51Z</time>
      </trkpt>
      <trkpt lat="43.22156" lon="5.38434">
        <ele>234</ele>
        <time>2021-05-09T09:56:03Z</time>
      </trkpt>
      <trkpt lat="43.22153" lon="5.38428">
        <ele>234</ele>
        <time>2021-05-09T09:56:14Z</time>
      </trkpt>
      <trkpt lat="43.22149" lon="5.38436">
        <ele>232</ele>
        <time>2021-05-09T09:56:23Z</time>
      </trkpt>
      <trkpt lat="43.22143" lon="5.38433">
        <ele>229</ele>
        <time>2021-05-09T09:56:32Z</time>
      </trkpt>
      <trkpt lat="43.22139" lon="5.38443">
        <ele>225</ele>
        <time>2021-05-09T09:56:43Z</time>
      </trkpt>
      <trkpt lat="43.2213" lon="5.38446">
        <ele>219</ele>
        <time>2021-05-09T09:56:55Z</time>
      </trkpt>
      <trkpt lat="43.22128" lon="5.38451">
        <ele>219</ele>
        <time>2021-05-09T09:57:04Z</time>
      </trkpt>
      <trkpt lat="43.22123" lon="5.38455">
        <ele>222</ele>
        <time>2021-05-09T09:57:13Z</time>
      </trkpt>
      <trkpt lat="43.22118" lon="5.38458">
        <ele>223</ele>
        <time>2021-05-09T09:57:22Z</time>
      </trkpt>
      <trkpt lat="43.22122" lon="5.38454">
        <ele>224</ele>
        <time>2021-05-09T09:57:32Z</time>
      </trkpt>
      <trkpt lat="43.22122" lon="5.38453">
        <ele>229</ele>
        <time>2021-05-09T09:57:43Z</time>
      </trkpt>
      <trkpt lat="43.22116" lon="5.38458">
        <ele>229</ele>
        <time>2021-05-09T09:57:55Z</time>
      </trkpt>
      <trkpt lat="43.22124" lon="5.38463">
        <ele>223</ele>
        <time>2021-05-09T09:58:05Z</time>
      </trkpt>
      <trkpt lat="43.22126" lon="5.38463">
        <ele>215</ele>
        <time>2021-05-09T09:58:14Z</time>
      </trkpt>
      <trkpt lat="43.22125" lon="5.38463">
        <ele>207</ele>
        <time>2021-05-09T09:58:23Z</time>
      </trkpt>
      <trkpt lat="43.22128" lon="5.38464">
        <ele>207</ele>
        <time>2021-05-09T09:58:32Z</time>
      </trkpt>
      <trkpt lat="43.22129" lon="5.38462">
        <ele>200</ele>
        <time>2021-05-09T09:58:42Z</time>
      </trkpt>
      <trkpt lat="43.22125" lon="5.38473">
        <ele>200</ele>
        <time>2021-05-09T09:58:52Z</time>
      </trkpt>
      <trkpt lat="43.22123" lon="5.38482">
        <ele>193</ele>
        <time>2021-05-09T09:59:05Z</time>
      </trkpt>
      <trkpt lat="43.22121" lon="5.38484">
        <ele>192</ele>
        <time>2021-05-09T09:59:20Z</time>
      </trkpt>
      <trkpt lat="43.22116" lon="5.3849">
        <ele>185</ele>
        <time>2021-05-09T09:59:31Z</time>
      </trkpt>
      <trkpt lat="43.22121" lon="5.38486">
        <ele>184</ele>
        <time>2021-05-09T09:59:40Z</time>
      </trkpt>
      <trkpt lat="43.22121" lon="5.38485">
        <ele>184</ele>
        <time>2021-05-09T09:59:49Z</time>
      </trkpt>
      <trkpt lat="43.22117" lon="5.3849">
        <ele>184</ele>
        <time>2021-05-09T09:59:59Z</time>
      </trkpt>
      <trkpt lat="43.22112" lon="5.38491">
        <ele>184</ele>
        <time>2021-05-09T10:00:12Z</time>
      </trkpt>
      <trkpt lat="43.2211" lon="5.38486">
        <ele>184</ele>
        <time>2021-05-09T10:00:22Z</time>
      </trkpt>
      <trkpt lat="43.22092" lon="5.38495">
        <ele>191</ele>
        <time>2021-05-09T10:00:33Z</time>
      </trkpt>
      <trkpt lat="43.22089" lon="5.38489">
        <ele>195</ele>
        <time>2021-05-09T10:00:42Z</time>
      </trkpt>
      <trkpt lat="43.22069" lon="5.38493">
        <ele>204</ele>
        <time>2021-05-09T10:00:51Z</time>
      </trkpt>
      <trkpt lat="43.22062" lon="5.38493">
        <ele>211</ele>
        <time>2021-05-09T10:01:01Z</time>
      </trkpt>
      <trkpt lat="43.22057" lon="5.38504">
        <ele>211</ele>
        <time>2021-05-09T10:01:11Z</time>
      </trkpt>
      <trkpt lat="43.22049" lon="5.38513">
        <ele>207</ele>
        <time>2021-05-09T10:01:33Z</time>
      </trkpt>
      <trkpt lat="43.22037" lon="5.38533">
        <ele>197</ele>
        <time>2021-05-09T10:01:42Z</time>
      </trkpt>
      <trkpt lat="43.22041" lon="5.3853">
        <ele>189</ele>
        <time>2021-05-09T10:01:51Z</time>
      </trkpt>
      <trkpt lat="43.22042" lon="5.38527">
        <ele>189</ele>
        <time>2021-05-09T10:02:03Z</time>
      </trkpt>
      <trkpt lat="43.22041" lon="5.38528">
        <ele>190</ele>
        <time>2021-05-09T10:02:15Z</time>
      </trkpt>
      <trkpt lat="43.22052" lon="5.38538">
        <ele>185</ele>
        <time>2021-05-09T10:02:24Z</time>
      </trkpt>
      <trkpt lat="43.2207" lon="5.38532">
        <ele>176</ele>
        <time>2021-05-09T10:02:33Z</time>
      </trkpt>
      <trkpt lat="43.22079" lon="5.38531">
        <ele>169</ele>
        <time>2021-05-09T10:02:45Z</time>
      </trkpt>
      <trkpt lat="43.22083" lon="5.38529">
        <ele>168</ele>
        <time>2021-05-09T10:02:55Z</time>
      </trkpt>
      <trkpt lat="43.22095" lon="5.38515">
        <ele>168</ele>
        <time>2021-05-09T10:03:04Z</time>
      </trkpt>
      <trkpt lat="43.22105" lon="5.38502">
        <ele>173</ele>
        <time>2021-05-09T10:03:17Z</time>
      </trkpt>
      <trkpt lat="43.22103" lon="5.38504">
        <ele>173</ele>
        <time>2021-05-09T10:03:26Z</time>
      </trkpt>
      <trkpt lat="43.22103" lon="5.38505">
        <ele>173</ele>
        <time>2021-05-09T10:03:45Z</time>
      </trkpt>
      <trkpt lat="43.22091" lon="5.38522">
        <ele>174</ele>
        <time>2021-05-09T10:03:54Z</time>
      </trkpt>
      <trkpt lat="43.22091" lon="5.38514">
        <ele>178</ele>
        <time>2021-05-09T10:04:03Z</time>
      </trkpt>
      <trkpt lat="43.221" lon="5.38484">
        <ele>192</ele>
        <time>2021-05-09T10:04:12Z</time>
      </trkpt>
      <trkpt lat="43.22117" lon="5.38462">
        <ele>204</ele>
        <time>2021-05-09T10:04:21Z</time>
      </trkpt>
      <trkpt lat="43.22108" lon="5.38461">
        <ele>213</ele>
        <time>2021-05-09T10:04:30Z</time>
      </trkpt>
      <trkpt lat="43.22109" lon="5.38454">
        <ele>223</ele>
        <time>2021-05-09T10:04:40Z</time>
      </trkpt>
      <trkpt lat="43.22107" lon="5.38456">
        <ele>227</ele>
        <time>2021-05-09T10:04:49Z</time>
      </trkpt>
      <trkpt lat="43.22104" lon="5.38455">
        <ele>226</ele>
        <time>2021-05-09T10:04:58Z</time>
      </trkpt>
      <trkpt lat="43.22101" lon="5.38464">
        <ele>225</ele>
        <time>2021-05-09T10:05:07Z</time>
      </trkpt>
      <trkpt lat="43.22109" lon="5.38469">
        <ele>225</ele>
        <time>2021-05-09T10:05:16Z</time>
      </trkpt>
      <trkpt lat="43.22116" lon="5.38463">
        <ele>224</ele>
        <time>2021-05-09T10:05:25Z</time>
      </trkpt>
      <trkpt lat="43.22118" lon="5.38457">
        <ele>224</ele>
        <time>2021-05-09T10:05:34Z</time>
      </trkpt>
      <trkpt lat="43.22113" lon="5.38457">
        <ele>224</ele>
        <time>2021-05-09T10:05:44Z</time>
      </trkpt>
      <trkpt lat="43.22113" lon="5.38449">
        <ele>227</ele>
        <time>2021-05-09T10:05:53Z</time>
      </trkpt>
      <trkpt lat="43.22116" lon="5.38453">
        <ele>228</ele>
        <time>2021-05-09T10:06:06Z</time>
      </trkpt>
      <trkpt lat="43.22115" lon="5.38452">
        <ele>225</ele>
        <time>2021-05-09T10:06:16Z</time>
      </trkpt>
      <trkpt lat="43.22114" lon="5.3845">
        <ele>225</ele>
        <time>2021-05-09T10:06:25Z</time>
      </trkpt>
      <trkpt lat="43.22113" lon="5.38455">
        <ele>223</ele>
        <time>2021-05-09T10:06:34Z</time>
      </trkpt>
      <trkpt lat="43.22109" lon="5.3847">
        <ele>214</ele>
        <time>2021-05-09T10:06:45Z</time>
      </trkpt>
      <trkpt lat="43.22108" lon="5.38472">
        <ele>212</ele>
        <time>2021-05-09T10:06:54Z</time>
      </trkpt>
      <trkpt lat="43.22107" lon="5.38477">
        <ele>209</ele>
        <time>2021-05-09T10:07:06Z</time>
      </trkpt>
      <trkpt lat="43.22116" lon="5.38469">
        <ele>206</ele>
        <time>2021-05-09T10:07:16Z</time>
      </trkpt>
      <trkpt lat="43.22113" lon="5.38462">
        <ele>208</ele>
        <time>2021-05-09T10:07:25Z</time>
      </trkpt>
      <trkpt lat="43.22116" lon="5.38454">
        <ele>218</ele>
        <time>2021-05-09T10:07:35Z</time>
      </trkpt>
      <trkpt lat="43.22122" lon="5.38452">
        <ele>221</ele>
        <time>2021-05-09T10:07:45Z</time>
      </trkpt>
      <trkpt lat="43.22124" lon="5.38448">
        <ele>221</ele>
        <time>2021-05-09T10:07:55Z</time>
      </trkpt>
      <trkpt lat="43.22123" lon="5.38449">
        <ele>223</ele>
        <time>2021-05-09T10:08:05Z</time>
      </trkpt>
      <trkpt lat="43.22123" lon="5.38453">
        <ele>221</ele>
        <time>2021-05-09T10:08:14Z</time>
      </trkpt>
      <trkpt lat="43.22122" lon="5.38455">
        <ele>217</ele>
        <time>2021-05-09T10:08:23Z</time>
      </trkpt>
      <trkpt lat="43.22115" lon="5.38457">
        <ele>214</ele>
        <time>2021-05-09T10:08:32Z</time>
      </trkpt>
      <trkpt lat="43.22113" lon="5.38452">
        <ele>214</ele>
        <time>2021-05-09T10:08:43Z</time>
      </trkpt>
      <trkpt lat="43.22108" lon="5.38449">
        <ele>208</ele>
        <time>2021-05-09T10:08:52Z</time>
      </trkpt>
      <trkpt lat="43.22104" lon="5.38448">
        <ele>208</ele>
        <time>2021-05-09T10:09:03Z</time>
      </trkpt>
      <trkpt lat="43.22101" lon="5.38439">
        <ele>208</ele>
        <time>2021-05-09T10:09:12Z</time>
      </trkpt>
      <trkpt lat="43.22095" lon="5.3843">
        <ele>209</ele>
        <time>2021-05-09T10:09:21Z</time>
      </trkpt>
      <trkpt lat="43.22101" lon="5.38417">
        <ele>208</ele>
        <time>2021-05-09T10:09:30Z</time>
      </trkpt>
      <trkpt lat="43.22103" lon="5.38407">
        <ele>199</ele>
        <time>2021-05-09T10:09:41Z</time>
      </trkpt>
      <trkpt lat="43.22104" lon="5.38401">
        <ele>196</ele>
        <time>2021-05-09T10:09:55Z</time>
      </trkpt>
      <trkpt lat="43.22102" lon="5.38393">
        <ele>193</ele>
        <time>2021-05-09T10:10:04Z</time>
      </trkpt>
      <trkpt lat="43.22104" lon="5.38388">
        <ele>190</ele>
        <time>2021-05-09T10:10:15Z</time>
      </trkpt>
      <trkpt lat="43.22102" lon="5.38385">
        <ele>187</ele>
        <time>2021-05-09T10:10:27Z</time>
      </trkpt>
      <trkpt lat="43.22099" lon="5.3838">
        <ele>185</ele>
        <time>2021-05-09T10:10:41Z</time>
      </trkpt>
      <trkpt lat="43.22099" lon="5.38373">
        <ele>184</ele>
        <time>2021-05-09T10:10:51Z</time>
      </trkpt>
      <trkpt lat="43.22097" lon="5.3837">
        <ele>182</ele>
        <time>2021-05-09T10:11:03Z</time>
      </trkpt>
      <trkpt lat="43.22095" lon="5.38361">
        <ele>182</ele>
        <time>2021-05-09T10:11:13Z</time>
      </trkpt>
      <trkpt lat="43.22093" lon="5.38358">
        <ele>184</ele>
        <time>2021-05-09T10:11:22Z</time>
      </trkpt>
      <trkpt lat="43.2209" lon="5.38357">
        <ele>186</ele>
        <time>2021-05-09T10:11:34Z</time>
      </trkpt>
      <trkpt lat="43.2209" lon="5.38356">
        <ele>189</ele>
        <time>2021-05-09T10:11:43Z</time>
      </trkpt>
      <trkpt lat="43.22092" lon="5.3835">
        <ele>189</ele>
        <time>2021-05-09T10:11:52Z</time>
      </trkpt>
      <trkpt lat="43.22093" lon="5.38347">
        <ele>185</ele>
        <time>2021-05-09T10:12:02Z</time>
      </trkpt>
      <trkpt lat="43.22099" lon="5.38343">
        <ele>177</ele>
        <time>2021-05-09T10:12:11Z</time>
      </trkpt>
      <trkpt lat="43.22101" lon="5.38339">
        <ele>169</ele>
        <time>2021-05-09T10:12:22Z</time>
      </trkpt>
      <trkpt lat="43.22102" lon="5.38328">
        <ele>170</ele>
        <time>2021-05-09T10:12:31Z</time>
      </trkpt>
      <trkpt lat="43.221" lon="5.3832">
        <ele>171</ele>
        <time>2021-05-09T10:12:41Z</time>
      </trkpt>
      <trkpt lat="43.22094" lon="5.38313">
        <ele>170</ele>
        <time>2021-05-09T10:12:51Z</time>
      </trkpt>
      <trkpt lat="43.22095" lon="5.38299">
        <ele>170</ele>
        <time>2021-05-09T10:13:00Z</time>
      </trkpt>
      <trkpt lat="43.22094" lon="5.38283">
        <ele>161</ele>
        <time>2021-05-09T10:13:10Z</time>
      </trkpt>
      <trkpt lat="43.22088" lon="5.38277">
        <ele>158</ele>
        <time>2021-05-09T10:13:20Z</time>
      </trkpt>
      <trkpt lat="43.22083" lon="5.38272">
        <ele>158</ele>
        <time>2021-05-09T10:13:29Z</time>
      </trkpt>
      <trkpt lat="43.22079" lon="5.3826">
        <ele>157</ele>
        <time>2021-05-09T10:13:38Z</time>
      </trkpt>
      <trkpt lat="43.22076" lon="5.38244">
        <ele>155</ele>
        <time>2021-05-09T10:13:48Z</time>
      </trkpt>
      <trkpt lat="43.22075" lon="5.3823">
        <ele>152</ele>
        <time>2021-05-09T10:13:57Z</time>
      </trkpt>
      <trkpt lat="43.22074" lon="5.38221">
        <ele>151</ele>
        <time>2021-05-09T10:14:07Z</time>
      </trkpt>
      <trkpt lat="43.22075" lon="5.38214">
        <ele>149</ele>
        <time>2021-05-09T10:14:17Z</time>
      </trkpt>
      <trkpt lat="43.22073" lon="5.38201">
        <ele>148</ele>
        <time>2021-05-09T10:14:27Z</time>
      </trkpt>
      <trkpt lat="43.22071" lon="5.3819">
        <ele>147</ele>
        <time>2021-05-09T10:14:36Z</time>
      </trkpt>
      <trkpt lat="43.22062" lon="5.3818">
        <ele>144</ele>
        <time>2021-05-09T10:14:45Z</time>
      </trkpt>
      <trkpt lat="43.22053" lon="5.38173">
        <ele>142</ele>
        <time>2021-05-09T10:14:54Z</time>
      </trkpt>
      <trkpt lat="43.22047" lon="5.38161">
        <ele>142</ele>
        <time>2021-05-09T10:15:04Z</time>
      </trkpt>
      <trkpt lat="43.22043" lon="5.3815">
        <ele>142</ele>
        <time>2021-05-09T10:15:14Z</time>
      </trkpt>
      <trkpt lat="43.22042" lon="5.3814">
        <ele>139</ele>
        <time>2021-05-09T10:15:23Z</time>
      </trkpt>
      <trkpt lat="43.22035" lon="5.38128">
        <ele>138</ele>
        <time>2021-05-09T10:15:32Z</time>
      </trkpt>
      <trkpt lat="43.22032" lon="5.38114">
        <ele>138</ele>
        <time>2021-05-09T10:15:41Z</time>
      </trkpt>
      <trkpt lat="43.22026" lon="5.38101">
        <ele>138</ele>
        <time>2021-05-09T10:15:50Z</time>
      </trkpt>
      <trkpt lat="43.22023" lon="5.38087">
        <ele>138</ele>
        <time>2021-05-09T10:16:00Z</time>
      </trkpt>
      <trkpt lat="43.22017" lon="5.38075">
        <ele>138</ele>
        <time>2021-05-09T10:16:10Z</time>
      </trkpt>
      <trkpt lat="43.22014" lon="5.38062">
        <ele>135</ele>
        <time>2021-05-09T10:16:19Z</time>
      </trkpt>
      <trkpt lat="43.22011" lon="5.38049">
        <ele>131</ele>
        <time>2021-05-09T10:16:28Z</time>
      </trkpt>
      <trkpt lat="43.22002" lon="5.38038">
        <ele>129</ele>
        <time>2021-05-09T10:16:38Z</time>
      </trkpt>
      <trkpt lat="43.21998" lon="5.38025">
        <ele>129</ele>
        <time>2021-05-09T10:16:47Z</time>
      </trkpt>
      <trkpt lat="43.21994" lon="5.38013">
        <ele>129</ele>
        <time>2021-05-09T10:16:57Z</time>
      </trkpt>
      <trkpt lat="43.21988" lon="5.38001">
        <ele>129</ele>
        <time>2021-05-09T10:17:06Z</time>
      </trkpt>
      <trkpt lat="43.2198" lon="5.3799">
        <ele>129</ele>
        <time>2021-05-09T10:17:16Z</time>
      </trkpt>
      <trkpt lat="43.21975" lon="5.3798">
        <ele>129</ele>
        <time>2021-05-09T10:17:25Z</time>
      </trkpt>
      <trkpt lat="43.2197" lon="5.37967">
        <ele>128</ele>
        <time>2021-05-09T10:17:35Z</time>
      </trkpt>
      <trkpt lat="43.21967" lon="5.37955">
        <ele>125</ele>
        <time>2021-05-09T10:17:45Z</time>
      </trkpt>
      <trkpt lat="43.21962" lon="5.37942">
        <ele>125</ele>
        <time>2021-05-09T10:17:54Z</time>
      </trkpt>
      <trkpt lat="43.21961" lon="5.37931">
        <ele>125</ele>
        <time>2021-05-09T10:18:03Z</time>
      </trkpt>
      <trkpt lat="43.21956" lon="5.37925">
        <ele>123</ele>
        <time>2021-05-09T10:18:14Z</time>
      </trkpt>
      <trkpt lat="43.21953" lon="5.37927">
        <ele>121</ele>
        <time>2021-05-09T10:18:26Z</time>
      </trkpt>
      <trkpt lat="43.21952" lon="5.37936">
        <ele>121</ele>
        <time>2021-05-09T10:18:35Z</time>
      </trkpt>
      <trkpt lat="43.21952" lon="5.37946">
        <ele>122</ele>
        <time>2021-05-09T10:18:45Z</time>
      </trkpt>
      <trkpt lat="43.2195" lon="5.37954">
        <ele>122</ele>
        <time>2021-05-09T10:18:54Z</time>
      </trkpt>
      <trkpt lat="43.21949" lon="5.37963">
        <ele>125</ele>
        <time>2021-05-09T10:19:03Z</time>
      </trkpt>
      <trkpt lat="43.21942" lon="5.37968">
        <ele>126</ele>
        <time>2021-05-09T10:19:13Z</time>
      </trkpt>
      <trkpt lat="43.21945" lon="5.37975">
        <ele>127</ele>
        <time>2021-05-09T10:19:24Z</time>
      </trkpt>
      <trkpt lat="43.21944" lon="5.3798">
        <ele>135</ele>
        <time>2021-05-09T10:19:36Z</time>
      </trkpt>
      <trkpt lat="43.21944" lon="5.37984">
        <ele>146</ele>
        <time>2021-05-09T10:19:47Z</time>
      </trkpt>
      <trkpt lat="43.21944" lon="5.37992">
        <ele>157</ele>
        <time>2021-05-09T10:19:58Z</time>
      </trkpt>
      <trkpt lat="43.21941" lon="5.38002">
        <ele>159</ele>
        <time>2021-05-09T10:20:08Z</time>
      </trkpt>
      <trkpt lat="43.21937" lon="5.38006">
        <ele>165</ele>
        <time>2021-05-09T10:20:18Z</time>
      </trkpt>
      <trkpt lat="43.21938" lon="5.38019">
        <ele>166</ele>
        <time>2021-05-09T10:20:27Z</time>
      </trkpt>
      <trkpt lat="43.21934" lon="5.38027">
        <ele>168</ele>
        <time>2021-05-09T10:20:38Z</time>
      </trkpt>
      <trkpt lat="43.21926" lon="5.38032">
        <ele>168</ele>
        <time>2021-05-09T10:20:47Z</time>
      </trkpt>
      <trkpt lat="43.2192" lon="5.38038">
        <ele>166</ele>
        <time>2021-05-09T10:20:56Z</time>
      </trkpt>
      <trkpt lat="43.21911" lon="5.38037">
        <ele>163</ele>
        <time>2021-05-09T10:21:05Z</time>
      </trkpt>
      <trkpt lat="43.21905" lon="5.38037">
        <ele>159</ele>
        <time>2021-05-09T10:21:14Z</time>
      </trkpt>
      <trkpt lat="43.21897" lon="5.38041">
        <ele>165</ele>
        <time>2021-05-09T10:21:24Z</time>
      </trkpt>
      <trkpt lat="43.21897" lon="5.38047">
        <ele>167</ele>
        <time>2021-05-09T10:21:33Z</time>
      </trkpt>
      <trkpt lat="43.21895" lon="5.38049">
        <ele>185</ele>
        <time>2021-05-09T10:21:46Z</time>
      </trkpt>
      <trkpt lat="43.21897" lon="5.38054">
        <ele>210</ele>
        <time>2021-05-09T10:22:02Z</time>
      </trkpt>
      <trkpt lat="43.21905" lon="5.38057">
        <ele>227</ele>
        <time>2021-05-09T10:22:11Z</time>
      </trkpt>
      <trkpt lat="43.21916" lon="5.38067">
        <ele>238</ele>
        <time>2021-05-09T10:22:20Z</time>
      </trkpt>
      <trkpt lat="43.21915" lon="5.38074">
        <ele>249</ele>
        <time>2021-05-09T10:22:40Z</time>
      </trkpt>
      <trkpt lat="43.21912" lon="5.38078">
        <ele>250</ele>
        <time>2021-05-09T10:22:54Z</time>
      </trkpt>
      <trkpt lat="43.21907" lon="5.3809">
        <ele>249</ele>
        <time>2021-05-09T10:23:07Z</time>
      </trkpt>
      <trkpt lat="43.21832" lon="5.38121">
        <ele>249</ele>
        <time>2021-05-09T10:25:21Z</time>
      </trkpt>
      <trkpt lat="43.21833" lon="5.38117">
        <ele>244</ele>
        <time>2021-05-09T10:25:31Z</time>
      </trkpt>
      <trkpt lat="43.21825" lon="5.38116">
        <ele>239</ele>
        <time>2021-05-09T10:25:42Z</time>
      </trkpt>
      <trkpt lat="43.2181" lon="5.3812">
        <ele>227</ele>
        <time>2021-05-09T10:25:52Z</time>
      </trkpt>
      <trkpt lat="43.2179" lon="5.38123">
        <ele>213</ele>
        <time>2021-05-09T10:26:02Z</time>
      </trkpt>
      <trkpt lat="43.21783" lon="5.38125">
        <ele>209</ele>
        <time>2021-05-09T10:26:11Z</time>
      </trkpt>
      <trkpt lat="43.21784" lon="5.38155">
        <ele>210</ele>
        <time>2021-05-09T10:26:42Z</time>
      </trkpt>
      <trkpt lat="43.21777" lon="5.38193">
        <ele>214</ele>
        <time>2021-05-09T10:27:25Z</time>
      </trkpt>
      <trkpt lat="43.21773" lon="5.382">
        <ele>228</ele>
        <time>2021-05-09T10:27:41Z</time>
      </trkpt>
      <trkpt lat="43.21773" lon="5.38202">
        <ele>236</ele>
        <time>2021-05-09T10:27:50Z</time>
      </trkpt>
      <trkpt lat="43.21782" lon="5.3821">
        <ele>241</ele>
        <time>2021-05-09T10:28:03Z</time>
      </trkpt>
      <trkpt lat="43.21798" lon="5.38219">
        <ele>252</ele>
        <time>2021-05-09T10:28:12Z</time>
      </trkpt>
      <trkpt lat="43.21818" lon="5.38232">
        <ele>283</ele>
        <time>2021-05-09T10:28:21Z</time>
      </trkpt>
      <trkpt lat="43.21841" lon="5.38252">
        <ele>311</ele>
        <time>2021-05-09T10:28:32Z</time>
      </trkpt>
      <trkpt lat="43.21862" lon="5.38264">
        <ele>340</ele>
        <time>2021-05-09T10:28:42Z</time>
      </trkpt>
      <trkpt lat="43.21871" lon="5.38274">
        <ele>362</ele>
        <time>2021-05-09T10:28:51Z</time>
      </trkpt>
      <trkpt lat="43.21883" lon="5.3828">
        <ele>389</ele>
        <time>2021-05-09T10:29:01Z</time>
      </trkpt>
      <trkpt lat="43.21886" lon="5.38289">
        <ele>407</ele>
        <time>2021-05-09T10:29:10Z</time>
      </trkpt>
      <trkpt lat="43.2188" lon="5.38297">
        <ele>424</ele>
        <time>2021-05-09T10:29:26Z</time>
      </trkpt>
      <trkpt lat="43.21842" lon="5.38316">
        <ele>424</ele>
        <time>2021-05-09T10:30:07Z</time>
      </trkpt>
      <trkpt lat="43.21811" lon="5.3832">
        <ele>402</ele>
        <time>2021-05-09T10:30:16Z</time>
      </trkpt>
      <trkpt lat="43.21809" lon="5.38327">
        <ele>375</ele>
        <time>2021-05-09T10:30:25Z</time>
      </trkpt>
      <trkpt lat="43.21808" lon="5.38339">
        <ele>364</ele>
        <time>2021-05-09T10:30:37Z</time>
      </trkpt>
      <trkpt lat="43.21806" lon="5.38349">
        <ele>361</ele>
        <time>2021-05-09T10:30:47Z</time>
      </trkpt>
      <trkpt lat="43.21741" lon="5.38345">
        <ele>333</ele>
        <time>2021-05-09T10:30:57Z</time>
      </trkpt>
      <trkpt lat="43.21737" lon="5.38348">
        <ele>281</ele>
        <time>2021-05-09T10:31:07Z</time>
      </trkpt>
      <trkpt lat="43.21738" lon="5.38357">
        <ele>268</ele>
        <time>2021-05-09T10:31:17Z</time>
      </trkpt>
      <trkpt lat="43.21735" lon="5.3837">
        <ele>258</ele>
        <time>2021-05-09T10:31:27Z</time>
      </trkpt>
      <trkpt lat="43.21713" lon="5.3838">
        <ele>248</ele>
        <time>2021-05-09T10:31:37Z</time>
      </trkpt>
      <trkpt lat="43.21701" lon="5.38383">
        <ele>239</ele>
        <time>2021-05-09T10:31:46Z</time>
      </trkpt>
      <trkpt lat="43.217" lon="5.38389">
        <ele>235</ele>
        <time>2021-05-09T10:31:55Z</time>
      </trkpt>
      <trkpt lat="43.21692" lon="5.38394">
        <ele>234</ele>
        <time>2021-05-09T10:32:04Z</time>
      </trkpt>
      <trkpt lat="43.21687" lon="5.38402">
        <ele>239</ele>
        <time>2021-05-09T10:32:20Z</time>
      </trkpt>
      <trkpt lat="43.21686" lon="5.38408">
        <ele>246</ele>
        <time>2021-05-09T10:32:30Z</time>
      </trkpt>
      <trkpt lat="43.21683" lon="5.3842">
        <ele>246</ele>
        <time>2021-05-09T10:32:39Z</time>
      </trkpt>
      <trkpt lat="43.21674" lon="5.38429">
        <ele>243</ele>
        <time>2021-05-09T10:32:49Z</time>
      </trkpt>
      <trkpt lat="43.21672" lon="5.38436">
        <ele>243</ele>
        <time>2021-05-09T10:32:58Z</time>
      </trkpt>
      <trkpt lat="43.21665" lon="5.38446">
        <ele>240</ele>
        <time>2021-05-09T10:33:08Z</time>
      </trkpt>
      <trkpt lat="43.21661" lon="5.38453">
        <ele>239</ele>
        <time>2021-05-09T10:33:18Z</time>
      </trkpt>
      <trkpt lat="43.21647" lon="5.38454">
        <ele>236</ele>
        <time>2021-05-09T10:33:27Z</time>
      </trkpt>
      <trkpt lat="43.21622" lon="5.3845">
        <ele>225</ele>
        <time>2021-05-09T10:33:39Z</time>
      </trkpt>
      <trkpt lat="43.21634" lon="5.38449">
        <ele>230</ele>
        <time>2021-05-09T10:33:50Z</time>
      </trkpt>
      <trkpt lat="43.21646" lon="5.38454">
        <ele>241</ele>
        <time>2021-05-09T10:34:03Z</time>
      </trkpt>
      <trkpt lat="43.21637" lon="5.38462">
        <ele>248</ele>
        <time>2021-05-09T10:34:16Z</time>
      </trkpt>
      <trkpt lat="43.21631" lon="5.3847">
        <ele>248</ele>
        <time>2021-05-09T10:34:26Z</time>
      </trkpt>
      <trkpt lat="43.21626" lon="5.38476">
        <ele>248</ele>
        <time>2021-05-09T10:34:35Z</time>
      </trkpt>
      <trkpt lat="43.21616" lon="5.38482">
        <ele>247</ele>
        <time>2021-05-09T10:34:44Z</time>
      </trkpt>
      <trkpt lat="43.2162" lon="5.38494">
        <ele>247</ele>
        <time>2021-05-09T10:34:54Z</time>
      </trkpt>
      <trkpt lat="43.21625" lon="5.38508">
        <ele>247</ele>
        <time>2021-05-09T10:35:03Z</time>
      </trkpt>
      <trkpt lat="43.21619" lon="5.38517">
        <ele>246</ele>
        <time>2021-05-09T10:35:12Z</time>
      </trkpt>
      <trkpt lat="43.21613" lon="5.38524">
        <ele>244</ele>
        <time>2021-05-09T10:35:24Z</time>
      </trkpt>
      <trkpt lat="43.21615" lon="5.38531">
        <ele>249</ele>
        <time>2021-05-09T10:35:34Z</time>
      </trkpt>
      <trkpt lat="43.21607" lon="5.38541">
        <ele>249</ele>
        <time>2021-05-09T10:35:44Z</time>
      </trkpt>
      <trkpt lat="43.21615" lon="5.38552">
        <ele>249</ele>
        <time>2021-05-09T10:35:54Z</time>
      </trkpt>
      <trkpt lat="43.21623" lon="5.38563">
        <ele>249</ele>
        <time>2021-05-09T10:36:03Z</time>
      </trkpt>
      <trkpt lat="43.21619" lon="5.38573">
        <ele>250</ele>
        <time>2021-05-09T10:36:13Z</time>
      </trkpt>
      <trkpt lat="43.21611" lon="5.38583">
        <ele>250</ele>
        <time>2021-05-09T10:36:23Z</time>
      </trkpt>
      <trkpt lat="43.21605" lon="5.38589">
        <ele>250</ele>
        <time>2021-05-09T10:36:32Z</time>
      </trkpt>
      <trkpt lat="43.21613" lon="5.38599">
        <ele>250</ele>
        <time>2021-05-09T10:36:42Z</time>
      </trkpt>
      <trkpt lat="43.21617" lon="5.38607">
        <ele>250</ele>
        <time>2021-05-09T10:36:51Z</time>
      </trkpt>
      <trkpt lat="43.21615" lon="5.38614">
        <ele>250</ele>
        <time>2021-05-09T10:37:00Z</time>
      </trkpt>
      <trkpt lat="43.21625" lon="5.38628">
        <ele>250</ele>
        <time>2021-05-09T10:37:09Z</time>
      </trkpt>
      <trkpt lat="43.2163" lon="5.38636">
        <ele>256</ele>
        <time>2021-05-09T10:37:18Z</time>
      </trkpt>
      <trkpt lat="43.21654" lon="5.38656">
        <ele>259</ele>
        <time>2021-05-09T10:37:28Z</time>
      </trkpt>
      <trkpt lat="43.21652" lon="5.38663">
        <ele>259</ele>
        <time>2021-05-09T10:37:39Z</time>
      </trkpt>
      <trkpt lat="43.21646" lon="5.38668">
        <ele>267</ele>
        <time>2021-05-09T10:37:49Z</time>
      </trkpt>
      <trkpt lat="43.21646" lon="5.38677">
        <ele>273</ele>
        <time>2021-05-09T10:38:00Z</time>
      </trkpt>
      <trkpt lat="43.21647" lon="5.38685">
        <ele>277</ele>
        <time>2021-05-09T10:38:09Z</time>
      </trkpt>
      <trkpt lat="43.21657" lon="5.38698">
        <ele>277</ele>
        <time>2021-05-09T10:38:18Z</time>
      </trkpt>
      <trkpt lat="43.21667" lon="5.38711">
        <ele>277</ele>
        <time>2021-05-09T10:38:28Z</time>
      </trkpt>
      <trkpt lat="43.21671" lon="5.38721">
        <ele>277</ele>
        <time>2021-05-09T10:38:39Z</time>
      </trkpt>
      <trkpt lat="43.21672" lon="5.38727">
        <ele>277</ele>
        <time>2021-05-09T10:38:48Z</time>
      </trkpt>
      <trkpt lat="43.21678" lon="5.3873">
        <ele>278</ele>
        <time>2021-05-09T10:38:57Z</time>
      </trkpt>
      <trkpt lat="43.21667" lon="5.38732">
        <ele>284</ele>
        <time>2021-05-09T10:39:07Z</time>
      </trkpt>
      <trkpt lat="43.21661" lon="5.38735">
        <ele>284</ele>
        <time>2021-05-09T10:39:16Z</time>
      </trkpt>
      <trkpt lat="43.21649" lon="5.38739">
        <ele>284</ele>
        <time>2021-05-09T10:39:27Z</time>
      </trkpt>
      <trkpt lat="43.21633" lon="5.3874">
        <ele>284</ele>
        <time>2021-05-09T10:39:36Z</time>
      </trkpt>
      <trkpt lat="43.21625" lon="5.38741">
        <ele>284</ele>
        <time>2021-05-09T10:39:46Z</time>
      </trkpt>
      <trkpt lat="43.21622" lon="5.38747">
        <ele>287</ele>
        <time>2021-05-09T10:39:56Z</time>
      </trkpt>
      <trkpt lat="43.21622" lon="5.38746">
        <ele>290</ele>
        <time>2021-05-09T10:40:05Z</time>
      </trkpt>
      <trkpt lat="43.21624" lon="5.38748">
        <ele>290</ele>
        <time>2021-05-09T10:40:15Z</time>
      </trkpt>
      <trkpt lat="43.21624" lon="5.38746">
        <ele>290</ele>
        <time>2021-05-09T10:40:27Z</time>
      </trkpt>
      <trkpt lat="43.21621" lon="5.3875">
        <ele>290</ele>
        <time>2021-05-09T10:40:36Z</time>
      </trkpt>
      <trkpt lat="43.21618" lon="5.38749">
        <ele>290</ele>
        <time>2021-05-09T10:40:45Z</time>
      </trkpt>
      <trkpt lat="43.21612" lon="5.38747">
        <ele>295</ele>
        <time>2021-05-09T10:40:57Z</time>
      </trkpt>
      <trkpt lat="43.21611" lon="5.38747">
        <ele>295</ele>
        <time>2021-05-09T10:41:07Z</time>
      </trkpt>
      <trkpt lat="43.21614" lon="5.38747">
        <ele>297</ele>
        <time>2021-05-09T10:41:16Z</time>
      </trkpt>
      <trkpt lat="43.21622" lon="5.38754">
        <ele>302</ele>
        <time>2021-05-09T10:41:26Z</time>
      </trkpt>
      <trkpt lat="43.21622" lon="5.38755">
        <ele>306</ele>
        <time>2021-05-09T10:41:37Z</time>
      </trkpt>
      <trkpt lat="43.21629" lon="5.38758">
        <ele>307</ele>
        <time>2021-05-09T10:41:46Z</time>
      </trkpt>
      <trkpt lat="43.21635" lon="5.38762">
        <ele>307</ele>
        <time>2021-05-09T10:41:57Z</time>
      </trkpt>
      <trkpt lat="43.21623" lon="5.38763">
        <ele>307</ele>
        <time>2021-05-09T10:42:07Z</time>
      </trkpt>
      <trkpt lat="43.2162" lon="5.38762">
        <ele>303</ele>
        <time>2021-05-09T10:42:17Z</time>
      </trkpt>
      <trkpt lat="43.21614" lon="5.38759">
        <ele>294</ele>
        <time>2021-05-09T10:42:26Z</time>
      </trkpt>
      <trkpt lat="43.21609" lon="5.38758">
        <ele>285</ele>
        <time>2021-05-09T10:42:35Z</time>
      </trkpt>
      <trkpt lat="43.21604" lon="5.38755">
        <ele>278</ele>
        <time>2021-05-09T10:42:44Z</time>
      </trkpt>
      <trkpt lat="43.216" lon="5.3875">
        <ele>275</ele>
        <time>2021-05-09T10:42:53Z</time>
      </trkpt>
      <trkpt lat="43.21599" lon="5.38746">
        <ele>275</ele>
        <time>2021-05-09T10:43:03Z</time>
      </trkpt>
      <trkpt lat="43.21592" lon="5.38742">
        <ele>281</ele>
        <time>2021-05-09T10:43:15Z</time>
      </trkpt>
      <trkpt lat="43.21593" lon="5.38742">
        <ele>281</ele>
        <time>2021-05-09T10:43:28Z</time>
      </trkpt>
      <trkpt lat="43.21594" lon="5.38743">
        <ele>285</ele>
        <time>2021-05-09T10:43:41Z</time>
      </trkpt>
      <trkpt lat="43.21594" lon="5.38747">
        <ele>289</ele>
        <time>2021-05-09T10:43:51Z</time>
      </trkpt>
      <trkpt lat="43.21593" lon="5.38747">
        <ele>293</ele>
        <time>2021-05-09T10:44:00Z</time>
      </trkpt>
      <trkpt lat="43.21593" lon="5.38752">
        <ele>293</ele>
        <time>2021-05-09T10:44:11Z</time>
      </trkpt>
      <trkpt lat="43.21595" lon="5.38755">
        <ele>293</ele>
        <time>2021-05-09T10:44:21Z</time>
      </trkpt>
      <trkpt lat="43.21594" lon="5.38759">
        <ele>293</ele>
        <time>2021-05-09T10:44:32Z</time>
      </trkpt>
      <trkpt lat="43.21598" lon="5.38766">
        <ele>284</ele>
        <time>2021-05-09T10:44:42Z</time>
      </trkpt>
      <trkpt lat="43.21596" lon="5.38768">
        <ele>281</ele>
        <time>2021-05-09T10:44:52Z</time>
      </trkpt>
      <trkpt lat="43.21596" lon="5.38761">
        <ele>282</ele>
        <time>2021-05-09T10:45:02Z</time>
      </trkpt>
      <trkpt lat="43.216" lon="5.38765">
        <ele>288</ele>
        <time>2021-05-09T10:45:11Z</time>
      </trkpt>
      <trkpt lat="43.21601" lon="5.38768">
        <ele>288</ele>
        <time>2021-05-09T10:45:20Z</time>
      </trkpt>
      <trkpt lat="43.21605" lon="5.38772">
        <ele>288</ele>
        <time>2021-05-09T10:45:34Z</time>
      </trkpt>
      <trkpt lat="43.21607" lon="5.38775">
        <ele>288</ele>
        <time>2021-05-09T10:45:45Z</time>
      </trkpt>
      <trkpt lat="43.21611" lon="5.38773">
        <ele>290</ele>
        <time>2021-05-09T10:45:59Z</time>
      </trkpt>
      <trkpt lat="43.21616" lon="5.38772">
        <ele>290</ele>
        <time>2021-05-09T10:46:09Z</time>
      </trkpt>
      <trkpt lat="43.21618" lon="5.38773">
        <ele>291</ele>
        <time>2021-05-09T10:46:20Z</time>
      </trkpt>
      <trkpt lat="43.21622" lon="5.38777">
        <ele>291</ele>
        <time>2021-05-09T10:46:30Z</time>
      </trkpt>
      <trkpt lat="43.21622" lon="5.38785">
        <ele>291</ele>
        <time>2021-05-09T10:46:40Z</time>
      </trkpt>
      <trkpt lat="43.21626" lon="5.38794">
        <ele>291</ele>
        <time>2021-05-09T10:46:49Z</time>
      </trkpt>
      <trkpt lat="43.21629" lon="5.38801">
        <ele>291</ele>
        <time>2021-05-09T10:47:02Z</time>
      </trkpt>
      <trkpt lat="43.21632" lon="5.38805">
        <ele>291</ele>
        <time>2021-05-09T10:47:12Z</time>
      </trkpt>
      <trkpt lat="43.2163" lon="5.3881">
        <ele>293</ele>
        <time>2021-05-09T10:47:32Z</time>
      </trkpt>
      <trkpt lat="43.2163" lon="5.38817">
        <ele>293</ele>
        <time>2021-05-09T10:47:42Z</time>
      </trkpt>
      <trkpt lat="43.21635" lon="5.38822">
        <ele>293</ele>
        <time>2021-05-09T10:47:51Z</time>
      </trkpt>
      <trkpt lat="43.21637" lon="5.38826">
        <ele>297</ele>
        <time>2021-05-09T10:48:00Z</time>
      </trkpt>
      <trkpt lat="43.21636" lon="5.38829">
        <ele>298</ele>
        <time>2021-05-09T10:48:10Z</time>
      </trkpt>
      <trkpt lat="43.21646" lon="5.38833">
        <ele>301</ele>
        <time>2021-05-09T10:48:20Z</time>
      </trkpt>
      <trkpt lat="43.21634" lon="5.38834">
        <ele>301</ele>
        <time>2021-05-09T10:48:30Z</time>
      </trkpt>
      <trkpt lat="43.21629" lon="5.38837">
        <ele>301</ele>
        <time>2021-05-09T10:48:39Z</time>
      </trkpt>
      <trkpt lat="43.21627" lon="5.3884">
        <ele>301</ele>
        <time>2021-05-09T10:48:51Z</time>
      </trkpt>
      <trkpt lat="43.21652" lon="5.38851">
        <ele>304</ele>
        <time>2021-05-09T10:49:00Z</time>
      </trkpt>
      <trkpt lat="43.21659" lon="5.3886">
        <ele>308</ele>
        <time>2021-05-09T10:49:10Z</time>
      </trkpt>
      <trkpt lat="43.21656" lon="5.38865">
        <ele>311</ele>
        <time>2021-05-09T10:49:19Z</time>
      </trkpt>
      <trkpt lat="43.21668" lon="5.38875">
        <ele>311</ele>
        <time>2021-05-09T10:49:28Z</time>
      </trkpt>
      <trkpt lat="43.2167" lon="5.38881">
        <ele>313</ele>
        <time>2021-05-09T10:49:39Z</time>
      </trkpt>
      <trkpt lat="43.21672" lon="5.38885">
        <ele>317</ele>
        <time>2021-05-09T10:49:48Z</time>
      </trkpt>
      <trkpt lat="43.21672" lon="5.3889">
        <ele>321</ele>
        <time>2021-05-09T10:49:57Z</time>
      </trkpt>
      <trkpt lat="43.21675" lon="5.38895">
        <ele>324</ele>
        <time>2021-05-09T10:50:09Z</time>
      </trkpt>
      <trkpt lat="43.21674" lon="5.38901">
        <ele>325</ele>
        <time>2021-05-09T10:50:19Z</time>
      </trkpt>
      <trkpt lat="43.21682" lon="5.3891">
        <ele>329</ele>
        <time>2021-05-09T10:50:31Z</time>
      </trkpt>
      <trkpt lat="43.21682" lon="5.38916">
        <ele>331</ele>
        <time>2021-05-09T10:50:41Z</time>
      </trkpt>
      <trkpt lat="43.21676" lon="5.38918">
        <ele>332</ele>
        <time>2021-05-09T10:50:51Z</time>
      </trkpt>
      <trkpt lat="43.21682" lon="5.38924">
        <ele>334</ele>
        <time>2021-05-09T10:51:00Z</time>
      </trkpt>
      <trkpt lat="43.21692" lon="5.38927">
        <ele>328</ele>
        <time>2021-05-09T10:51:11Z</time>
      </trkpt>
      <trkpt lat="43.21685" lon="5.38927">
        <ele>326</ele>
        <time>2021-05-09T10:51:22Z</time>
      </trkpt>
      <trkpt lat="43.2168" lon="5.38925">
        <ele>334</ele>
        <time>2021-05-09T10:51:36Z</time>
      </trkpt>
      <trkpt lat="43.21674" lon="5.3892">
        <ele>341</ele>
        <time>2021-05-09T10:51:46Z</time>
      </trkpt>
      <trkpt lat="43.21643" lon="5.38913">
        <ele>341</ele>
        <time>2021-05-09T10:51:55Z</time>
      </trkpt>
      <trkpt lat="43.21629" lon="5.38912">
        <ele>338</ele>
        <time>2021-05-09T10:52:04Z</time>
      </trkpt>
      <trkpt lat="43.21622" lon="5.38912">
        <ele>328</ele>
        <time>2021-05-09T10:52:13Z</time>
      </trkpt>
      <trkpt lat="43.21623" lon="5.38911">
        <ele>319</ele>
        <time>2021-05-09T10:52:22Z</time>
      </trkpt>
      <trkpt lat="43.21617" lon="5.38911">
        <ele>319</ele>
        <time>2021-05-09T10:52:34Z</time>
      </trkpt>
      <trkpt lat="43.21614" lon="5.38914">
        <ele>321</ele>
        <time>2021-05-09T10:52:45Z</time>
      </trkpt>
      <trkpt lat="43.21612" lon="5.38917">
        <ele>324</ele>
        <time>2021-05-09T10:52:54Z</time>
      </trkpt>
      <trkpt lat="43.21609" lon="5.38922">
        <ele>326</ele>
        <time>2021-05-09T10:53:03Z</time>
      </trkpt>
      <trkpt lat="43.21604" lon="5.38926">
        <ele>327</ele>
        <time>2021-05-09T10:53:12Z</time>
      </trkpt>
      <trkpt lat="43.216" lon="5.38933">
        <ele>327</ele>
        <time>2021-05-09T10:53:21Z</time>
      </trkpt>
      <trkpt lat="43.216" lon="5.3894">
        <ele>327</ele>
        <time>2021-05-09T10:53:32Z</time>
      </trkpt>
      <trkpt lat="43.21598" lon="5.38945">
        <ele>327</ele>
        <time>2021-05-09T10:53:41Z</time>
      </trkpt>
      <trkpt lat="43.21594" lon="5.38952">
        <ele>329</ele>
        <time>2021-05-09T10:53:57Z</time>
      </trkpt>
      <trkpt lat="43.21592" lon="5.38956">
        <ele>330</ele>
        <time>2021-05-09T10:54:08Z</time>
      </trkpt>
      <trkpt lat="43.21595" lon="5.3896">
        <ele>334</ele>
        <time>2021-05-09T10:54:17Z</time>
      </trkpt>
      <trkpt lat="43.21594" lon="5.38966">
        <ele>334</ele>
        <time>2021-05-09T10:54:26Z</time>
      </trkpt>
      <trkpt lat="43.21597" lon="5.38973">
        <ele>334</ele>
        <time>2021-05-09T10:54:35Z</time>
      </trkpt>
      <trkpt lat="43.21601" lon="5.3898">
        <ele>334</ele>
        <time>2021-05-09T10:54:48Z</time>
      </trkpt>
      <trkpt lat="43.21602" lon="5.38983">
        <ele>337</ele>
        <time>2021-05-09T10:54:58Z</time>
      </trkpt>
      <trkpt lat="43.21605" lon="5.38987">
        <ele>339</ele>
        <time>2021-05-09T10:55:08Z</time>
      </trkpt>
      <trkpt lat="43.21604" lon="5.38993">
        <ele>340</ele>
        <time>2021-05-09T10:55:17Z</time>
      </trkpt>
      <trkpt lat="43.21607" lon="5.39">
        <ele>340</ele>
        <time>2021-05-09T10:55:26Z</time>
      </trkpt>
      <trkpt lat="43.21607" lon="5.39004">
        <ele>340</ele>
        <time>2021-05-09T10:55:39Z</time>
      </trkpt>
      <trkpt lat="43.2161" lon="5.39009">
        <ele>342</ele>
        <time>2021-05-09T10:55:52Z</time>
      </trkpt>
      <trkpt lat="43.2161" lon="5.39008">
        <ele>345</ele>
        <time>2021-05-09T10:56:03Z</time>
      </trkpt>
      <trkpt lat="43.21613" lon="5.39012">
        <ele>346</ele>
        <time>2021-05-09T10:56:19Z</time>
      </trkpt>
      <trkpt lat="43.2161" lon="5.39013">
        <ele>346</ele>
        <time>2021-05-09T10:56:33Z</time>
      </trkpt>
      <trkpt lat="43.21602" lon="5.39009">
        <ele>346</ele>
        <time>2021-05-09T10:56:42Z</time>
      </trkpt>
      <trkpt lat="43.21595" lon="5.39007">
        <ele>339</ele>
        <time>2021-05-09T10:57:03Z</time>
      </trkpt>
      <trkpt lat="43.21587" lon="5.39002">
        <ele>337</ele>
        <time>2021-05-09T10:57:12Z</time>
      </trkpt>
      <trkpt lat="43.21583" lon="5.38996">
        <ele>335</ele>
        <time>2021-05-09T10:57:23Z</time>
      </trkpt>
      <trkpt lat="43.21577" lon="5.38988">
        <ele>335</ele>
        <time>2021-05-09T10:57:33Z</time>
      </trkpt>
      <trkpt lat="43.21572" lon="5.38979">
        <ele>335</ele>
        <time>2021-05-09T10:57:42Z</time>
      </trkpt>
      <trkpt lat="43.21567" lon="5.38968">
        <ele>335</ele>
        <time>2021-05-09T10:58:01Z</time>
      </trkpt>
      <trkpt lat="43.21563" lon="5.3896">
        <ele>335</ele>
        <time>2021-05-09T10:58:12Z</time>
      </trkpt>
      <trkpt lat="43.21565" lon="5.38958">
        <ele>337</ele>
        <time>2021-05-09T10:58:32Z</time>
      </trkpt>
      <trkpt lat="43.21564" lon="5.38965">
        <ele>338</ele>
        <time>2021-05-09T10:58:42Z</time>
      </trkpt>
      <trkpt lat="43.21562" lon="5.38968">
        <ele>339</ele>
        <time>2021-05-09T10:58:53Z</time>
      </trkpt>
      <trkpt lat="43.21565" lon="5.38971">
        <ele>340</ele>
        <time>2021-05-09T10:59:02Z</time>
      </trkpt>
      <trkpt lat="43.21569" lon="5.38975">
        <ele>340</ele>
        <time>2021-05-09T10:59:11Z</time>
      </trkpt>
      <trkpt lat="43.21572" lon="5.38978">
        <ele>340</ele>
        <time>2021-05-09T10:59:21Z</time>
      </trkpt>
      <trkpt lat="43.21573" lon="5.38981">
        <ele>340</ele>
        <time>2021-05-09T10:59:31Z</time>
      </trkpt>
      <trkpt lat="43.21574" lon="5.38983">
        <ele>340</ele>
        <time>2021-05-09T10:59:41Z</time>
      </trkpt>
      <trkpt lat="43.21575" lon="5.38982">
        <ele>341</ele>
        <time>2021-05-09T10:59:53Z</time>
      </trkpt>
      <trkpt lat="43.21571" lon="5.38975">
        <ele>341</ele>
        <time>2021-05-09T11:00:03Z</time>
      </trkpt>
      <trkpt lat="43.21568" lon="5.38969">
        <ele>341</ele>
        <time>2021-05-09T11:00:12Z</time>
      </trkpt>
      <trkpt lat="43.21565" lon="5.3896">
        <ele>341</ele>
        <time>2021-05-09T11:00:22Z</time>
      </trkpt>
      <trkpt lat="43.21564" lon="5.3895">
        <ele>341</ele>
        <time>2021-05-09T11:00:32Z</time>
      </trkpt>
      <trkpt lat="43.21564" lon="5.38939">
        <ele>341</ele>
        <time>2021-05-09T11:00:42Z</time>
      </trkpt>
      <trkpt lat="43.21562" lon="5.38928">
        <ele>341</ele>
        <time>2021-05-09T11:00:51Z</time>
      </trkpt>
      <trkpt lat="43.21558" lon="5.38919">
        <ele>339</ele>
        <time>2021-05-09T11:01:02Z</time>
      </trkpt>
      <trkpt lat="43.21553" lon="5.3891">
        <ele>337</ele>
        <time>2021-05-09T11:01:13Z</time>
      </trkpt>
      <trkpt lat="43.21551" lon="5.38897">
        <ele>336</ele>
        <time>2021-05-09T11:01:22Z</time>
      </trkpt>
      <trkpt lat="43.21549" lon="5.38887">
        <ele>335</ele>
        <time>2021-05-09T11:01:32Z</time>
      </trkpt>
      <trkpt lat="43.21546" lon="5.3888">
        <ele>335</ele>
        <time>2021-05-09T11:01:41Z</time>
      </trkpt>
      <trkpt lat="43.21542" lon="5.38881">
        <ele>335</ele>
        <time>2021-05-09T11:01:50Z</time>
      </trkpt>
      <trkpt lat="43.21542" lon="5.3888">
        <ele>335</ele>
        <time>2021-05-09T11:02:04Z</time>
      </trkpt>
      <trkpt lat="43.21545" lon="5.38878">
        <ele>335</ele>
        <time>2021-05-09T11:02:13Z</time>
      </trkpt>
      <trkpt lat="43.21546" lon="5.38876">
        <ele>335</ele>
        <time>2021-05-09T11:02:24Z</time>
      </trkpt>
      <trkpt lat="43.21547" lon="5.38876">
        <ele>333</ele>
        <time>2021-05-09T11:02:42Z</time>
      </trkpt>
      <trkpt lat="43.21546" lon="5.38876">
        <ele>333</ele>
        <time>2021-05-09T11:02:56Z</time>
      </trkpt>
      <trkpt lat="43.21545" lon="5.38876">
        <ele>333</ele>
        <time>2021-05-09T11:03:06Z</time>
      </trkpt>
      <trkpt lat="43.21544" lon="5.38875">
        <ele>333</ele>
        <time>2021-05-09T11:03:30Z</time>
      </trkpt>
      <trkpt lat="43.21543" lon="5.38871">
        <ele>333</ele>
        <time>2021-05-09T11:03:51Z</time>
      </trkpt>
      <trkpt lat="43.21543" lon="5.38869">
        <ele>333</ele>
        <time>2021-05-09T11:04:06Z</time>
      </trkpt>
      <trkpt lat="43.21545" lon="5.3887">
        <ele>333</ele>
        <time>2021-05-09T11:04:24Z</time>
      </trkpt>
      <trkpt lat="43.21544" lon="5.38869">
        <ele>331</ele>
        <time>2021-05-09T11:04:37Z</time>
      </trkpt>
      <trkpt lat="43.21548" lon="5.3886">
        <ele>327</ele>
        <time>2021-05-09T11:04:47Z</time>
      </trkpt>
      <trkpt lat="43.21551" lon="5.38859">
        <ele>324</ele>
        <time>2021-05-09T11:05:02Z</time>
      </trkpt>
      <trkpt lat="43.21552" lon="5.38853">
        <ele>319</ele>
        <time>2021-05-09T11:05:14Z</time>
      </trkpt>
      <trkpt lat="43.21552" lon="5.38864">
        <ele>320</ele>
        <time>2021-05-09T11:05:24Z</time>
      </trkpt>
      <trkpt lat="43.21549" lon="5.38872">
        <ele>339</ele>
        <time>2021-05-09T11:05:46Z</time>
      </trkpt>
      <trkpt lat="43.21549" lon="5.38869">
        <ele>338</ele>
        <time>2021-05-09T11:05:56Z</time>
      </trkpt>
      <trkpt lat="43.21547" lon="5.38872">
        <ele>338</ele>
        <time>2021-05-09T11:06:06Z</time>
      </trkpt>
      <trkpt lat="43.21549" lon="5.38866">
        <ele>336</ele>
        <time>2021-05-09T11:06:15Z</time>
      </trkpt>
      <trkpt lat="43.21549" lon="5.38866">
        <ele>330</ele>
        <time>2021-05-09T11:06:40Z</time>
      </trkpt>
      <trkpt lat="43.21545" lon="5.38871">
        <ele>330</ele>
        <time>2021-05-09T11:06:55Z</time>
      </trkpt>
      <trkpt lat="43.21547" lon="5.38872">
        <ele>330</ele>
        <time>2021-05-09T11:07:04Z</time>
      </trkpt>
      <trkpt lat="43.21544" lon="5.3887">
        <ele>330</ele>
        <time>2021-05-09T11:07:13Z</time>
      </trkpt>
      <trkpt lat="43.21545" lon="5.38865">
        <ele>330</ele>
        <time>2021-05-09T11:07:31Z</time>
      </trkpt>
      <trkpt lat="43.21545" lon="5.38871">
        <ele>331</ele>
        <time>2021-05-09T11:07:42Z</time>
      </trkpt>
      <trkpt lat="43.21546" lon="5.38873">
        <ele>334</ele>
        <time>2021-05-09T11:07:53Z</time>
      </trkpt>
      <trkpt lat="43.21552" lon="5.38866">
        <ele>331</ele>
        <time>2021-05-09T11:08:02Z</time>
      </trkpt>
      <trkpt lat="43.21546" lon="5.38872">
        <ele>331</ele>
        <time>2021-05-09T11:08:14Z</time>
      </trkpt>
      <trkpt lat="43.21546" lon="5.38871">
        <ele>331</ele>
        <time>2021-05-09T11:08:26Z</time>
      </trkpt>
      <trkpt lat="43.21545" lon="5.3887">
        <ele>331</ele>
        <time>2021-05-09T11:08:38Z</time>
      </trkpt>
      <trkpt lat="43.21545" lon="5.38871">
        <ele>332</ele>
        <time>2021-05-09T11:08:49Z</time>
      </trkpt>
      <trkpt lat="43.21545" lon="5.38873">
        <ele>332</ele>
        <time>2021-05-09T11:09:00Z</time>
      </trkpt>
      <trkpt lat="43.21547" lon="5.38873">
        <ele>332</ele>
        <time>2021-05-09T11:09:23Z</time>
      </trkpt>
      <trkpt lat="43.21548" lon="5.38876">
        <ele>332</ele>
        <time>2021-05-09T11:09:34Z</time>
      </trkpt>
      <trkpt lat="43.21548" lon="5.38884">
        <ele>332</ele>
        <time>2021-05-09T11:09:44Z</time>
      </trkpt>
      <trkpt lat="43.21549" lon="5.38892">
        <ele>332</ele>
        <time>2021-05-09T11:09:54Z</time>
      </trkpt>
      <trkpt lat="43.21549" lon="5.38901">
        <ele>333</ele>
        <time>2021-05-09T11:10:05Z</time>
      </trkpt>
      <trkpt lat="43.21553" lon="5.3891">
        <ele>334</ele>
        <time>2021-05-09T11:10:15Z</time>
      </trkpt>
      <trkpt lat="43.21556" lon="5.38917">
        <ele>336</ele>
        <time>2021-05-09T11:10:24Z</time>
      </trkpt>
      <trkpt lat="43.2156" lon="5.38921">
        <ele>337</ele>
        <time>2021-05-09T11:10:33Z</time>
      </trkpt>
      <trkpt lat="43.21562" lon="5.38928">
        <ele>339</ele>
        <time>2021-05-09T11:10:42Z</time>
      </trkpt>
      <trkpt lat="43.21563" lon="5.38935">
        <ele>339</ele>
        <time>2021-05-09T11:10:51Z</time>
      </trkpt>
      <trkpt lat="43.21561" lon="5.3894">
        <ele>339</ele>
        <time>2021-05-09T11:11:00Z</time>
      </trkpt>
      <trkpt lat="43.21559" lon="5.38943">
        <ele>340</ele>
        <time>2021-05-09T11:11:09Z</time>
      </trkpt>
      <trkpt lat="43.21561" lon="5.38947">
        <ele>341</ele>
        <time>2021-05-09T11:11:21Z</time>
      </trkpt>
      <trkpt lat="43.21563" lon="5.38952">
        <ele>341</ele>
        <time>2021-05-09T11:11:31Z</time>
      </trkpt>
      <trkpt lat="43.21565" lon="5.38963">
        <ele>341</ele>
        <time>2021-05-09T11:11:41Z</time>
      </trkpt>
      <trkpt lat="43.21569" lon="5.3897">
        <ele>341</ele>
        <time>2021-05-09T11:11:52Z</time>
      </trkpt>
      <trkpt lat="43.21572" lon="5.3898">
        <ele>341</ele>
        <time>2021-05-09T11:12:02Z</time>
      </trkpt>
      <trkpt lat="43.21576" lon="5.38985">
        <ele>342</ele>
        <time>2021-05-09T11:12:12Z</time>
      </trkpt>
      <trkpt lat="43.21577" lon="5.38988">
        <ele>343</ele>
        <time>2021-05-09T11:12:21Z</time>
      </trkpt>
      <trkpt lat="43.21581" lon="5.38995">
        <ele>345</ele>
        <time>2021-05-09T11:12:33Z</time>
      </trkpt>
      <trkpt lat="43.21584" lon="5.38999">
        <ele>346</ele>
        <time>2021-05-09T11:12:44Z</time>
      </trkpt>
      <trkpt lat="43.21588" lon="5.39002">
        <ele>346</ele>
        <time>2021-05-09T11:12:53Z</time>
      </trkpt>
      <trkpt lat="43.21593" lon="5.39005">
        <ele>346</ele>
        <time>2021-05-09T11:13:03Z</time>
      </trkpt>
      <trkpt lat="43.21597" lon="5.39008">
        <ele>346</ele>
        <time>2021-05-09T11:13:12Z</time>
      </trkpt>
      <trkpt lat="43.21601" lon="5.39009">
        <ele>348</ele>
        <time>2021-05-09T11:13:23Z</time>
      </trkpt>
      <trkpt lat="43.21608" lon="5.39013">
        <ele>350</ele>
        <time>2021-05-09T11:13:33Z</time>
      </trkpt>
      <trkpt lat="43.21612" lon="5.39014">
        <ele>351</ele>
        <time>2021-05-09T11:13:43Z</time>
      </trkpt>
      <trkpt lat="43.21616" lon="5.39017">
        <ele>352</ele>
        <time>2021-05-09T11:13:52Z</time>
      </trkpt>
      <trkpt lat="43.21619" lon="5.39021">
        <ele>354</ele>
        <time>2021-05-09T11:14:03Z</time>
      </trkpt>
      <trkpt lat="43.21623" lon="5.39025">
        <ele>354</ele>
        <time>2021-05-09T11:14:12Z</time>
      </trkpt>
      <trkpt lat="43.21627" lon="5.39028">
        <ele>355</ele>
        <time>2021-05-09T11:14:22Z</time>
      </trkpt>
      <trkpt lat="43.21627" lon="5.39026">
        <ele>355</ele>
        <time>2021-05-09T11:14:31Z</time>
      </trkpt>
      <trkpt lat="43.21624" lon="5.39026">
        <ele>355</ele>
        <time>2021-05-09T11:14:42Z</time>
      </trkpt>
      <trkpt lat="43.21622" lon="5.39028">
        <ele>355</ele>
        <time>2021-05-09T11:14:51Z</time>
      </trkpt>
      <trkpt lat="43.21618" lon="5.3903">
        <ele>355</ele>
        <time>2021-05-09T11:15:01Z</time>
      </trkpt>
      <trkpt lat="43.21616" lon="5.39037">
        <ele>355</ele>
        <time>2021-05-09T11:15:10Z</time>
      </trkpt>
      <trkpt lat="43.21612" lon="5.39039">
        <ele>355</ele>
        <time>2021-05-09T11:15:19Z</time>
      </trkpt>
      <trkpt lat="43.21607" lon="5.39037">
        <ele>355</ele>
        <time>2021-05-09T11:15:30Z</time>
      </trkpt>
      <trkpt lat="43.21605" lon="5.39033">
        <ele>355</ele>
        <time>2021-05-09T11:16:05Z</time>
      </trkpt>
      <trkpt lat="43.21603" lon="5.39033">
        <ele>355</ele>
        <time>2021-05-09T11:16:17Z</time>
      </trkpt>
      <trkpt lat="43.21603" lon="5.39032">
        <ele>355</ele>
        <time>2021-05-09T11:16:47Z</time>
      </trkpt>
      <trkpt lat="43.21605" lon="5.39032">
        <ele>355</ele>
        <time>2021-05-09T11:16:57Z</time>
      </trkpt>
      <trkpt lat="43.21605" lon="5.39036">
        <ele>356</ele>
        <time>2021-05-09T11:17:12Z</time>
      </trkpt>
      <trkpt lat="43.21603" lon="5.39034">
        <ele>362</ele>
        <time>2021-05-09T11:17:26Z</time>
      </trkpt>
      <trkpt lat="43.21605" lon="5.39039">
        <ele>361</ele>
        <time>2021-05-09T11:17:37Z</time>
      </trkpt>
      <trkpt lat="43.21604" lon="5.39037">
        <ele>356</ele>
        <time>2021-05-09T11:17:53Z</time>
      </trkpt>
      <trkpt lat="43.21609" lon="5.39033">
        <ele>356</ele>
        <time>2021-05-09T11:18:13Z</time>
      </trkpt>
      <trkpt lat="43.21606" lon="5.39035">
        <ele>357</ele>
        <time>2021-05-09T11:18:27Z</time>
      </trkpt>
      <trkpt lat="43.21606" lon="5.39034">
        <ele>357</ele>
        <time>2021-05-09T11:18:39Z</time>
      </trkpt>
      <trkpt lat="43.21606" lon="5.39032">
        <ele>357</ele>
        <time>2021-05-09T11:18:49Z</time>
      </trkpt>
      <trkpt lat="43.21605" lon="5.39034">
        <ele>357</ele>
        <time>2021-05-09T11:19:01Z</time>
      </trkpt>
      <trkpt lat="43.21605" lon="5.39035">
        <ele>357</ele>
        <time>2021-05-09T11:19:44Z</time>
      </trkpt>
      <trkpt lat="43.21604" lon="5.39035">
        <ele>357</ele>
        <time>2021-05-09T11:20:27Z</time>
      </trkpt>
      <trkpt lat="43.21603" lon="5.39037">
        <ele>357</ele>
        <time>2021-05-09T11:21:13Z</time>
      </trkpt>
      <trkpt lat="43.21603" lon="5.39035">
        <ele>357</ele>
        <time>2021-05-09T11:21:35Z</time>
      </trkpt>
      <trkpt lat="43.21605" lon="5.39033">
        <ele>357</ele>
        <time>2021-05-09T11:21:45Z</time>
      </trkpt>
      <trkpt lat="43.21604" lon="5.39032">
        <ele>357</ele>
        <time>2021-05-09T11:22:34Z</time>
      </trkpt>
      <trkpt lat="43.21605" lon="5.39032">
        <ele>357</ele>
        <time>2021-05-09T11:23:11Z</time>
      </trkpt>
      <trkpt lat="43.21605" lon="5.39034">
        <ele>357</ele>
        <time>2021-05-09T11:23:20Z</time>
      </trkpt>
      <trkpt lat="43.2161" lon="5.39038">
        <ele>357</ele>
        <time>2021-05-09T11:23:30Z</time>
      </trkpt>
      <trkpt lat="43.21615" lon="5.39038">
        <ele>357</ele>
        <time>2021-05-09T11:23:40Z</time>
      </trkpt>
      <trkpt lat="43.21618" lon="5.39037">
        <ele>357</ele>
        <time>2021-05-09T11:23:51Z</time>
      </trkpt>
      <trkpt lat="43.21623" lon="5.39034">
        <ele>357</ele>
        <time>2021-05-09T11:24:01Z</time>
      </trkpt>
      <trkpt lat="43.21627" lon="5.39029">
        <ele>357</ele>
        <time>2021-05-09T11:24:11Z</time>
      </trkpt>
      <trkpt lat="43.21634" lon="5.39028">
        <ele>357</ele>
        <time>2021-05-09T11:24:21Z</time>
      </trkpt>
      <trkpt lat="43.21641" lon="5.39031">
        <ele>357</ele>
        <time>2021-05-09T11:24:31Z</time>
      </trkpt>
      <trkpt lat="43.21648" lon="5.39032">
        <ele>357</ele>
        <time>2021-05-09T11:24:43Z</time>
      </trkpt>
      <trkpt lat="43.21653" lon="5.39036">
        <ele>358</ele>
        <time>2021-05-09T11:24:54Z</time>
      </trkpt>
      <trkpt lat="43.21658" lon="5.39037">
        <ele>359</ele>
        <time>2021-05-09T11:25:03Z</time>
      </trkpt>
      <trkpt lat="43.21666" lon="5.39038">
        <ele>359</ele>
        <time>2021-05-09T11:25:13Z</time>
      </trkpt>
      <trkpt lat="43.21673" lon="5.39038">
        <ele>360</ele>
        <time>2021-05-09T11:25:23Z</time>
      </trkpt>
      <trkpt lat="43.21678" lon="5.39042">
        <ele>360</ele>
        <time>2021-05-09T11:25:32Z</time>
      </trkpt>
      <trkpt lat="43.21681" lon="5.39043">
        <ele>360</ele>
        <time>2021-05-09T11:25:52Z</time>
      </trkpt>
      <trkpt lat="43.21681" lon="5.39043">
        <ele>360</ele>
        <time>2021-05-09T11:26:17Z</time>
      </trkpt>
      <trkpt lat="43.21682" lon="5.39041">
        <ele>360</ele>
        <time>2021-05-09T11:26:35Z</time>
      </trkpt>
      <trkpt lat="43.2169" lon="5.3904">
        <ele>360</ele>
        <time>2021-05-09T11:26:45Z</time>
      </trkpt>
      <trkpt lat="43.21698" lon="5.39038">
        <ele>360</ele>
        <time>2021-05-09T11:26:55Z</time>
      </trkpt>
      <trkpt lat="43.21705" lon="5.39037">
        <ele>360</ele>
        <time>2021-05-09T11:27:05Z</time>
      </trkpt>
      <trkpt lat="43.21712" lon="5.39032">
        <ele>360</ele>
        <time>2021-05-09T11:27:15Z</time>
      </trkpt>
      <trkpt lat="43.2172" lon="5.39028">
        <ele>360</ele>
        <time>2021-05-09T11:27:25Z</time>
      </trkpt>
      <trkpt lat="43.21728" lon="5.39024">
        <ele>361</ele>
        <time>2021-05-09T11:27:35Z</time>
      </trkpt>
      <trkpt lat="43.21736" lon="5.39024">
        <ele>362</ele>
        <time>2021-05-09T11:27:46Z</time>
      </trkpt>
      <trkpt lat="43.21741" lon="5.39029">
        <ele>363</ele>
        <time>2021-05-09T11:27:56Z</time>
      </trkpt>
      <trkpt lat="43.21749" lon="5.39034">
        <ele>365</ele>
        <time>2021-05-09T11:28:06Z</time>
      </trkpt>
      <trkpt lat="43.21754" lon="5.39039">
        <ele>366</ele>
        <time>2021-05-09T11:28:16Z</time>
      </trkpt>
      <trkpt lat="43.21759" lon="5.39048">
        <ele>367</ele>
        <time>2021-05-09T11:28:26Z</time>
      </trkpt>
      <trkpt lat="43.21765" lon="5.39056">
        <ele>367</ele>
        <time>2021-05-09T11:28:36Z</time>
      </trkpt>
      <trkpt lat="43.21771" lon="5.39061">
        <ele>367</ele>
        <time>2021-05-09T11:28:45Z</time>
      </trkpt>
      <trkpt lat="43.21778" lon="5.39066">
        <ele>368</ele>
        <time>2021-05-09T11:28:55Z</time>
      </trkpt>
      <trkpt lat="43.2178" lon="5.39071">
        <ele>368</ele>
        <time>2021-05-09T11:29:05Z</time>
      </trkpt>
      <trkpt lat="43.21784" lon="5.39083">
        <ele>368</ele>
        <time>2021-05-09T11:29:14Z</time>
      </trkpt>
      <trkpt lat="43.21793" lon="5.39086">
        <ele>368</ele>
        <time>2021-05-09T11:29:24Z</time>
      </trkpt>
      <trkpt lat="43.21803" lon="5.39089">
        <ele>368</ele>
        <time>2021-05-09T11:29:34Z</time>
      </trkpt>
      <trkpt lat="43.2181" lon="5.39094">
        <ele>368</ele>
        <time>2021-05-09T11:29:44Z</time>
      </trkpt>
      <trkpt lat="43.21816" lon="5.39095">
        <ele>368</ele>
        <time>2021-05-09T11:29:53Z</time>
      </trkpt>
      <trkpt lat="43.21826" lon="5.39095">
        <ele>368</ele>
        <time>2021-05-09T11:30:03Z</time>
      </trkpt>
      <trkpt lat="43.21834" lon="5.391">
        <ele>368</ele>
        <time>2021-05-09T11:30:13Z</time>
      </trkpt>
      <trkpt lat="43.21841" lon="5.3911">
        <ele>368</ele>
        <time>2021-05-09T11:30:23Z</time>
      </trkpt>
      <trkpt lat="43.21849" lon="5.39118">
        <ele>368</ele>
        <time>2021-05-09T11:30:33Z</time>
      </trkpt>
      <trkpt lat="43.21854" lon="5.39126">
        <ele>368</ele>
        <time>2021-05-09T11:30:43Z</time>
      </trkpt>
      <trkpt lat="43.21856" lon="5.39127">
        <ele>367</ele>
        <time>2021-05-09T11:31:01Z</time>
      </trkpt>
      <trkpt lat="43.21856" lon="5.39128">
        <ele>367</ele>
        <time>2021-05-09T11:31:18Z</time>
      </trkpt>
      <trkpt lat="43.21862" lon="5.39141">
        <ele>367</ele>
        <time>2021-05-09T11:31:28Z</time>
      </trkpt>
      <trkpt lat="43.21865" lon="5.39152">
        <ele>364</ele>
        <time>2021-05-09T11:31:38Z</time>
      </trkpt>
      <trkpt lat="43.2187" lon="5.39163">
        <ele>362</ele>
        <time>2021-05-09T11:31:48Z</time>
      </trkpt>
      <trkpt lat="43.21876" lon="5.39171">
        <ele>360</ele>
        <time>2021-05-09T11:31:58Z</time>
      </trkpt>
      <trkpt lat="43.2188" lon="5.39178">
        <ele>359</ele>
        <time>2021-05-09T11:32:08Z</time>
      </trkpt>
      <trkpt lat="43.21883" lon="5.39186">
        <ele>358</ele>
        <time>2021-05-09T11:32:17Z</time>
      </trkpt>
      <trkpt lat="43.21888" lon="5.39186">
        <ele>356</ele>
        <time>2021-05-09T11:32:26Z</time>
      </trkpt>
      <trkpt lat="43.21896" lon="5.39183">
        <ele>354</ele>
        <time>2021-05-09T11:32:36Z</time>
      </trkpt>
      <trkpt lat="43.21904" lon="5.3918">
        <ele>352</ele>
        <time>2021-05-09T11:32:46Z</time>
      </trkpt>
      <trkpt lat="43.21909" lon="5.3917">
        <ele>352</ele>
        <time>2021-05-09T11:32:55Z</time>
      </trkpt>
      <trkpt lat="43.21915" lon="5.39169">
        <ele>350</ele>
        <time>2021-05-09T11:33:04Z</time>
      </trkpt>
      <trkpt lat="43.21922" lon="5.39163">
        <ele>348</ele>
        <time>2021-05-09T11:33:13Z</time>
      </trkpt>
      <trkpt lat="43.21927" lon="5.39159">
        <ele>347</ele>
        <time>2021-05-09T11:33:22Z</time>
      </trkpt>
      <trkpt lat="43.21935" lon="5.39154">
        <ele>345</ele>
        <time>2021-05-09T11:33:32Z</time>
      </trkpt>
      <trkpt lat="43.21941" lon="5.39153">
        <ele>343</ele>
        <time>2021-05-09T11:33:41Z</time>
      </trkpt>
      <trkpt lat="43.21948" lon="5.39145">
        <ele>341</ele>
        <time>2021-05-09T11:33:50Z</time>
      </trkpt>
      <trkpt lat="43.21955" lon="5.39143">
        <ele>339</ele>
        <time>2021-05-09T11:34:00Z</time>
      </trkpt>
      <trkpt lat="43.21963" lon="5.39141">
        <ele>336</ele>
        <time>2021-05-09T11:34:10Z</time>
      </trkpt>
      <trkpt lat="43.2197" lon="5.39145">
        <ele>333</ele>
        <time>2021-05-09T11:34:20Z</time>
      </trkpt>
      <trkpt lat="43.21978" lon="5.39147">
        <ele>331</ele>
        <time>2021-05-09T11:34:30Z</time>
      </trkpt>
      <trkpt lat="43.21984" lon="5.39154">
        <ele>331</ele>
        <time>2021-05-09T11:34:39Z</time>
      </trkpt>
      <trkpt lat="43.21989" lon="5.39164">
        <ele>329</ele>
        <time>2021-05-09T11:34:48Z</time>
      </trkpt>
      <trkpt lat="43.21994" lon="5.3917">
        <ele>328</ele>
        <time>2021-05-09T11:34:57Z</time>
      </trkpt>
      <trkpt lat="43.22001" lon="5.39174">
        <ele>326</ele>
        <time>2021-05-09T11:35:07Z</time>
      </trkpt>
      <trkpt lat="43.22006" lon="5.3918">
        <ele>325</ele>
        <time>2021-05-09T11:35:16Z</time>
      </trkpt>
      <trkpt lat="43.22014" lon="5.39184">
        <ele>323</ele>
        <time>2021-05-09T11:35:25Z</time>
      </trkpt>
      <trkpt lat="43.22023" lon="5.39182">
        <ele>323</ele>
        <time>2021-05-09T11:35:34Z</time>
      </trkpt>
      <trkpt lat="43.22031" lon="5.3918">
        <ele>323</ele>
        <time>2021-05-09T11:35:44Z</time>
      </trkpt>
      <trkpt lat="43.22034" lon="5.39179">
        <ele>322</ele>
        <time>2021-05-09T11:35:56Z</time>
      </trkpt>
      <trkpt lat="43.22038" lon="5.39176">
        <ele>320</ele>
        <time>2021-05-09T11:36:05Z</time>
      </trkpt>
      <trkpt lat="43.2204" lon="5.39179">
        <ele>320</ele>
        <time>2021-05-09T11:36:14Z</time>
      </trkpt>
      <trkpt lat="43.22042" lon="5.39178">
        <ele>318</ele>
        <time>2021-05-09T11:36:23Z</time>
      </trkpt>
      <trkpt lat="43.22046" lon="5.39176">
        <ele>316</ele>
        <time>2021-05-09T11:36:33Z</time>
      </trkpt>
      <trkpt lat="43.22049" lon="5.39175">
        <ele>314</ele>
        <time>2021-05-09T11:36:46Z</time>
      </trkpt>
      <trkpt lat="43.22056" lon="5.3917">
        <ele>314</ele>
        <time>2021-05-09T11:36:55Z</time>
      </trkpt>
      <trkpt lat="43.22066" lon="5.39165">
        <ele>314</ele>
        <time>2021-05-09T11:37:05Z</time>
      </trkpt>
      <trkpt lat="43.22072" lon="5.39155">
        <ele>313</ele>
        <time>2021-05-09T11:37:15Z</time>
      </trkpt>
      <trkpt lat="43.22075" lon="5.39148">
        <ele>312</ele>
        <time>2021-05-09T11:37:24Z</time>
      </trkpt>
      <trkpt lat="43.22078" lon="5.39141">
        <ele>311</ele>
        <time>2021-05-09T11:37:34Z</time>
      </trkpt>
      <trkpt lat="43.22076" lon="5.39133">
        <ele>309</ele>
        <time>2021-05-09T11:37:45Z</time>
      </trkpt>
      <trkpt lat="43.22077" lon="5.39128">
        <ele>307</ele>
        <time>2021-05-09T11:37:55Z</time>
      </trkpt>
      <trkpt lat="43.22084" lon="5.39125">
        <ele>307</ele>
        <time>2021-05-09T11:38:06Z</time>
      </trkpt>
      <trkpt lat="43.22085" lon="5.39119">
        <ele>307</ele>
        <time>2021-05-09T11:38:16Z</time>
      </trkpt>
      <trkpt lat="43.22088" lon="5.39115">
        <ele>307</ele>
        <time>2021-05-09T11:38:27Z</time>
      </trkpt>
      <trkpt lat="43.22089" lon="5.39111">
        <ele>307</ele>
        <time>2021-05-09T11:38:38Z</time>
      </trkpt>
      <trkpt lat="43.22092" lon="5.39104">
        <ele>307</ele>
        <time>2021-05-09T11:38:52Z</time>
      </trkpt>
      <trkpt lat="43.22087" lon="5.39093">
        <ele>305</ele>
        <time>2021-05-09T11:39:02Z</time>
      </trkpt>
      <trkpt lat="43.22088" lon="5.39089">
        <ele>303</ele>
        <time>2021-05-09T11:39:12Z</time>
      </trkpt>
      <trkpt lat="43.22097" lon="5.39092">
        <ele>301</ele>
        <time>2021-05-09T11:39:21Z</time>
      </trkpt>
      <trkpt lat="43.221" lon="5.39087">
        <ele>299</ele>
        <time>2021-05-09T11:39:30Z</time>
      </trkpt>
      <trkpt lat="43.22105" lon="5.39085">
        <ele>298</ele>
        <time>2021-05-09T11:39:40Z</time>
      </trkpt>
      <trkpt lat="43.22114" lon="5.39085">
        <ele>298</ele>
        <time>2021-05-09T11:39:51Z</time>
      </trkpt>
      <trkpt lat="43.22114" lon="5.39085">
        <ele>294</ele>
        <time>2021-05-09T11:40:02Z</time>
      </trkpt>
      <trkpt lat="43.22117" lon="5.39084">
        <ele>287</ele>
        <time>2021-05-09T11:40:16Z</time>
      </trkpt>
      <trkpt lat="43.2212" lon="5.39082">
        <ele>285</ele>
        <time>2021-05-09T11:40:28Z</time>
      </trkpt>
      <trkpt lat="43.22123" lon="5.39077">
        <ele>285</ele>
        <time>2021-05-09T11:40:37Z</time>
      </trkpt>
      <trkpt lat="43.22126" lon="5.39071">
        <ele>285</ele>
        <time>2021-05-09T11:40:50Z</time>
      </trkpt>
      <trkpt lat="43.22123" lon="5.39067">
        <ele>285</ele>
        <time>2021-05-09T11:41:00Z</time>
      </trkpt>
      <trkpt lat="43.22121" lon="5.39063">
        <ele>286</ele>
        <time>2021-05-09T11:41:11Z</time>
      </trkpt>
      <trkpt lat="43.22123" lon="5.39057">
        <ele>286</ele>
        <time>2021-05-09T11:41:20Z</time>
      </trkpt>
      <trkpt lat="43.2212" lon="5.39052">
        <ele>286</ele>
        <time>2021-05-09T11:41:29Z</time>
      </trkpt>
      <trkpt lat="43.22123" lon="5.39054">
        <ele>285</ele>
        <time>2021-05-09T11:41:39Z</time>
      </trkpt>
      <trkpt lat="43.22122" lon="5.39052">
        <ele>281</ele>
        <time>2021-05-09T11:41:49Z</time>
      </trkpt>
      <trkpt lat="43.22122" lon="5.39051">
        <ele>277</ele>
        <time>2021-05-09T11:41:59Z</time>
      </trkpt>
      <trkpt lat="43.22128" lon="5.39051">
        <ele>277</ele>
        <time>2021-05-09T11:42:09Z</time>
      </trkpt>
      <trkpt lat="43.22126" lon="5.39048">
        <ele>277</ele>
        <time>2021-05-09T11:42:18Z</time>
      </trkpt>
      <trkpt lat="43.22127" lon="5.3905">
        <ele>272</ele>
        <time>2021-05-09T11:42:28Z</time>
      </trkpt>
      <trkpt lat="43.2213" lon="5.39046">
        <ele>272</ele>
        <time>2021-05-09T11:42:37Z</time>
      </trkpt>
      <trkpt lat="43.22133" lon="5.39041">
        <ele>272</ele>
        <time>2021-05-09T11:42:47Z</time>
      </trkpt>
      <trkpt lat="43.22132" lon="5.39029">
        <ele>277</ele>
        <time>2021-05-09T11:42:57Z</time>
      </trkpt>
      <trkpt lat="43.2214" lon="5.3903">
        <ele>282</ele>
        <time>2021-05-09T11:43:09Z</time>
      </trkpt>
      <trkpt lat="43.22147" lon="5.39028">
        <ele>284</ele>
        <time>2021-05-09T11:43:18Z</time>
      </trkpt>
      <trkpt lat="43.22152" lon="5.39031">
        <ele>285</ele>
        <time>2021-05-09T11:43:27Z</time>
      </trkpt>
      <trkpt lat="43.22155" lon="5.3903">
        <ele>285</ele>
        <time>2021-05-09T11:43:36Z</time>
      </trkpt>
      <trkpt lat="43.22161" lon="5.39029">
        <ele>286</ele>
        <time>2021-05-09T11:43:45Z</time>
      </trkpt>
      <trkpt lat="43.22169" lon="5.3903">
        <ele>292</ele>
        <time>2021-05-09T11:43:54Z</time>
      </trkpt>
      <trkpt lat="43.22166" lon="5.39023">
        <ele>292</ele>
        <time>2021-05-09T11:44:04Z</time>
      </trkpt>
      <trkpt lat="43.22173" lon="5.39027">
        <ele>292</ele>
        <time>2021-05-09T11:44:18Z</time>
      </trkpt>
      <trkpt lat="43.22176" lon="5.39025">
        <ele>298</ele>
        <time>2021-05-09T11:44:27Z</time>
      </trkpt>
      <trkpt lat="43.22178" lon="5.39023">
        <ele>299</ele>
        <time>2021-05-09T11:44:38Z</time>
      </trkpt>
      <trkpt lat="43.2218" lon="5.39019">
        <ele>298</ele>
        <time>2021-05-09T11:44:49Z</time>
      </trkpt>
      <trkpt lat="43.22182" lon="5.39017">
        <ele>298</ele>
        <time>2021-05-09T11:45:00Z</time>
      </trkpt>
      <trkpt lat="43.22183" lon="5.3901">
        <ele>298</ele>
        <time>2021-05-09T11:45:11Z</time>
      </trkpt>
      <trkpt lat="43.22176" lon="5.39006">
        <ele>290</ele>
        <time>2021-05-09T11:45:21Z</time>
      </trkpt>
      <trkpt lat="43.2217" lon="5.39002">
        <ele>279</ele>
        <time>2021-05-09T11:45:32Z</time>
      </trkpt>
      <trkpt lat="43.22163" lon="5.38996">
        <ele>269</ele>
        <time>2021-05-09T11:45:42Z</time>
      </trkpt>
      <trkpt lat="43.22164" lon="5.38993">
        <ele>260</ele>
        <time>2021-05-09T11:45:52Z</time>
      </trkpt>
      <trkpt lat="43.22166" lon="5.38989">
        <ele>258</ele>
        <time>2021-05-09T11:46:03Z</time>
      </trkpt>
      <trkpt lat="43.22173" lon="5.3899">
        <ele>259</ele>
        <time>2021-05-09T11:46:12Z</time>
      </trkpt>
      <trkpt lat="43.22176" lon="5.38989">
        <ele>260</ele>
        <time>2021-05-09T11:46:22Z</time>
      </trkpt>
      <trkpt lat="43.22176" lon="5.38987">
        <ele>259</ele>
        <time>2021-05-09T11:46:33Z</time>
      </trkpt>
      <trkpt lat="43.22174" lon="5.38985">
        <ele>257</ele>
        <time>2021-05-09T11:46:42Z</time>
      </trkpt>
      <trkpt lat="43.22162" lon="5.38978">
        <ele>256</ele>
        <time>2021-05-09T11:46:51Z</time>
      </trkpt>
      <trkpt lat="43.22161" lon="5.38971">
        <ele>254</ele>
        <time>2021-05-09T11:47:00Z</time>
      </trkpt>
      <trkpt lat="43.22168" lon="5.38969">
        <ele>253</ele>
        <time>2021-05-09T11:47:10Z</time>
      </trkpt>
      <trkpt lat="43.22178" lon="5.38964">
        <ele>249</ele>
        <time>2021-05-09T11:47:21Z</time>
      </trkpt>
      <trkpt lat="43.2218" lon="5.38958">
        <ele>241</ele>
        <time>2021-05-09T11:47:31Z</time>
      </trkpt>
      <trkpt lat="43.2218" lon="5.38959">
        <ele>233</ele>
        <time>2021-05-09T11:47:40Z</time>
      </trkpt>
      <trkpt lat="43.22187" lon="5.38962">
        <ele>232</ele>
        <time>2021-05-09T11:47:50Z</time>
      </trkpt>
      <trkpt lat="43.222" lon="5.38967">
        <ele>243</ele>
        <time>2021-05-09T11:48:01Z</time>
      </trkpt>
      <trkpt lat="43.22209" lon="5.38967">
        <ele>252</ele>
        <time>2021-05-09T11:48:11Z</time>
      </trkpt>
      <trkpt lat="43.22212" lon="5.38967">
        <ele>252</ele>
        <time>2021-05-09T11:48:21Z</time>
      </trkpt>
      <trkpt lat="43.22212" lon="5.38963">
        <ele>252</ele>
        <time>2021-05-09T11:48:35Z</time>
      </trkpt>
      <trkpt lat="43.22215" lon="5.38963">
        <ele>252</ele>
        <time>2021-05-09T11:48:48Z</time>
      </trkpt>
      <trkpt lat="43.22219" lon="5.38966">
        <ele>254</ele>
        <time>2021-05-09T11:48:57Z</time>
      </trkpt>
      <trkpt lat="43.22231" lon="5.38965">
        <ele>254</ele>
        <time>2021-05-09T11:49:06Z</time>
      </trkpt>
      <trkpt lat="43.22241" lon="5.38964">
        <ele>254</ele>
        <time>2021-05-09T11:49:15Z</time>
      </trkpt>
      <trkpt lat="43.22223" lon="5.38954">
        <ele>253</ele>
        <time>2021-05-09T11:49:26Z</time>
      </trkpt>
      <trkpt lat="43.22228" lon="5.38958">
        <ele>237</ele>
        <time>2021-05-09T11:49:42Z</time>
      </trkpt>
      <trkpt lat="43.22223" lon="5.38957">
        <ele>228</ele>
        <time>2021-05-09T11:49:51Z</time>
      </trkpt>
      <trkpt lat="43.22226" lon="5.38956">
        <ele>218</ele>
        <time>2021-05-09T11:50:01Z</time>
      </trkpt>
      <trkpt lat="43.22226" lon="5.38952">
        <ele>211</ele>
        <time>2021-05-09T11:50:11Z</time>
      </trkpt>
      <trkpt lat="43.22228" lon="5.38948">
        <ele>203</ele>
        <time>2021-05-09T11:50:20Z</time>
      </trkpt>
      <trkpt lat="43.22226" lon="5.3895">
        <ele>192</ele>
        <time>2021-05-09T11:50:32Z</time>
      </trkpt>
      <trkpt lat="43.22225" lon="5.3895">
        <ele>187</ele>
        <time>2021-05-09T11:50:43Z</time>
      </trkpt>
      <trkpt lat="43.22222" lon="5.38947">
        <ele>176</ele>
        <time>2021-05-09T11:50:55Z</time>
      </trkpt>
      <trkpt lat="43.22229" lon="5.38944">
        <ele>173</ele>
        <time>2021-05-09T11:51:05Z</time>
      </trkpt>
      <trkpt lat="43.22237" lon="5.38942">
        <ele>173</ele>
        <time>2021-05-09T11:51:14Z</time>
      </trkpt>
      <trkpt lat="43.22243" lon="5.38944">
        <ele>172</ele>
        <time>2021-05-09T11:51:24Z</time>
      </trkpt>
      <trkpt lat="43.2225" lon="5.38946">
        <ele>171</ele>
        <time>2021-05-09T11:51:35Z</time>
      </trkpt>
      <trkpt lat="43.22256" lon="5.3895">
        <ele>168</ele>
        <time>2021-05-09T11:51:45Z</time>
      </trkpt>
      <trkpt lat="43.22262" lon="5.38948">
        <ele>161</ele>
        <time>2021-05-09T11:51:57Z</time>
      </trkpt>
      <trkpt lat="43.22267" lon="5.38952">
        <ele>157</ele>
        <time>2021-05-09T11:52:06Z</time>
      </trkpt>
      <trkpt lat="43.22274" lon="5.38948">
        <ele>156</ele>
        <time>2021-05-09T11:52:16Z</time>
      </trkpt>
      <trkpt lat="43.22287" lon="5.38945">
        <ele>156</ele>
        <time>2021-05-09T11:52:26Z</time>
      </trkpt>
      <trkpt lat="43.22297" lon="5.38941">
        <ele>156</ele>
        <time>2021-05-09T11:52:36Z</time>
      </trkpt>
      <trkpt lat="43.22306" lon="5.38936">
        <ele>159</ele>
        <time>2021-05-09T11:52:45Z</time>
      </trkpt>
      <trkpt lat="43.22312" lon="5.38928">
        <ele>161</ele>
        <time>2021-05-09T11:52:54Z</time>
      </trkpt>
      <trkpt lat="43.2232" lon="5.38921">
        <ele>162</ele>
        <time>2021-05-09T11:53:04Z</time>
      </trkpt>
      <trkpt lat="43.2233" lon="5.38915">
        <ele>164</ele>
        <time>2021-05-09T11:53:13Z</time>
      </trkpt>
      <trkpt lat="43.22335" lon="5.3891">
        <ele>167</ele>
        <time>2021-05-09T11:53:22Z</time>
      </trkpt>
      <trkpt lat="43.22342" lon="5.38909">
        <ele>167</ele>
        <time>2021-05-09T11:53:31Z</time>
      </trkpt>
      <trkpt lat="43.22359" lon="5.38912">
        <ele>169</ele>
        <time>2021-05-09T11:53:41Z</time>
      </trkpt>
      <trkpt lat="43.2237" lon="5.38919">
        <ele>177</ele>
        <time>2021-05-09T11:53:50Z</time>
      </trkpt>
      <trkpt lat="43.22378" lon="5.3892">
        <ele>178</ele>
        <time>2021-05-09T11:54:00Z</time>
      </trkpt>
      <trkpt lat="43.22384" lon="5.38919">
        <ele>178</ele>
        <time>2021-05-09T11:54:09Z</time>
      </trkpt>
      <trkpt lat="43.22391" lon="5.38927">
        <ele>179</ele>
        <time>2021-05-09T11:54:19Z</time>
      </trkpt>
      <trkpt lat="43.22396" lon="5.38934">
        <ele>181</ele>
        <time>2021-05-09T11:54:29Z</time>
      </trkpt>
      <trkpt lat="43.22403" lon="5.38936">
        <ele>182</ele>
        <time>2021-05-09T11:54:39Z</time>
      </trkpt>
      <trkpt lat="43.22411" lon="5.38938">
        <ele>182</ele>
        <time>2021-05-09T11:54:49Z</time>
      </trkpt>
      <trkpt lat="43.22416" lon="5.38942">
        <ele>182</ele>
        <time>2021-05-09T11:55:01Z</time>
      </trkpt>
      <trkpt lat="43.22417" lon="5.38945">
        <ele>182</ele>
        <time>2021-05-09T11:55:11Z</time>
      </trkpt>
      <trkpt lat="43.2242" lon="5.38947">
        <ele>182</ele>
        <time>2021-05-09T11:55:27Z</time>
      </trkpt>
      <trkpt lat="43.22421" lon="5.38949">
        <ele>182</ele>
        <time>2021-05-09T11:55:38Z</time>
      </trkpt>
      <trkpt lat="43.22422" lon="5.38954">
        <ele>180</ele>
        <time>2021-05-09T11:55:49Z</time>
      </trkpt>
      <trkpt lat="43.22422" lon="5.38961">
        <ele>177</ele>
        <time>2021-05-09T11:55:59Z</time>
      </trkpt>
      <trkpt lat="43.22424" lon="5.3897">
        <ele>175</ele>
        <time>2021-05-09T11:56:10Z</time>
      </trkpt>
      <trkpt lat="43.22426" lon="5.38977">
        <ele>173</ele>
        <time>2021-05-09T11:56:21Z</time>
      </trkpt>
      <trkpt lat="43.22423" lon="5.38982">
        <ele>170</ele>
        <time>2021-05-09T11:56:33Z</time>
      </trkpt>
      <trkpt lat="43.22417" lon="5.38983">
        <ele>166</ele>
        <time>2021-05-09T11:56:45Z</time>
      </trkpt>
      <trkpt lat="43.22417" lon="5.38985">
        <ele>158</ele>
        <time>2021-05-09T11:57:09Z</time>
      </trkpt>
      <trkpt lat="43.22416" lon="5.38995">
        <ele>158</ele>
        <time>2021-05-09T11:57:19Z</time>
      </trkpt>
      <trkpt lat="43.22412" lon="5.38997">
        <ele>158</ele>
        <time>2021-05-09T11:57:28Z</time>
      </trkpt>
      <trkpt lat="43.22408" lon="5.39003">
        <ele>156</ele>
        <time>2021-05-09T11:57:38Z</time>
      </trkpt>
      <trkpt lat="43.22407" lon="5.39012">
        <ele>153</ele>
        <time>2021-05-09T11:57:48Z</time>
      </trkpt>
      <trkpt lat="43.22407" lon="5.39022">
        <ele>151</ele>
        <time>2021-05-09T11:57:58Z</time>
      </trkpt>
      <trkpt lat="43.22401" lon="5.39031">
        <ele>150</ele>
        <time>2021-05-09T11:58:19Z</time>
      </trkpt>
      <trkpt lat="43.224" lon="5.39034">
        <ele>150</ele>
        <time>2021-05-09T11:58:47Z</time>
      </trkpt>
      <trkpt lat="43.224" lon="5.39034">
        <ele>150</ele>
        <time>2021-05-09T11:58:57Z</time>
      </trkpt>
      <trkpt lat="43.22401" lon="5.39033">
        <ele>150</ele>
        <time>2021-05-09T11:59:10Z</time>
      </trkpt>
      <trkpt lat="43.22402" lon="5.3903">
        <ele>150</ele>
        <time>2021-05-09T11:59:23Z</time>
      </trkpt>
      <trkpt lat="43.22403" lon="5.39031">
        <ele>150</ele>
        <time>2021-05-09T11:59:37Z</time>
      </trkpt>
      <trkpt lat="43.22409" lon="5.39034">
        <ele>150</ele>
        <time>2021-05-09T11:59:47Z</time>
      </trkpt>
      <trkpt lat="43.22414" lon="5.3904">
        <ele>150</ele>
        <time>2021-05-09T11:59:57Z</time>
      </trkpt>
      <trkpt lat="43.22418" lon="5.39042">
        <ele>149</ele>
        <time>2021-05-09T12:00:06Z</time>
      </trkpt>
      <trkpt lat="43.2242" lon="5.39043">
        <ele>148</ele>
        <time>2021-05-09T12:00:15Z</time>
      </trkpt>
      <trkpt lat="43.22424" lon="5.39046">
        <ele>148</ele>
        <time>2021-05-09T12:00:25Z</time>
      </trkpt>
      <trkpt lat="43.22426" lon="5.39045">
        <ele>148</ele>
        <time>2021-05-09T12:00:41Z</time>
      </trkpt>
      <trkpt lat="43.22428" lon="5.39042">
        <ele>148</ele>
        <time>2021-05-09T12:00:50Z</time>
      </trkpt>
      <trkpt lat="43.2243" lon="5.39045">
        <ele>150</ele>
        <time>2021-05-09T12:01:02Z</time>
      </trkpt>
      <trkpt lat="43.22432" lon="5.39044">
        <ele>150</ele>
        <time>2021-05-09T12:01:13Z</time>
      </trkpt>
      <trkpt lat="43.22435" lon="5.39045">
        <ele>147</ele>
        <time>2021-05-09T12:01:23Z</time>
      </trkpt>
      <trkpt lat="43.22441" lon="5.39044">
        <ele>145</ele>
        <time>2021-05-09T12:01:36Z</time>
      </trkpt>
      <trkpt lat="43.22443" lon="5.39042">
        <ele>142</ele>
        <time>2021-05-09T12:01:45Z</time>
      </trkpt>
      <trkpt lat="43.22452" lon="5.39046">
        <ele>142</ele>
        <time>2021-05-09T12:01:58Z</time>
      </trkpt>
      <trkpt lat="43.22459" lon="5.39047">
        <ele>142</ele>
        <time>2021-05-09T12:02:08Z</time>
      </trkpt>
      <trkpt lat="43.22464" lon="5.39046">
        <ele>146</ele>
        <time>2021-05-09T12:02:18Z</time>
      </trkpt>
      <trkpt lat="43.2247" lon="5.39051">
        <ele>143</ele>
        <time>2021-05-09T12:02:31Z</time>
      </trkpt>
      <trkpt lat="43.22474" lon="5.39049">
        <ele>140</ele>
        <time>2021-05-09T12:02:40Z</time>
      </trkpt>
      <trkpt lat="43.2248" lon="5.39045">
        <ele>137</ele>
        <time>2021-05-09T12:02:50Z</time>
      </trkpt>
      <trkpt lat="43.22483" lon="5.39044">
        <ele>135</ele>
        <time>2021-05-09T12:02:59Z</time>
      </trkpt>
      <trkpt lat="43.22491" lon="5.3904">
        <ele>133</ele>
        <time>2021-05-09T12:03:12Z</time>
      </trkpt>
      <trkpt lat="43.225" lon="5.3904">
        <ele>130</ele>
        <time>2021-05-09T12:03:22Z</time>
      </trkpt>
      <trkpt lat="43.22508" lon="5.39038">
        <ele>123</ele>
        <time>2021-05-09T12:03:31Z</time>
      </trkpt>
      <trkpt lat="43.22517" lon="5.39039">
        <ele>123</ele>
        <time>2021-05-09T12:03:41Z</time>
      </trkpt>
      <trkpt lat="43.22529" lon="5.39043">
        <ele>118</ele>
        <time>2021-05-09T12:03:51Z</time>
      </trkpt>
      <trkpt lat="43.22537" lon="5.39044">
        <ele>113</ele>
        <time>2021-05-09T12:04:01Z</time>
      </trkpt>
      <trkpt lat="43.22546" lon="5.39042">
        <ele>113</ele>
        <time>2021-05-09T12:04:11Z</time>
      </trkpt>
      <trkpt lat="43.22554" lon="5.39042">
        <ele>113</ele>
        <time>2021-05-09T12:04:20Z</time>
      </trkpt>
      <trkpt lat="43.22573" lon="5.39047">
        <ele>116</ele>
        <time>2021-05-09T12:04:29Z</time>
      </trkpt>
      <trkpt lat="43.22582" lon="5.39047">
        <ele>116</ele>
        <time>2021-05-09T12:04:39Z</time>
      </trkpt>
      <trkpt lat="43.2259" lon="5.39048">
        <ele>116</ele>
        <time>2021-05-09T12:04:49Z</time>
      </trkpt>
      <trkpt lat="43.22597" lon="5.39051">
        <ele>116</ele>
        <time>2021-05-09T12:04:59Z</time>
      </trkpt>
      <trkpt lat="43.22607" lon="5.39054">
        <ele>113</ele>
        <time>2021-05-09T12:05:08Z</time>
      </trkpt>
      <trkpt lat="43.22615" lon="5.39055">
        <ele>113</ele>
        <time>2021-05-09T12:05:18Z</time>
      </trkpt>
      <trkpt lat="43.22622" lon="5.39051">
        <ele>116</ele>
        <time>2021-05-09T12:05:27Z</time>
      </trkpt>
      <trkpt lat="43.2263" lon="5.3905">
        <ele>119</ele>
        <time>2021-05-09T12:05:36Z</time>
      </trkpt>
      <trkpt lat="43.22638" lon="5.39048">
        <ele>122</ele>
        <time>2021-05-09T12:05:45Z</time>
      </trkpt>
      <trkpt lat="43.22644" lon="5.39048">
        <ele>123</ele>
        <time>2021-05-09T12:05:54Z</time>
      </trkpt>
      <trkpt lat="43.22652" lon="5.39048">
        <ele>122</ele>
        <time>2021-05-09T12:06:03Z</time>
      </trkpt>
      <trkpt lat="43.22661" lon="5.39047">
        <ele>121</ele>
        <time>2021-05-09T12:06:13Z</time>
      </trkpt>
      <trkpt lat="43.22668" lon="5.39044">
        <ele>121</ele>
        <time>2021-05-09T12:06:23Z</time>
      </trkpt>
      <trkpt lat="43.22678" lon="5.39042">
        <ele>121</ele>
        <time>2021-05-09T12:06:34Z</time>
      </trkpt>
      <trkpt lat="43.22681" lon="5.39042">
        <ele>121</ele>
        <time>2021-05-09T12:06:44Z</time>
      </trkpt>
      <trkpt lat="43.22691" lon="5.39041">
        <ele>121</ele>
        <time>2021-05-09T12:06:54Z</time>
      </trkpt>
      <trkpt lat="43.22704" lon="5.39036">
        <ele>116</ele>
        <time>2021-05-09T12:07:03Z</time>
      </trkpt>
      <trkpt lat="43.22712" lon="5.39036">
        <ele>107</ele>
        <time>2021-05-09T12:07:12Z</time>
      </trkpt>
      <trkpt lat="43.2272" lon="5.3904">
        <ele>104</ele>
        <time>2021-05-09T12:07:22Z</time>
      </trkpt>
      <trkpt lat="43.22723" lon="5.39044">
        <ele>103</ele>
        <time>2021-05-09T12:07:33Z</time>
      </trkpt>
      <trkpt lat="43.22729" lon="5.39051">
        <ele>100</ele>
        <time>2021-05-09T12:07:42Z</time>
      </trkpt>
      <trkpt lat="43.22736" lon="5.3906">
        <ele>96</ele>
        <time>2021-05-09T12:07:52Z</time>
      </trkpt>
      <trkpt lat="43.2274" lon="5.39073">
        <ele>96</ele>
        <time>2021-05-09T12:08:02Z</time>
      </trkpt>
      <trkpt lat="43.22747" lon="5.39082">
        <ele>95</ele>
        <time>2021-05-09T12:08:12Z</time>
      </trkpt>
      <trkpt lat="43.22752" lon="5.39088">
        <ele>95</ele>
        <time>2021-05-09T12:08:21Z</time>
      </trkpt>
      <trkpt lat="43.2276" lon="5.39099">
        <ele>95</ele>
        <time>2021-05-09T12:08:31Z</time>
      </trkpt>
      <trkpt lat="43.22768" lon="5.3911">
        <ele>95</ele>
        <time>2021-05-09T12:08:41Z</time>
      </trkpt>
      <trkpt lat="43.22777" lon="5.39117">
        <ele>95</ele>
        <time>2021-05-09T12:08:51Z</time>
      </trkpt>
      <trkpt lat="43.22786" lon="5.39122">
        <ele>95</ele>
        <time>2021-05-09T12:09:00Z</time>
      </trkpt>
      <trkpt lat="43.22795" lon="5.39126">
        <ele>94</ele>
        <time>2021-05-09T12:09:09Z</time>
      </trkpt>
      <trkpt lat="43.22803" lon="5.39128">
        <ele>93</ele>
        <time>2021-05-09T12:09:18Z</time>
      </trkpt>
      <trkpt lat="43.22813" lon="5.39131">
        <ele>93</ele>
        <time>2021-05-09T12:09:27Z</time>
      </trkpt>
      <trkpt lat="43.22824" lon="5.39135">
        <ele>90</ele>
        <time>2021-05-09T12:09:37Z</time>
      </trkpt>
      <trkpt lat="43.22833" lon="5.39139">
        <ele>89</ele>
        <time>2021-05-09T12:09:46Z</time>
      </trkpt>
      <trkpt lat="43.22844" lon="5.39143">
        <ele>87</ele>
        <time>2021-05-09T12:09:55Z</time>
      </trkpt>
      <trkpt lat="43.22853" lon="5.39145">
        <ele>87</ele>
        <time>2021-05-09T12:10:04Z</time>
      </trkpt>
      <trkpt lat="43.22861" lon="5.39148">
        <ele>87</ele>
        <time>2021-05-09T12:10:13Z</time>
      </trkpt>
      <trkpt lat="43.2287" lon="5.39151">
        <ele>87</ele>
        <time>2021-05-09T12:10:22Z</time>
      </trkpt>
      <trkpt lat="43.22879" lon="5.39156">
        <ele>87</ele>
        <time>2021-05-09T12:10:31Z</time>
      </trkpt>
      <trkpt lat="43.2289" lon="5.39162">
        <ele>87</ele>
        <time>2021-05-09T12:10:41Z</time>
      </trkpt>
      <trkpt lat="43.22899" lon="5.39169">
        <ele>87</ele>
        <time>2021-05-09T12:10:50Z</time>
      </trkpt>
      <trkpt lat="43.22903" lon="5.39176">
        <ele>87</ele>
        <time>2021-05-09T12:10:59Z</time>
      </trkpt>
      <trkpt lat="43.2291" lon="5.39186">
        <ele>87</ele>
        <time>2021-05-09T12:11:08Z</time>
      </trkpt>
      <trkpt lat="43.22917" lon="5.39195">
        <ele>87</ele>
        <time>2021-05-09T12:11:18Z</time>
      </trkpt>
      <trkpt lat="43.22925" lon="5.39205">
        <ele>87</ele>
        <time>2021-05-09T12:11:28Z</time>
      </trkpt>
      <trkpt lat="43.22934" lon="5.39216">
        <ele>87</ele>
        <time>2021-05-09T12:11:38Z</time>
      </trkpt>
      <trkpt lat="43.22941" lon="5.39226">
        <ele>87</ele>
        <time>2021-05-09T12:11:47Z</time>
      </trkpt>
      <trkpt lat="43.22948" lon="5.39236">
        <ele>87</ele>
        <time>2021-05-09T12:11:57Z</time>
      </trkpt>
      <trkpt lat="43.22954" lon="5.39246">
        <ele>87</ele>
        <time>2021-05-09T12:12:07Z</time>
      </trkpt>
      <trkpt lat="43.22959" lon="5.39257">
        <ele>87</ele>
        <time>2021-05-09T12:12:16Z</time>
      </trkpt>
      <trkpt lat="43.22966" lon="5.39269">
        <ele>85</ele>
        <time>2021-05-09T12:12:26Z</time>
      </trkpt>
      <trkpt lat="43.22975" lon="5.39279">
        <ele>84</ele>
        <time>2021-05-09T12:12:36Z</time>
      </trkpt>
      <trkpt lat="43.22984" lon="5.39288">
        <ele>84</ele>
        <time>2021-05-09T12:12:45Z</time>
      </trkpt>
      <trkpt lat="43.22992" lon="5.39296">
        <ele>84</ele>
        <time>2021-05-09T12:12:55Z</time>
      </trkpt>
      <trkpt lat="43.23" lon="5.39305">
        <ele>84</ele>
        <time>2021-05-09T12:13:05Z</time>
      </trkpt>
      <trkpt lat="43.23008" lon="5.39313">
        <ele>84</ele>
        <time>2021-05-09T12:13:14Z</time>
      </trkpt>
      <trkpt lat="43.23015" lon="5.39323">
        <ele>84</ele>
        <time>2021-05-09T12:13:24Z</time>
      </trkpt>
      <trkpt lat="43.23021" lon="5.39334">
        <ele>84</ele>
        <time>2021-05-09T12:13:34Z</time>
      </trkpt>
      <trkpt lat="43.23026" lon="5.39347">
        <ele>84</ele>
        <time>2021-05-09T12:13:44Z</time>
      </trkpt>
      <trkpt lat="43.23032" lon="5.3936">
        <ele>84</ele>
        <time>2021-05-09T12:13:54Z</time>
      </trkpt>
      <trkpt lat="43.23039" lon="5.39372">
        <ele>84</ele>
        <time>2021-05-09T12:14:04Z</time>
      </trkpt>
      <trkpt lat="43.23046" lon="5.39384">
        <ele>83</ele>
        <time>2021-05-09T12:14:13Z</time>
      </trkpt>
      <trkpt lat="43.2305" lon="5.39398">
        <ele>81</ele>
        <time>2021-05-09T12:14:22Z</time>
      </trkpt>
      <trkpt lat="43.23055" lon="5.39411">
        <ele>80</ele>
        <time>2021-05-09T12:14:32Z</time>
      </trkpt>
      <trkpt lat="43.23058" lon="5.39424">
        <ele>79</ele>
        <time>2021-05-09T12:14:41Z</time>
      </trkpt>
      <trkpt lat="43.2306" lon="5.39435">
        <ele>79</ele>
        <time>2021-05-09T12:14:50Z</time>
      </trkpt>
      <trkpt lat="43.23063" lon="5.39442">
        <ele>79</ele>
        <time>2021-05-09T12:15:00Z</time>
      </trkpt>
      <trkpt lat="43.23071" lon="5.39452">
        <ele>78</ele>
        <time>2021-05-09T12:15:10Z</time>
      </trkpt>
      <trkpt lat="43.2308" lon="5.39463">
        <ele>75</ele>
        <time>2021-05-09T12:15:20Z</time>
      </trkpt>
      <trkpt lat="43.23083" lon="5.39471">
        <ele>75</ele>
        <time>2021-05-09T12:15:29Z</time>
      </trkpt>
      <trkpt lat="43.2309" lon="5.39481">
        <ele>75</ele>
        <time>2021-05-09T12:15:38Z</time>
      </trkpt>
      <trkpt lat="43.23096" lon="5.39492">
        <ele>75</ele>
        <time>2021-05-09T12:15:47Z</time>
      </trkpt>
      <trkpt lat="43.23102" lon="5.39504">
        <ele>74</ele>
        <time>2021-05-09T12:15:57Z</time>
      </trkpt>
      <trkpt lat="43.23106" lon="5.39507">
        <ele>74</ele>
        <time>2021-05-09T12:16:11Z</time>
      </trkpt>
      <trkpt lat="43.2311" lon="5.39505">
        <ele>70</ele>
        <time>2021-05-09T12:16:21Z</time>
      </trkpt>
      <trkpt lat="43.23114" lon="5.39505">
        <ele>67</ele>
        <time>2021-05-09T12:16:32Z</time>
      </trkpt>
      <trkpt lat="43.23114" lon="5.39506">
        <ele>67</ele>
        <time>2021-05-09T12:16:42Z</time>
      </trkpt>
      <trkpt lat="43.23111" lon="5.39508">
        <ele>67</ele>
        <time>2021-05-09T12:16:54Z</time>
      </trkpt>
      <trkpt lat="43.23112" lon="5.39506">
        <ele>68</ele>
        <time>2021-05-09T12:18:29Z</time>
      </trkpt>
      <trkpt lat="43.23111" lon="5.39507">
        <ele>66</ele>
        <time>2021-05-09T12:18:45Z</time>
      </trkpt>
      <trkpt lat="43.23112" lon="5.39508">
        <ele>66</ele>
        <time>2021-05-09T12:18:58Z</time>
      </trkpt>
      <trkpt lat="43.23111" lon="5.39507">
        <ele>67</ele>
        <time>2021-05-09T12:19:08Z</time>
      </trkpt>
    </trkseg>
  </trk>
</gpx>